<?xml version="1.0" encoding="UTF-8" standalone="no" ?>
<gpx xmlns="http://www.topografix.com/GPX/1/1" xmlns:xsi="http://www.w3.org/2001/XMLSchema-instance" xsi:schemaLocation="http://www.topografix.com/GPX/1/1 http://www.topografix.com/GPX/1/1/gpx.xsd" version="1.1" creator="VisuGPX - https://www.visugpx.com">
  <metadata>
    <name>VTT_givors</name>
    <desc><![CDATA[sortie OVS du 03/09/2011
La pluie nous a contraint à faire les 12 derniers kms par la route...]]></desc>
  </metadata>
  <trk>
    <name><![CDATA[ovs_03092011]]></name>
    <trkseg>
      <trkpt lat="45.59904" lon="4.76906">
        <ele>156.8321533</ele>
        <time>2011-09-03T12:17:43Z</time>
      </trkpt>
      <trkpt lat="45.59912" lon="4.76906">
        <ele>156.3515625</ele>
        <time>2011-09-03T12:17:48Z</time>
      </trkpt>
      <trkpt lat="45.59916" lon="4.76908">
        <ele>156.3515625</ele>
        <time>2011-09-03T12:17:51Z</time>
      </trkpt>
      <trkpt lat="45.59919" lon="4.76913">
        <ele>156.3515625</ele>
        <time>2011-09-03T12:17:53Z</time>
      </trkpt>
      <trkpt lat="45.59944" lon="4.7692">
        <ele>155.8709717</ele>
        <time>2011-09-03T12:18:03Z</time>
      </trkpt>
      <trkpt lat="45.59965" lon="4.76924">
        <ele>155.8709717</ele>
        <time>2011-09-03T12:18:12Z</time>
      </trkpt>
      <trkpt lat="45.59973" lon="4.76925">
        <ele>151.5449219</ele>
        <time>2011-09-03T12:18:15Z</time>
      </trkpt>
      <trkpt lat="45.59976" lon="4.76925">
        <ele>151.5449219</ele>
        <time>2011-09-03T12:18:16Z</time>
      </trkpt>
      <trkpt lat="45.59985" lon="4.76925">
        <ele>148.1804199</ele>
        <time>2011-09-03T12:18:20Z</time>
      </trkpt>
      <trkpt lat="45.59997" lon="4.76925">
        <ele>144.8157959</ele>
        <time>2011-09-03T12:18:25Z</time>
      </trkpt>
      <trkpt lat="45.6" lon="4.76925">
        <ele>144.8157959</ele>
        <time>2011-09-03T12:18:26Z</time>
      </trkpt>
      <trkpt lat="45.60023" lon="4.76924">
        <ele>144.3352051</ele>
        <time>2011-09-03T12:18:32Z</time>
      </trkpt>
      <trkpt lat="45.60053" lon="4.7691">
        <ele>144.8157959</ele>
        <time>2011-09-03T12:18:41Z</time>
      </trkpt>
      <trkpt lat="45.60079" lon="4.76887">
        <ele>144.3352051</ele>
        <time>2011-09-03T12:18:51Z</time>
      </trkpt>
      <trkpt lat="45.60097" lon="4.76866">
        <ele>144.3352051</ele>
        <time>2011-09-03T12:18:58Z</time>
      </trkpt>
      <trkpt lat="45.60117" lon="4.76841">
        <ele>120.7828369</ele>
        <time>2011-09-03T12:19:06Z</time>
      </trkpt>
      <trkpt lat="45.60119" lon="4.76839">
        <ele>122.2247314</ele>
        <time>2011-09-03T12:19:07Z</time>
      </trkpt>
      <trkpt lat="45.60128" lon="4.76826">
        <ele>125.1087646</ele>
        <time>2011-09-03T12:19:11Z</time>
      </trkpt>
      <trkpt lat="45.60136" lon="4.76814">
        <ele>129.4346924</ele>
        <time>2011-09-03T12:19:15Z</time>
      </trkpt>
      <trkpt lat="45.60138" lon="4.76811">
        <ele>129.4346924</ele>
        <time>2011-09-03T12:19:16Z</time>
      </trkpt>
      <trkpt lat="45.60148" lon="4.76795">
        <ele>133.2799072</ele>
        <time>2011-09-03T12:19:21Z</time>
      </trkpt>
      <trkpt lat="45.60159" lon="4.76776">
        <ele>136.1639404</ele>
        <time>2011-09-03T12:19:27Z</time>
      </trkpt>
      <trkpt lat="45.60175" lon="4.7675">
        <ele>139.0478516</ele>
        <time>2011-09-03T12:19:35Z</time>
      </trkpt>
      <trkpt lat="45.60198" lon="4.76734">
        <ele>141.4510498</ele>
        <time>2011-09-03T12:19:43Z</time>
      </trkpt>
      <trkpt lat="45.60232" lon="4.76731">
        <ele>144.3352051</ele>
        <time>2011-09-03T12:19:53Z</time>
      </trkpt>
      <trkpt lat="45.6026" lon="4.7674">
        <ele>147.2189941</ele>
        <time>2011-09-03T12:20:02Z</time>
      </trkpt>
      <trkpt lat="45.60267" lon="4.76754">
        <ele>147.699707</ele>
        <time>2011-09-03T12:20:06Z</time>
      </trkpt>
      <trkpt lat="45.60282" lon="4.76756">
        <ele>148.6610107</ele>
        <time>2011-09-03T12:20:10Z</time>
      </trkpt>
      <trkpt lat="45.60298" lon="4.76747">
        <ele>149.6223145</ele>
        <time>2011-09-03T12:20:15Z</time>
      </trkpt>
      <trkpt lat="45.60335" lon="4.76746">
        <ele>152.5063477</ele>
        <time>2011-09-03T12:20:25Z</time>
      </trkpt>
      <trkpt lat="45.6036" lon="4.76761">
        <ele>154.4289551</ele>
        <time>2011-09-03T12:20:33Z</time>
      </trkpt>
      <trkpt lat="45.60393" lon="4.76773">
        <ele>156.3515625</ele>
        <time>2011-09-03T12:20:43Z</time>
      </trkpt>
      <trkpt lat="45.60425" lon="4.76775">
        <ele>156.8321533</ele>
        <time>2011-09-03T12:20:52Z</time>
      </trkpt>
      <trkpt lat="45.6047" lon="4.76774">
        <ele>156.8321533</ele>
        <time>2011-09-03T12:21:05Z</time>
      </trkpt>
      <trkpt lat="45.60511" lon="4.76774">
        <ele>156.8321533</ele>
        <time>2011-09-03T12:21:17Z</time>
      </trkpt>
      <trkpt lat="45.60549" lon="4.76775">
        <ele>156.8321533</ele>
        <time>2011-09-03T12:21:28Z</time>
      </trkpt>
      <trkpt lat="45.60565" lon="4.76778">
        <ele>156.3515625</ele>
        <time>2011-09-03T12:21:34Z</time>
      </trkpt>
      <trkpt lat="45.60574" lon="4.76808">
        <ele>156.8321533</ele>
        <time>2011-09-03T12:21:43Z</time>
      </trkpt>
      <trkpt lat="45.60575" lon="4.7681">
        <ele>156.8321533</ele>
        <time>2011-09-03T12:21:44Z</time>
      </trkpt>
      <trkpt lat="45.60592" lon="4.76803">
        <ele>156.3515625</ele>
        <time>2011-09-03T12:21:50Z</time>
      </trkpt>
      <trkpt lat="45.60615" lon="4.76794">
        <ele>156.3515625</ele>
        <time>2011-09-03T12:21:57Z</time>
      </trkpt>
      <trkpt lat="45.60634" lon="4.76807">
        <ele>156.8321533</ele>
        <time>2011-09-03T12:22:03Z</time>
      </trkpt>
      <trkpt lat="45.60661" lon="4.76831">
        <ele>157.7935791</ele>
        <time>2011-09-03T12:22:14Z</time>
      </trkpt>
      <trkpt lat="45.60686" lon="4.76854">
        <ele>157.7935791</ele>
        <time>2011-09-03T12:22:24Z</time>
      </trkpt>
      <trkpt lat="45.60709" lon="4.76877">
        <ele>158.2741699</ele>
        <time>2011-09-03T12:22:33Z</time>
      </trkpt>
      <trkpt lat="45.60736" lon="4.76902">
        <ele>158.7547607</ele>
        <time>2011-09-03T12:22:43Z</time>
      </trkpt>
      <trkpt lat="45.60765" lon="4.76929">
        <ele>160.6774902</ele>
        <time>2011-09-03T12:22:54Z</time>
      </trkpt>
      <trkpt lat="45.60784" lon="4.76931">
        <ele>162.1195068</ele>
        <time>2011-09-03T12:23:01Z</time>
      </trkpt>
      <trkpt lat="45.60793" lon="4.76908">
        <ele>162.6000977</ele>
        <time>2011-09-03T12:23:08Z</time>
      </trkpt>
      <trkpt lat="45.60805" lon="4.76877">
        <ele>164.0421143</ele>
        <time>2011-09-03T12:23:17Z</time>
      </trkpt>
      <trkpt lat="45.60823" lon="4.76834">
        <ele>164.5227051</ele>
        <time>2011-09-03T12:23:28Z</time>
      </trkpt>
      <trkpt lat="45.60842" lon="4.76813">
        <ele>165.4841309</ele>
        <time>2011-09-03T12:23:36Z</time>
      </trkpt>
      <trkpt lat="45.60852" lon="4.7681">
        <ele>166.4453125</ele>
        <time>2011-09-03T12:23:43Z</time>
      </trkpt>
      <trkpt lat="45.60853" lon="4.7681">
        <ele>165.9647217</ele>
        <time>2011-09-03T12:23:44Z</time>
      </trkpt>
      <trkpt lat="45.60865" lon="4.76816">
        <ele>167.4067383</ele>
        <time>2011-09-03T12:23:55Z</time>
      </trkpt>
      <trkpt lat="45.60867" lon="4.76815">
        <ele>167.8873291</ele>
        <time>2011-09-03T12:23:58Z</time>
      </trkpt>
      <trkpt lat="45.60875" lon="4.76806">
        <ele>168.8487549</ele>
        <time>2011-09-03T12:24:07Z</time>
      </trkpt>
      <trkpt lat="45.60882" lon="4.768">
        <ele>170.2906494</ele>
        <time>2011-09-03T12:24:13Z</time>
      </trkpt>
      <trkpt lat="45.609" lon="4.76794">
        <ele>172.2132568</ele>
        <time>2011-09-03T12:24:23Z</time>
      </trkpt>
      <trkpt lat="45.60914" lon="4.76791">
        <ele>174.1358643</ele>
        <time>2011-09-03T12:24:29Z</time>
      </trkpt>
      <trkpt lat="45.60933" lon="4.76785">
        <ele>176.5393066</ele>
        <time>2011-09-03T12:24:38Z</time>
      </trkpt>
      <trkpt lat="45.60949" lon="4.76785">
        <ele>178.4619141</ele>
        <time>2011-09-03T12:24:46Z</time>
      </trkpt>
      <trkpt lat="45.60957" lon="4.76789">
        <ele>179.9038086</ele>
        <time>2011-09-03T12:24:50Z</time>
      </trkpt>
      <trkpt lat="45.60967" lon="4.76793">
        <ele>181.826416</ele>
        <time>2011-09-03T12:24:55Z</time>
      </trkpt>
      <trkpt lat="45.60987" lon="4.76799">
        <ele>184.7105713</ele>
        <time>2011-09-03T12:25:01Z</time>
      </trkpt>
      <trkpt lat="45.61014" lon="4.76803">
        <ele>186.6331787</ele>
        <time>2011-09-03T12:25:10Z</time>
      </trkpt>
      <trkpt lat="45.61029" lon="4.76797">
        <ele>188.5557861</ele>
        <time>2011-09-03T12:25:17Z</time>
      </trkpt>
      <trkpt lat="45.61048" lon="4.76789">
        <ele>191.9202881</ele>
        <time>2011-09-03T12:25:25Z</time>
      </trkpt>
      <trkpt lat="45.61051" lon="4.76789">
        <ele>192.8817139</ele>
        <time>2011-09-03T12:25:27Z</time>
      </trkpt>
      <trkpt lat="45.61055" lon="4.76788">
        <ele>193.8430176</ele>
        <time>2011-09-03T12:25:29Z</time>
      </trkpt>
      <trkpt lat="45.61062" lon="4.76775">
        <ele>194.3237305</ele>
        <time>2011-09-03T12:25:36Z</time>
      </trkpt>
      <trkpt lat="45.61057" lon="4.7677">
        <ele>194.3237305</ele>
        <time>2011-09-03T12:25:41Z</time>
      </trkpt>
      <trkpt lat="45.61056" lon="4.76775">
        <ele>194.3237305</ele>
        <time>2011-09-03T12:25:45Z</time>
      </trkpt>
      <trkpt lat="45.61058" lon="4.76767">
        <ele>194.3237305</ele>
        <time>2011-09-03T12:25:51Z</time>
      </trkpt>
      <trkpt lat="45.61053" lon="4.76761">
        <ele>193.8430176</ele>
        <time>2011-09-03T12:25:56Z</time>
      </trkpt>
      <trkpt lat="45.61052" lon="4.76754">
        <ele>194.3237305</ele>
        <time>2011-09-03T12:26:01Z</time>
      </trkpt>
      <trkpt lat="45.61058" lon="4.7676">
        <ele>194.3237305</ele>
        <time>2011-09-03T12:26:06Z</time>
      </trkpt>
      <trkpt lat="45.61059" lon="4.76769">
        <ele>194.3237305</ele>
        <time>2011-09-03T12:26:14Z</time>
      </trkpt>
      <trkpt lat="45.61056" lon="4.76761">
        <ele>194.3237305</ele>
        <time>2011-09-03T12:26:18Z</time>
      </trkpt>
      <trkpt lat="45.61047" lon="4.76727">
        <ele>194.3237305</ele>
        <time>2011-09-03T12:26:28Z</time>
      </trkpt>
      <trkpt lat="45.6104" lon="4.7667">
        <ele>193.8430176</ele>
        <time>2011-09-03T12:26:40Z</time>
      </trkpt>
      <trkpt lat="45.61038" lon="4.76642">
        <ele>193.8430176</ele>
        <time>2011-09-03T12:26:46Z</time>
      </trkpt>
      <trkpt lat="45.61027" lon="4.76634">
        <ele>193.8430176</ele>
        <time>2011-09-03T12:26:51Z</time>
      </trkpt>
      <trkpt lat="45.6103" lon="4.76606">
        <ele>192.401123</ele>
        <time>2011-09-03T12:26:57Z</time>
      </trkpt>
      <trkpt lat="45.61033" lon="4.76593">
        <ele>190.4783936</ele>
        <time>2011-09-03T12:26:59Z</time>
      </trkpt>
      <trkpt lat="45.61034" lon="4.76574">
        <ele>189.036377</ele>
        <time>2011-09-03T12:27:02Z</time>
      </trkpt>
      <trkpt lat="45.61252" lon="4.76231">
        <ele>164.0421143</ele>
        <time>2011-09-03T12:28:46Z</time>
      </trkpt>
      <trkpt lat="45.61204" lon="4.76221">
        <ele>164.5227051</ele>
        <time>2011-09-03T12:28:49Z</time>
      </trkpt>
      <trkpt lat="45.61197" lon="4.76192">
        <ele>164.5227051</ele>
        <time>2011-09-03T12:28:54Z</time>
      </trkpt>
      <trkpt lat="45.61277" lon="4.76055">
        <ele>168.8487549</ele>
        <time>2011-09-03T12:29:23Z</time>
      </trkpt>
      <trkpt lat="45.61298" lon="4.76071">
        <ele>170.2906494</ele>
        <time>2011-09-03T12:29:32Z</time>
      </trkpt>
      <trkpt lat="45.61413" lon="4.76103">
        <ele>175.5778809</ele>
        <time>2011-09-03T12:30:13Z</time>
      </trkpt>
      <trkpt lat="45.61605" lon="4.76025">
        <ele>184.7105713</ele>
        <time>2011-09-03T12:31:22Z</time>
      </trkpt>
      <trkpt lat="45.61816" lon="4.75809">
        <ele>202.9754639</ele>
        <time>2011-09-03T12:33:37Z</time>
      </trkpt>
      <trkpt lat="45.61787" lon="4.75803">
        <ele>202.494873</ele>
        <time>2011-09-03T12:33:40Z</time>
      </trkpt>
      <trkpt lat="45.61926" lon="4.75826">
        <ele>214.9919434</ele>
        <time>2011-09-03T12:34:31Z</time>
      </trkpt>
      <trkpt lat="45.61928" lon="4.75815">
        <ele>214.5112305</ele>
        <time>2011-09-03T12:34:36Z</time>
      </trkpt>
      <trkpt lat="45.61911" lon="4.75793">
        <ele>217.3953857</ele>
        <time>2011-09-03T12:34:53Z</time>
      </trkpt>
      <trkpt lat="45.61884" lon="4.7573">
        <ele>224.6052246</ele>
        <time>2011-09-03T12:35:23Z</time>
      </trkpt>
      <trkpt lat="45.61879" lon="4.75707">
        <ele>225.0859375</ele>
        <time>2011-09-03T12:35:32Z</time>
      </trkpt>
      <trkpt lat="45.61879" lon="4.75637">
        <ele>232.7764893</ele>
        <time>2011-09-03T12:35:59Z</time>
      </trkpt>
      <trkpt lat="45.61899" lon="4.75596">
        <ele>236.6217041</ele>
        <time>2011-09-03T12:36:17Z</time>
      </trkpt>
      <trkpt lat="45.61913" lon="4.75562">
        <ele>238.0635986</ele>
        <time>2011-09-03T12:36:33Z</time>
      </trkpt>
      <trkpt lat="45.6193" lon="4.75535">
        <ele>238.5443115</ele>
        <time>2011-09-03T12:36:45Z</time>
      </trkpt>
      <trkpt lat="45.61941" lon="4.75516">
        <ele>239.0249023</ele>
        <time>2011-09-03T12:36:54Z</time>
      </trkpt>
      <trkpt lat="45.61983" lon="4.75449">
        <ele>239.9862061</ele>
        <time>2011-09-03T12:37:22Z</time>
      </trkpt>
      <trkpt lat="45.62033" lon="4.75236">
        <ele>254.4060059</ele>
        <time>2011-09-03T12:38:48Z</time>
      </trkpt>
      <trkpt lat="45.62022" lon="4.75226">
        <ele>254.8865967</ele>
        <time>2011-09-03T12:38:54Z</time>
      </trkpt>
      <trkpt lat="45.61996" lon="4.75219">
        <ele>255.3673096</ele>
        <time>2011-09-03T12:39:06Z</time>
      </trkpt>
      <trkpt lat="45.61962" lon="4.75213">
        <ele>255.8480225</ele>
        <time>2011-09-03T12:39:19Z</time>
      </trkpt>
      <trkpt lat="45.61937" lon="4.752">
        <ele>257.2900391</ele>
        <time>2011-09-03T12:39:29Z</time>
      </trkpt>
      <trkpt lat="45.61928" lon="4.75172">
        <ele>258.2513428</ele>
        <time>2011-09-03T12:39:37Z</time>
      </trkpt>
      <trkpt lat="45.61926" lon="4.75131">
        <ele>258.7319336</ele>
        <time>2011-09-03T12:39:48Z</time>
      </trkpt>
      <trkpt lat="45.61927" lon="4.75041">
        <ele>261.6159668</ele>
        <time>2011-09-03T12:40:14Z</time>
      </trkpt>
      <trkpt lat="45.61909" lon="4.75015">
        <ele>263.5385742</ele>
        <time>2011-09-03T12:40:25Z</time>
      </trkpt>
      <trkpt lat="45.61875" lon="4.74994">
        <ele>265.4613037</ele>
        <time>2011-09-03T12:40:40Z</time>
      </trkpt>
      <trkpt lat="45.61864" lon="4.74984">
        <ele>267.3839111</ele>
        <time>2011-09-03T12:40:45Z</time>
      </trkpt>
      <trkpt lat="45.61846" lon="4.74945">
        <ele>266.9031982</ele>
        <time>2011-09-03T12:40:58Z</time>
      </trkpt>
      <trkpt lat="45.61921" lon="4.74871">
        <ele>270.2677002</ele>
        <time>2011-09-03T12:41:28Z</time>
      </trkpt>
      <trkpt lat="45.61936" lon="4.74854">
        <ele>273.6324463</ele>
        <time>2011-09-03T12:41:34Z</time>
      </trkpt>
      <trkpt lat="45.61979" lon="4.74797">
        <ele>277.4776611</ele>
        <time>2011-09-03T12:41:56Z</time>
      </trkpt>
      <trkpt lat="45.61974" lon="4.74752">
        <ele>276.5163574</ele>
        <time>2011-09-03T12:42:05Z</time>
      </trkpt>
      <trkpt lat="45.6197" lon="4.74711">
        <ele>276.9970703</ele>
        <time>2011-09-03T12:42:13Z</time>
      </trkpt>
      <trkpt lat="45.61989" lon="4.74679">
        <ele>277.4776611</ele>
        <time>2011-09-03T12:42:23Z</time>
      </trkpt>
      <trkpt lat="45.61999" lon="4.7467">
        <ele>277.4776611</ele>
        <time>2011-09-03T12:42:27Z</time>
      </trkpt>
      <trkpt lat="45.61985" lon="4.74583">
        <ele>276.0356445</ele>
        <time>2011-09-03T12:42:43Z</time>
      </trkpt>
      <trkpt lat="45.61967" lon="4.7454">
        <ele>276.5163574</ele>
        <time>2011-09-03T12:42:51Z</time>
      </trkpt>
      <trkpt lat="45.61936" lon="4.74432">
        <ele>275.5550537</ele>
        <time>2011-09-03T12:43:11Z</time>
      </trkpt>
      <trkpt lat="45.61955" lon="4.74399">
        <ele>276.0356445</ele>
        <time>2011-09-03T12:43:20Z</time>
      </trkpt>
      <trkpt lat="45.61973" lon="4.74366">
        <ele>276.0356445</ele>
        <time>2011-09-03T12:43:28Z</time>
      </trkpt>
      <trkpt lat="45.61967" lon="4.74292">
        <ele>277.4776611</ele>
        <time>2011-09-03T12:43:39Z</time>
      </trkpt>
      <trkpt lat="45.61965" lon="4.74241">
        <ele>278.9196777</ele>
        <time>2011-09-03T12:43:49Z</time>
      </trkpt>
      <trkpt lat="45.61979" lon="4.74209">
        <ele>278.9196777</ele>
        <time>2011-09-03T12:43:57Z</time>
      </trkpt>
      <trkpt lat="45.62002" lon="4.74188">
        <ele>280.3616943</ele>
        <time>2011-09-03T12:44:06Z</time>
      </trkpt>
      <trkpt lat="45.62016" lon="4.7416">
        <ele>281.8035889</ele>
        <time>2011-09-03T12:44:15Z</time>
      </trkpt>
      <trkpt lat="45.62032" lon="4.74127">
        <ele>282.2843018</ele>
        <time>2011-09-03T12:44:27Z</time>
      </trkpt>
      <trkpt lat="45.62048" lon="4.741">
        <ele>281.8035889</ele>
        <time>2011-09-03T12:44:35Z</time>
      </trkpt>
      <trkpt lat="45.62073" lon="4.74067">
        <ele>280.3616943</ele>
        <time>2011-09-03T12:44:43Z</time>
      </trkpt>
      <trkpt lat="45.62101" lon="4.74">
        <ele>278.4389648</ele>
        <time>2011-09-03T12:44:55Z</time>
      </trkpt>
      <trkpt lat="45.62124" lon="4.73934">
        <ele>277.958252</ele>
        <time>2011-09-03T12:45:08Z</time>
      </trkpt>
      <trkpt lat="45.62141" lon="4.7389">
        <ele>277.958252</ele>
        <time>2011-09-03T12:45:18Z</time>
      </trkpt>
      <trkpt lat="45.62152" lon="4.73869">
        <ele>277.4776611</ele>
        <time>2011-09-03T12:45:25Z</time>
      </trkpt>
      <trkpt lat="45.62177" lon="4.73874">
        <ele>277.4776611</ele>
        <time>2011-09-03T12:45:34Z</time>
      </trkpt>
      <trkpt lat="45.62216" lon="4.73893">
        <ele>277.4776611</ele>
        <time>2011-09-03T12:45:46Z</time>
      </trkpt>
      <trkpt lat="45.62258" lon="4.739">
        <ele>276.9970703</ele>
        <time>2011-09-03T12:45:57Z</time>
      </trkpt>
      <trkpt lat="45.62293" lon="4.73897">
        <ele>276.5163574</ele>
        <time>2011-09-03T12:46:06Z</time>
      </trkpt>
      <trkpt lat="45.62337" lon="4.73891">
        <ele>276.5163574</ele>
        <time>2011-09-03T12:46:17Z</time>
      </trkpt>
      <trkpt lat="45.62382" lon="4.73886">
        <ele>276.9970703</ele>
        <time>2011-09-03T12:46:28Z</time>
      </trkpt>
      <trkpt lat="45.62386" lon="4.73886">
        <ele>276.5163574</ele>
        <time>2011-09-03T12:46:29Z</time>
      </trkpt>
      <trkpt lat="45.62398" lon="4.73887">
        <ele>276.5163574</ele>
        <time>2011-09-03T12:46:32Z</time>
      </trkpt>
      <trkpt lat="45.6241" lon="4.73893">
        <ele>276.5163574</ele>
        <time>2011-09-03T12:46:35Z</time>
      </trkpt>
      <trkpt lat="45.62447" lon="4.73931">
        <ele>276.9970703</ele>
        <time>2011-09-03T12:46:46Z</time>
      </trkpt>
      <trkpt lat="45.62469" lon="4.73955">
        <ele>276.5163574</ele>
        <time>2011-09-03T12:46:52Z</time>
      </trkpt>
      <trkpt lat="45.625" lon="4.7401">
        <ele>277.958252</ele>
        <time>2011-09-03T12:47:03Z</time>
      </trkpt>
      <trkpt lat="45.6252" lon="4.74042">
        <ele>279.8808594</ele>
        <time>2011-09-03T12:47:09Z</time>
      </trkpt>
      <trkpt lat="45.62544" lon="4.74083">
        <ele>281.8035889</ele>
        <time>2011-09-03T12:47:16Z</time>
      </trkpt>
      <trkpt lat="45.62552" lon="4.741">
        <ele>283.2456055</ele>
        <time>2011-09-03T12:47:19Z</time>
      </trkpt>
      <trkpt lat="45.62585" lon="4.74164">
        <ele>283.7261963</ele>
        <time>2011-09-03T12:47:30Z</time>
      </trkpt>
      <trkpt lat="45.62598" lon="4.74195">
        <ele>284.2069092</ele>
        <time>2011-09-03T12:47:35Z</time>
      </trkpt>
      <trkpt lat="45.62607" lon="4.74221">
        <ele>284.2069092</ele>
        <time>2011-09-03T12:47:39Z</time>
      </trkpt>
      <trkpt lat="45.62622" lon="4.74283">
        <ele>285.1682129</ele>
        <time>2011-09-03T12:47:49Z</time>
      </trkpt>
      <trkpt lat="45.62628" lon="4.74303">
        <ele>285.6488037</ele>
        <time>2011-09-03T12:47:56Z</time>
      </trkpt>
      <trkpt lat="45.62634" lon="4.7432">
        <ele>286.1295166</ele>
        <time>2011-09-03T12:48:06Z</time>
      </trkpt>
      <trkpt lat="45.62641" lon="4.74335">
        <ele>287.5714111</ele>
        <time>2011-09-03T12:48:13Z</time>
      </trkpt>
      <trkpt lat="45.62648" lon="4.74364">
        <ele>289.0135498</ele>
        <time>2011-09-03T12:48:24Z</time>
      </trkpt>
      <trkpt lat="45.62661" lon="4.74399">
        <ele>290.4555664</ele>
        <time>2011-09-03T12:48:33Z</time>
      </trkpt>
      <trkpt lat="45.62673" lon="4.74426">
        <ele>292.3781738</ele>
        <time>2011-09-03T12:48:41Z</time>
      </trkpt>
      <trkpt lat="45.62687" lon="4.7446">
        <ele>295.2619629</ele>
        <time>2011-09-03T12:48:51Z</time>
      </trkpt>
      <trkpt lat="45.62701" lon="4.74481">
        <ele>298.1461182</ele>
        <time>2011-09-03T12:49:00Z</time>
      </trkpt>
      <trkpt lat="45.62713" lon="4.74488">
        <ele>301.5106201</ele>
        <time>2011-09-03T12:49:07Z</time>
      </trkpt>
      <trkpt lat="45.6272" lon="4.74494">
        <ele>302.4719238</ele>
        <time>2011-09-03T12:49:14Z</time>
      </trkpt>
      <trkpt lat="45.62722" lon="4.74494">
        <ele>302.4719238</ele>
        <time>2011-09-03T12:49:17Z</time>
      </trkpt>
      <trkpt lat="45.62725" lon="4.74493">
        <ele>302.4719238</ele>
        <time>2011-09-03T12:49:20Z</time>
      </trkpt>
      <trkpt lat="45.62735" lon="4.74486">
        <ele>303.4332275</ele>
        <time>2011-09-03T12:49:28Z</time>
      </trkpt>
      <trkpt lat="45.62749" lon="4.74478">
        <ele>304.3946533</ele>
        <time>2011-09-03T12:49:39Z</time>
      </trkpt>
      <trkpt lat="45.62763" lon="4.74473">
        <ele>306.3172607</ele>
        <time>2011-09-03T12:49:50Z</time>
      </trkpt>
      <trkpt lat="45.62766" lon="4.74472">
        <ele>306.3172607</ele>
        <time>2011-09-03T12:49:53Z</time>
      </trkpt>
      <trkpt lat="45.62774" lon="4.74466">
        <ele>306.7978516</ele>
        <time>2011-09-03T12:50:01Z</time>
      </trkpt>
      <trkpt lat="45.62789" lon="4.74459">
        <ele>306.3172607</ele>
        <time>2011-09-03T12:50:11Z</time>
      </trkpt>
      <trkpt lat="45.62814" lon="4.74449">
        <ele>305.8366699</ele>
        <time>2011-09-03T12:50:20Z</time>
      </trkpt>
      <trkpt lat="45.62824" lon="4.74446">
        <ele>304.8752441</ele>
        <time>2011-09-03T12:50:23Z</time>
      </trkpt>
      <trkpt lat="45.62838" lon="4.7446">
        <ele>304.8752441</ele>
        <time>2011-09-03T12:50:27Z</time>
      </trkpt>
      <trkpt lat="45.6286" lon="4.7449">
        <ele>307.7592773</ele>
        <time>2011-09-03T12:50:34Z</time>
      </trkpt>
      <trkpt lat="45.62867" lon="4.74497">
        <ele>309.2011719</ele>
        <time>2011-09-03T12:50:38Z</time>
      </trkpt>
      <trkpt lat="45.62881" lon="4.74515">
        <ele>310.6430664</ele>
        <time>2011-09-03T12:50:44Z</time>
      </trkpt>
      <trkpt lat="45.62897" lon="4.74546">
        <ele>312.5657959</ele>
        <time>2011-09-03T12:50:52Z</time>
      </trkpt>
      <trkpt lat="45.62898" lon="4.74548">
        <ele>312.5657959</ele>
        <time>2011-09-03T12:50:53Z</time>
      </trkpt>
      <trkpt lat="45.62903" lon="4.74548">
        <ele>313.0465088</ele>
        <time>2011-09-03T12:50:58Z</time>
      </trkpt>
      <trkpt lat="45.62914" lon="4.74528">
        <ele>311.1237793</ele>
        <time>2011-09-03T12:51:03Z</time>
      </trkpt>
      <trkpt lat="45.62925" lon="4.74509">
        <ele>307.2785645</ele>
        <time>2011-09-03T12:51:06Z</time>
      </trkpt>
      <trkpt lat="45.62933" lon="4.74494">
        <ele>303.9139404</ele>
        <time>2011-09-03T12:51:08Z</time>
      </trkpt>
      <trkpt lat="45.62946" lon="4.74473">
        <ele>299.5880127</ele>
        <time>2011-09-03T12:51:11Z</time>
      </trkpt>
      <trkpt lat="45.62967" lon="4.7444">
        <ele>295.7426758</ele>
        <time>2011-09-03T12:51:15Z</time>
      </trkpt>
      <trkpt lat="45.62986" lon="4.74408">
        <ele>291.8974609</ele>
        <time>2011-09-03T12:51:18Z</time>
      </trkpt>
      <trkpt lat="45.62992" lon="4.74396">
        <ele>291.416748</ele>
        <time>2011-09-03T12:51:19Z</time>
      </trkpt>
      <trkpt lat="45.63005" lon="4.74376">
        <ele>289.9748535</ele>
        <time>2011-09-03T12:51:22Z</time>
      </trkpt>
      <trkpt lat="45.63007" lon="4.74359">
        <ele>288.532959</ele>
        <time>2011-09-03T12:51:25Z</time>
      </trkpt>
      <trkpt lat="45.63003" lon="4.74347">
        <ele>288.532959</ele>
        <time>2011-09-03T12:51:27Z</time>
      </trkpt>
      <trkpt lat="45.62992" lon="4.74322">
        <ele>288.0522461</ele>
        <time>2011-09-03T12:51:31Z</time>
      </trkpt>
      <trkpt lat="45.62988" lon="4.74291">
        <ele>287.5714111</ele>
        <time>2011-09-03T12:51:35Z</time>
      </trkpt>
      <trkpt lat="45.63001" lon="4.74233">
        <ele>286.6102295</ele>
        <time>2011-09-03T12:51:43Z</time>
      </trkpt>
      <trkpt lat="45.63017" lon="4.74176">
        <ele>286.6102295</ele>
        <time>2011-09-03T12:51:53Z</time>
      </trkpt>
      <trkpt lat="45.63028" lon="4.74139">
        <ele>286.6102295</ele>
        <time>2011-09-03T12:52:02Z</time>
      </trkpt>
      <trkpt lat="45.63035" lon="4.74112">
        <ele>286.1295166</ele>
        <time>2011-09-03T12:52:11Z</time>
      </trkpt>
      <trkpt lat="45.63044" lon="4.74075">
        <ele>286.6102295</ele>
        <time>2011-09-03T12:52:20Z</time>
      </trkpt>
      <trkpt lat="45.63058" lon="4.74025">
        <ele>286.6102295</ele>
        <time>2011-09-03T12:52:31Z</time>
      </trkpt>
      <trkpt lat="45.63068" lon="4.74003">
        <ele>287.0908203</ele>
        <time>2011-09-03T12:52:39Z</time>
      </trkpt>
      <trkpt lat="45.63069" lon="4.73993">
        <ele>286.6102295</ele>
        <time>2011-09-03T12:52:47Z</time>
      </trkpt>
      <trkpt lat="45.63069" lon="4.73993">
        <ele>286.6102295</ele>
        <time>2011-09-03T12:52:55Z</time>
      </trkpt>
      <trkpt lat="45.63069" lon="4.73992">
        <ele>287.0908203</ele>
        <time>2011-09-03T12:53:12Z</time>
      </trkpt>
      <trkpt lat="45.63075" lon="4.73996">
        <ele>286.6102295</ele>
        <time>2011-09-03T12:53:17Z</time>
      </trkpt>
      <trkpt lat="45.63074" lon="4.73988">
        <ele>287.0908203</ele>
        <time>2011-09-03T12:53:23Z</time>
      </trkpt>
      <trkpt lat="45.63067" lon="4.73991">
        <ele>287.0908203</ele>
        <time>2011-09-03T12:53:30Z</time>
      </trkpt>
      <trkpt lat="45.63068" lon="4.73999">
        <ele>287.0908203</ele>
        <time>2011-09-03T12:53:39Z</time>
      </trkpt>
      <trkpt lat="45.63071" lon="4.73997">
        <ele>287.0908203</ele>
        <time>2011-09-03T12:53:45Z</time>
      </trkpt>
      <trkpt lat="45.63069" lon="4.73995">
        <ele>288.0522461</ele>
        <time>2011-09-03T12:57:17Z</time>
      </trkpt>
      <trkpt lat="45.63068" lon="4.73995">
        <ele>288.532959</ele>
        <time>2011-09-03T12:58:46Z</time>
      </trkpt>
      <trkpt lat="45.63081" lon="4.73973">
        <ele>288.0522461</ele>
        <time>2011-09-03T12:58:54Z</time>
      </trkpt>
      <trkpt lat="45.63102" lon="4.7395">
        <ele>287.5714111</ele>
        <time>2011-09-03T12:59:00Z</time>
      </trkpt>
      <trkpt lat="45.63114" lon="4.73941">
        <ele>287.5714111</ele>
        <time>2011-09-03T12:59:03Z</time>
      </trkpt>
      <trkpt lat="45.63147" lon="4.73936">
        <ele>287.0908203</ele>
        <time>2011-09-03T12:59:10Z</time>
      </trkpt>
      <trkpt lat="45.63197" lon="4.73931">
        <ele>287.0908203</ele>
        <time>2011-09-03T12:59:22Z</time>
      </trkpt>
      <trkpt lat="45.63223" lon="4.73926">
        <ele>287.0908203</ele>
        <time>2011-09-03T12:59:29Z</time>
      </trkpt>
      <trkpt lat="45.63261" lon="4.73919">
        <ele>288.532959</ele>
        <time>2011-09-03T12:59:38Z</time>
      </trkpt>
      <trkpt lat="45.63294" lon="4.73917">
        <ele>289.4941406</ele>
        <time>2011-09-03T12:59:47Z</time>
      </trkpt>
      <trkpt lat="45.63334" lon="4.73897">
        <ele>289.9748535</ele>
        <time>2011-09-03T12:59:58Z</time>
      </trkpt>
      <trkpt lat="45.63355" lon="4.739">
        <ele>287.5714111</ele>
        <time>2011-09-03T13:00:03Z</time>
      </trkpt>
      <trkpt lat="45.63371" lon="4.73909">
        <ele>286.1295166</ele>
        <time>2011-09-03T13:00:06Z</time>
      </trkpt>
      <trkpt lat="45.63417" lon="4.73927">
        <ele>282.2843018</ele>
        <time>2011-09-03T13:00:13Z</time>
      </trkpt>
      <trkpt lat="45.63443" lon="4.73936">
        <ele>280.3616943</ele>
        <time>2011-09-03T13:00:17Z</time>
      </trkpt>
      <trkpt lat="45.63511" lon="4.73953">
        <ele>274.59375</ele>
        <time>2011-09-03T13:00:26Z</time>
      </trkpt>
      <trkpt lat="45.63628" lon="4.73972">
        <ele>275.5550537</ele>
        <time>2011-09-03T13:00:43Z</time>
      </trkpt>
      <trkpt lat="45.63692" lon="4.73983">
        <ele>281.322998</ele>
        <time>2011-09-03T13:00:55Z</time>
      </trkpt>
      <trkpt lat="45.63707" lon="4.7393">
        <ele>283.2456055</ele>
        <time>2011-09-03T13:01:10Z</time>
      </trkpt>
      <trkpt lat="45.63747" lon="4.73955">
        <ele>285.6488037</ele>
        <time>2011-09-03T13:01:26Z</time>
      </trkpt>
      <trkpt lat="45.63759" lon="4.73961">
        <ele>286.1295166</ele>
        <time>2011-09-03T13:01:33Z</time>
      </trkpt>
      <trkpt lat="45.6377" lon="4.73965">
        <ele>286.6102295</ele>
        <time>2011-09-03T13:01:43Z</time>
      </trkpt>
      <trkpt lat="45.63789" lon="4.73975">
        <ele>286.6102295</ele>
        <time>2011-09-03T13:01:58Z</time>
      </trkpt>
      <trkpt lat="45.63807" lon="4.7399">
        <ele>285.6488037</ele>
        <time>2011-09-03T13:02:07Z</time>
      </trkpt>
      <trkpt lat="45.63812" lon="4.73996">
        <ele>286.6102295</ele>
        <time>2011-09-03T13:02:08Z</time>
      </trkpt>
      <trkpt lat="45.63822" lon="4.74005">
        <ele>286.6102295</ele>
        <time>2011-09-03T13:02:10Z</time>
      </trkpt>
      <trkpt lat="45.63835" lon="4.74017">
        <ele>287.0908203</ele>
        <time>2011-09-03T13:02:13Z</time>
      </trkpt>
      <trkpt lat="45.63852" lon="4.74031">
        <ele>287.0908203</ele>
        <time>2011-09-03T13:02:19Z</time>
      </trkpt>
      <trkpt lat="45.63855" lon="4.74037">
        <ele>287.0908203</ele>
        <time>2011-09-03T13:02:23Z</time>
      </trkpt>
      <trkpt lat="45.63852" lon="4.7404">
        <ele>287.0908203</ele>
        <time>2011-09-03T13:02:30Z</time>
      </trkpt>
      <trkpt lat="45.63852" lon="4.74038">
        <ele>287.5714111</ele>
        <time>2011-09-03T13:02:31Z</time>
      </trkpt>
      <trkpt lat="45.63854" lon="4.74028">
        <ele>287.5714111</ele>
        <time>2011-09-03T13:02:42Z</time>
      </trkpt>
      <trkpt lat="45.63853" lon="4.74036">
        <ele>287.5714111</ele>
        <time>2011-09-03T13:02:48Z</time>
      </trkpt>
      <trkpt lat="45.63854" lon="4.74046">
        <ele>287.5714111</ele>
        <time>2011-09-03T13:02:57Z</time>
      </trkpt>
      <trkpt lat="45.63853" lon="4.74044">
        <ele>287.5714111</ele>
        <time>2011-09-03T13:03:01Z</time>
      </trkpt>
      <trkpt lat="45.63855" lon="4.74019">
        <ele>287.5714111</ele>
        <time>2011-09-03T13:03:11Z</time>
      </trkpt>
      <trkpt lat="45.63855" lon="4.73963">
        <ele>287.5714111</ele>
        <time>2011-09-03T13:03:23Z</time>
      </trkpt>
      <trkpt lat="45.63855" lon="4.73902">
        <ele>287.5714111</ele>
        <time>2011-09-03T13:03:33Z</time>
      </trkpt>
      <trkpt lat="45.63858" lon="4.73842">
        <ele>288.532959</ele>
        <time>2011-09-03T13:03:43Z</time>
      </trkpt>
      <trkpt lat="45.63864" lon="4.73803">
        <ele>289.0135498</ele>
        <time>2011-09-03T13:03:52Z</time>
      </trkpt>
      <trkpt lat="45.63875" lon="4.73773">
        <ele>289.4941406</ele>
        <time>2011-09-03T13:04:00Z</time>
      </trkpt>
      <trkpt lat="45.63891" lon="4.73736">
        <ele>290.4555664</ele>
        <time>2011-09-03T13:04:08Z</time>
      </trkpt>
      <trkpt lat="45.63906" lon="4.73705">
        <ele>291.416748</ele>
        <time>2011-09-03T13:04:16Z</time>
      </trkpt>
      <trkpt lat="45.63919" lon="4.7366">
        <ele>291.8974609</ele>
        <time>2011-09-03T13:04:25Z</time>
      </trkpt>
      <trkpt lat="45.63916" lon="4.73626">
        <ele>292.8587646</ele>
        <time>2011-09-03T13:04:32Z</time>
      </trkpt>
      <trkpt lat="45.63898" lon="4.73585">
        <ele>294.7813721</ele>
        <time>2011-09-03T13:04:42Z</time>
      </trkpt>
      <trkpt lat="45.63892" lon="4.73571">
        <ele>295.2619629</ele>
        <time>2011-09-03T13:04:45Z</time>
      </trkpt>
      <trkpt lat="45.63895" lon="4.73549">
        <ele>296.2235107</ele>
        <time>2011-09-03T13:04:49Z</time>
      </trkpt>
      <trkpt lat="45.63907" lon="4.7351">
        <ele>298.1461182</ele>
        <time>2011-09-03T13:04:58Z</time>
      </trkpt>
      <trkpt lat="45.63908" lon="4.7348">
        <ele>301.0299072</ele>
        <time>2011-09-03T13:05:05Z</time>
      </trkpt>
      <trkpt lat="45.63911" lon="4.73429">
        <ele>301.991333</ele>
        <time>2011-09-03T13:05:15Z</time>
      </trkpt>
      <trkpt lat="45.63922" lon="4.73405">
        <ele>303.9139404</ele>
        <time>2011-09-03T13:05:21Z</time>
      </trkpt>
      <trkpt lat="45.63933" lon="4.7336">
        <ele>306.3172607</ele>
        <time>2011-09-03T13:05:32Z</time>
      </trkpt>
      <trkpt lat="45.63934" lon="4.73356">
        <ele>306.7978516</ele>
        <time>2011-09-03T13:05:33Z</time>
      </trkpt>
      <trkpt lat="45.63945" lon="4.73314">
        <ele>309.2011719</ele>
        <time>2011-09-03T13:05:44Z</time>
      </trkpt>
      <trkpt lat="45.63975" lon="4.73234">
        <ele>313.5272217</ele>
        <time>2011-09-03T13:06:08Z</time>
      </trkpt>
      <trkpt lat="45.63982" lon="4.73187">
        <ele>315.4498291</ele>
        <time>2011-09-03T13:06:20Z</time>
      </trkpt>
      <trkpt lat="45.63996" lon="4.73141">
        <ele>315.4498291</ele>
        <time>2011-09-03T13:06:31Z</time>
      </trkpt>
      <trkpt lat="45.6402" lon="4.73086">
        <ele>316.8917236</ele>
        <time>2011-09-03T13:06:45Z</time>
      </trkpt>
      <trkpt lat="45.6404" lon="4.73041">
        <ele>319.2950439</ele>
        <time>2011-09-03T13:06:58Z</time>
      </trkpt>
      <trkpt lat="45.64048" lon="4.73024">
        <ele>321.2177734</ele>
        <time>2011-09-03T13:07:03Z</time>
      </trkpt>
      <trkpt lat="45.64062" lon="4.72996">
        <ele>324.5822754</ele>
        <time>2011-09-03T13:07:11Z</time>
      </trkpt>
      <trkpt lat="45.64071" lon="4.72975">
        <ele>326.5048828</ele>
        <time>2011-09-03T13:07:18Z</time>
      </trkpt>
      <trkpt lat="45.64075" lon="4.72967">
        <ele>326.5048828</ele>
        <time>2011-09-03T13:07:27Z</time>
      </trkpt>
      <trkpt lat="45.64081" lon="4.72958">
        <ele>327.9467773</ele>
        <time>2011-09-03T13:07:35Z</time>
      </trkpt>
      <trkpt lat="45.64082" lon="4.72937">
        <ele>328.9083252</ele>
        <time>2011-09-03T13:07:45Z</time>
      </trkpt>
      <trkpt lat="45.64081" lon="4.72925">
        <ele>330.3502197</ele>
        <time>2011-09-03T13:07:50Z</time>
      </trkpt>
      <trkpt lat="45.64073" lon="4.72904">
        <ele>331.3115234</ele>
        <time>2011-09-03T13:08:00Z</time>
      </trkpt>
      <trkpt lat="45.64066" lon="4.72886">
        <ele>332.2728271</ele>
        <time>2011-09-03T13:08:08Z</time>
      </trkpt>
      <trkpt lat="45.64054" lon="4.72855">
        <ele>333.7147217</ele>
        <time>2011-09-03T13:08:18Z</time>
      </trkpt>
      <trkpt lat="45.64039" lon="4.7282">
        <ele>333.7147217</ele>
        <time>2011-09-03T13:08:29Z</time>
      </trkpt>
      <trkpt lat="45.64025" lon="4.72787">
        <ele>334.6761475</ele>
        <time>2011-09-03T13:08:39Z</time>
      </trkpt>
      <trkpt lat="45.64006" lon="4.72743">
        <ele>336.1181641</ele>
        <time>2011-09-03T13:08:52Z</time>
      </trkpt>
      <trkpt lat="45.6398" lon="4.72693">
        <ele>337.5600586</ele>
        <time>2011-09-03T13:09:06Z</time>
      </trkpt>
      <trkpt lat="45.63965" lon="4.72651">
        <ele>338.5214844</ele>
        <time>2011-09-03T13:09:17Z</time>
      </trkpt>
      <trkpt lat="45.63955" lon="4.72601">
        <ele>339.482666</ele>
        <time>2011-09-03T13:09:28Z</time>
      </trkpt>
      <trkpt lat="45.63945" lon="4.72545">
        <ele>339.0020752</ele>
        <time>2011-09-03T13:09:39Z</time>
      </trkpt>
      <trkpt lat="45.6393" lon="4.72481">
        <ele>338.0407715</ele>
        <time>2011-09-03T13:09:50Z</time>
      </trkpt>
      <trkpt lat="45.63923" lon="4.72412">
        <ele>338.0407715</ele>
        <time>2011-09-03T13:10:02Z</time>
      </trkpt>
      <trkpt lat="45.63914" lon="4.72288">
        <ele>338.0407715</ele>
        <time>2011-09-03T13:10:28Z</time>
      </trkpt>
      <trkpt lat="45.63945" lon="4.72286">
        <ele>337.5600586</ele>
        <time>2011-09-03T13:10:35Z</time>
      </trkpt>
      <trkpt lat="45.6407" lon="4.72274">
        <ele>334.1954346</ele>
        <time>2011-09-03T13:11:00Z</time>
      </trkpt>
      <trkpt lat="45.64099" lon="4.72249">
        <ele>333.2341309</ele>
        <time>2011-09-03T13:11:05Z</time>
      </trkpt>
      <trkpt lat="45.64111" lon="4.72225">
        <ele>332.75354</ele>
        <time>2011-09-03T13:11:08Z</time>
      </trkpt>
      <trkpt lat="45.641" lon="4.72093">
        <ele>333.2341309</ele>
        <time>2011-09-03T13:11:23Z</time>
      </trkpt>
      <trkpt lat="45.64106" lon="4.72073">
        <ele>333.7147217</ele>
        <time>2011-09-03T13:11:26Z</time>
      </trkpt>
      <trkpt lat="45.6413" lon="4.71999">
        <ele>334.1954346</ele>
        <time>2011-09-03T13:11:39Z</time>
      </trkpt>
      <trkpt lat="45.64147" lon="4.71977">
        <ele>334.1954346</ele>
        <time>2011-09-03T13:11:44Z</time>
      </trkpt>
      <trkpt lat="45.6417" lon="4.71945">
        <ele>333.2341309</ele>
        <time>2011-09-03T13:11:51Z</time>
      </trkpt>
      <trkpt lat="45.64183" lon="4.71939">
        <ele>332.75354</ele>
        <time>2011-09-03T13:11:54Z</time>
      </trkpt>
      <trkpt lat="45.64225" lon="4.71954">
        <ele>329.388916</ele>
        <time>2011-09-03T13:12:01Z</time>
      </trkpt>
      <trkpt lat="45.64272" lon="4.71964">
        <ele>325.0629883</ele>
        <time>2011-09-03T13:12:06Z</time>
      </trkpt>
      <trkpt lat="45.64306" lon="4.71973">
        <ele>321.6983643</ele>
        <time>2011-09-03T13:12:09Z</time>
      </trkpt>
      <trkpt lat="45.64329" lon="4.71979">
        <ele>318.8143311</ele>
        <time>2011-09-03T13:12:11Z</time>
      </trkpt>
      <trkpt lat="45.64378" lon="4.71997">
        <ele>314.9691162</ele>
        <time>2011-09-03T13:12:15Z</time>
      </trkpt>
      <trkpt lat="45.64418" lon="4.72014">
        <ele>311.1237793</ele>
        <time>2011-09-03T13:12:18Z</time>
      </trkpt>
      <trkpt lat="45.64459" lon="4.72034">
        <ele>307.2785645</ele>
        <time>2011-09-03T13:12:21Z</time>
      </trkpt>
      <trkpt lat="45.64512" lon="4.72053">
        <ele>302.9525146</ele>
        <time>2011-09-03T13:12:25Z</time>
      </trkpt>
      <trkpt lat="45.64523" lon="4.72057">
        <ele>303.4332275</ele>
        <time>2011-09-03T13:12:26Z</time>
      </trkpt>
      <trkpt lat="45.64573" lon="4.72074">
        <ele>301.0299072</ele>
        <time>2011-09-03T13:12:33Z</time>
      </trkpt>
      <trkpt lat="45.64603" lon="4.72064">
        <ele>297.6654053</ele>
        <time>2011-09-03T13:12:37Z</time>
      </trkpt>
      <trkpt lat="45.64635" lon="4.72046">
        <ele>295.2619629</ele>
        <time>2011-09-03T13:12:41Z</time>
      </trkpt>
      <trkpt lat="45.6466" lon="4.72034">
        <ele>293.8200684</ele>
        <time>2011-09-03T13:12:44Z</time>
      </trkpt>
      <trkpt lat="45.64686" lon="4.72019">
        <ele>292.3781738</ele>
        <time>2011-09-03T13:12:47Z</time>
      </trkpt>
      <trkpt lat="45.64738" lon="4.71994">
        <ele>289.0135498</ele>
        <time>2011-09-03T13:12:53Z</time>
      </trkpt>
      <trkpt lat="45.64746" lon="4.7199">
        <ele>288.532959</ele>
        <time>2011-09-03T13:12:54Z</time>
      </trkpt>
      <trkpt lat="45.64799" lon="4.71969">
        <ele>286.1295166</ele>
        <time>2011-09-03T13:13:01Z</time>
      </trkpt>
      <trkpt lat="45.64822" lon="4.71952">
        <ele>283.7261963</ele>
        <time>2011-09-03T13:13:05Z</time>
      </trkpt>
      <trkpt lat="45.64824" lon="4.71931">
        <ele>282.7650146</ele>
        <time>2011-09-03T13:13:09Z</time>
      </trkpt>
      <trkpt lat="45.64819" lon="4.71889">
        <ele>281.322998</ele>
        <time>2011-09-03T13:13:15Z</time>
      </trkpt>
      <trkpt lat="45.64809" lon="4.71817">
        <ele>278.9196777</ele>
        <time>2011-09-03T13:13:23Z</time>
      </trkpt>
      <trkpt lat="45.64816" lon="4.71795">
        <ele>280.3616943</ele>
        <time>2011-09-03T13:13:28Z</time>
      </trkpt>
      <trkpt lat="45.64825" lon="4.71782">
        <ele>282.2843018</ele>
        <time>2011-09-03T13:13:35Z</time>
      </trkpt>
      <trkpt lat="45.64833" lon="4.71778">
        <ele>282.2843018</ele>
        <time>2011-09-03T13:13:44Z</time>
      </trkpt>
      <trkpt lat="45.64838" lon="4.71777">
        <ele>282.7650146</ele>
        <time>2011-09-03T13:13:57Z</time>
      </trkpt>
      <trkpt lat="45.64834" lon="4.71778">
        <ele>283.2456055</ele>
        <time>2011-09-03T13:14:11Z</time>
      </trkpt>
      <trkpt lat="45.64829" lon="4.71778">
        <ele>283.2456055</ele>
        <time>2011-09-03T13:14:19Z</time>
      </trkpt>
      <trkpt lat="45.6482" lon="4.71773">
        <ele>283.2456055</ele>
        <time>2011-09-03T13:14:25Z</time>
      </trkpt>
      <trkpt lat="45.64811" lon="4.7176">
        <ele>283.7261963</ele>
        <time>2011-09-03T13:14:30Z</time>
      </trkpt>
      <trkpt lat="45.64783" lon="4.7174">
        <ele>287.0908203</ele>
        <time>2011-09-03T13:14:37Z</time>
      </trkpt>
      <trkpt lat="45.64778" lon="4.71736">
        <ele>288.0522461</ele>
        <time>2011-09-03T13:14:39Z</time>
      </trkpt>
      <trkpt lat="45.64749" lon="4.71717">
        <ele>289.9748535</ele>
        <time>2011-09-03T13:14:51Z</time>
      </trkpt>
      <trkpt lat="45.64711" lon="4.71698">
        <ele>292.8587646</ele>
        <time>2011-09-03T13:15:05Z</time>
      </trkpt>
      <trkpt lat="45.6468" lon="4.71692">
        <ele>293.8200684</ele>
        <time>2011-09-03T13:15:16Z</time>
      </trkpt>
      <trkpt lat="45.64663" lon="4.71685">
        <ele>293.3393555</ele>
        <time>2011-09-03T13:15:22Z</time>
      </trkpt>
      <trkpt lat="45.64642" lon="4.71685">
        <ele>294.3007813</ele>
        <time>2011-09-03T13:15:28Z</time>
      </trkpt>
      <trkpt lat="45.64632" lon="4.71676">
        <ele>295.2619629</ele>
        <time>2011-09-03T13:15:32Z</time>
      </trkpt>
      <trkpt lat="45.6463" lon="4.71644">
        <ele>296.7041016</ele>
        <time>2011-09-03T13:15:40Z</time>
      </trkpt>
      <trkpt lat="45.64631" lon="4.71609">
        <ele>298.626709</ele>
        <time>2011-09-03T13:15:50Z</time>
      </trkpt>
      <trkpt lat="45.64633" lon="4.71567">
        <ele>301.0299072</ele>
        <time>2011-09-03T13:16:02Z</time>
      </trkpt>
      <trkpt lat="45.64635" lon="4.71535">
        <ele>303.4332275</ele>
        <time>2011-09-03T13:16:12Z</time>
      </trkpt>
      <trkpt lat="45.64636" lon="4.71532">
        <ele>303.9139404</ele>
        <time>2011-09-03T13:16:13Z</time>
      </trkpt>
      <trkpt lat="45.64638" lon="4.71502">
        <ele>304.8752441</ele>
        <time>2011-09-03T13:16:24Z</time>
      </trkpt>
      <trkpt lat="45.6463" lon="4.71486">
        <ele>305.8366699</ele>
        <time>2011-09-03T13:16:33Z</time>
      </trkpt>
      <trkpt lat="45.64615" lon="4.71479">
        <ele>306.3172607</ele>
        <time>2011-09-03T13:16:40Z</time>
      </trkpt>
      <trkpt lat="45.64606" lon="4.71476">
        <ele>307.2785645</ele>
        <time>2011-09-03T13:16:44Z</time>
      </trkpt>
      <trkpt lat="45.64582" lon="4.71467">
        <ele>307.7592773</ele>
        <time>2011-09-03T13:16:53Z</time>
      </trkpt>
      <trkpt lat="45.64552" lon="4.71454">
        <ele>308.720459</ele>
        <time>2011-09-03T13:17:04Z</time>
      </trkpt>
      <trkpt lat="45.64534" lon="4.71441">
        <ele>309.2011719</ele>
        <time>2011-09-03T13:17:11Z</time>
      </trkpt>
      <trkpt lat="45.64539" lon="4.71425">
        <ele>310.1624756</ele>
        <time>2011-09-03T13:17:16Z</time>
      </trkpt>
      <trkpt lat="45.64543" lon="4.71423">
        <ele>310.1624756</ele>
        <time>2011-09-03T13:17:17Z</time>
      </trkpt>
      <trkpt lat="45.64583" lon="4.71386">
        <ele>310.6430664</ele>
        <time>2011-09-03T13:17:27Z</time>
      </trkpt>
      <trkpt lat="45.64613" lon="4.71349">
        <ele>310.1624756</ele>
        <time>2011-09-03T13:17:36Z</time>
      </trkpt>
      <trkpt lat="45.64629" lon="4.71331">
        <ele>309.2011719</ele>
        <time>2011-09-03T13:17:40Z</time>
      </trkpt>
      <trkpt lat="45.64658" lon="4.7131">
        <ele>308.720459</ele>
        <time>2011-09-03T13:17:46Z</time>
      </trkpt>
      <trkpt lat="45.64703" lon="4.71306">
        <ele>306.3172607</ele>
        <time>2011-09-03T13:17:54Z</time>
      </trkpt>
      <trkpt lat="45.64762" lon="4.71308">
        <ele>306.3172607</ele>
        <time>2011-09-03T13:18:05Z</time>
      </trkpt>
      <trkpt lat="45.64778" lon="4.71306">
        <ele>305.8366699</ele>
        <time>2011-09-03T13:18:08Z</time>
      </trkpt>
      <trkpt lat="45.64843" lon="4.71288">
        <ele>305.355957</ele>
        <time>2011-09-03T13:18:21Z</time>
      </trkpt>
      <trkpt lat="45.64907" lon="4.71272">
        <ele>303.9139404</ele>
        <time>2011-09-03T13:18:34Z</time>
      </trkpt>
      <trkpt lat="45.64956" lon="4.71282">
        <ele>302.9525146</ele>
        <time>2011-09-03T13:18:43Z</time>
      </trkpt>
      <trkpt lat="45.65013" lon="4.71308">
        <ele>301.991333</ele>
        <time>2011-09-03T13:18:53Z</time>
      </trkpt>
      <trkpt lat="45.65038" lon="4.71315">
        <ele>301.5106201</ele>
        <time>2011-09-03T13:18:57Z</time>
      </trkpt>
      <trkpt lat="45.65114" lon="4.71317">
        <ele>301.991333</ele>
        <time>2011-09-03T13:19:09Z</time>
      </trkpt>
      <trkpt lat="45.65182" lon="4.71303">
        <ele>298.1461182</ele>
        <time>2011-09-03T13:19:19Z</time>
      </trkpt>
      <trkpt lat="45.65239" lon="4.71289">
        <ele>297.1846924</ele>
        <time>2011-09-03T13:19:27Z</time>
      </trkpt>
      <trkpt lat="45.65246" lon="4.71283">
        <ele>296.7041016</ele>
        <time>2011-09-03T13:19:29Z</time>
      </trkpt>
      <trkpt lat="45.65233" lon="4.71261">
        <ele>297.1846924</ele>
        <time>2011-09-03T13:19:36Z</time>
      </trkpt>
      <trkpt lat="45.65197" lon="4.71221">
        <ele>299.1072998</ele>
        <time>2011-09-03T13:19:50Z</time>
      </trkpt>
      <trkpt lat="45.65154" lon="4.71184">
        <ele>301.991333</ele>
        <time>2011-09-03T13:20:05Z</time>
      </trkpt>
      <trkpt lat="45.65106" lon="4.71147">
        <ele>303.4332275</ele>
        <time>2011-09-03T13:20:21Z</time>
      </trkpt>
      <trkpt lat="45.65087" lon="4.71133">
        <ele>307.2785645</ele>
        <time>2011-09-03T13:20:27Z</time>
      </trkpt>
      <trkpt lat="45.65056" lon="4.71108">
        <ele>308.2398682</ele>
        <time>2011-09-03T13:20:38Z</time>
      </trkpt>
      <trkpt lat="45.6503" lon="4.71083">
        <ele>310.1624756</ele>
        <time>2011-09-03T13:20:48Z</time>
      </trkpt>
      <trkpt lat="45.65" lon="4.71053">
        <ele>311.1237793</ele>
        <time>2011-09-03T13:20:59Z</time>
      </trkpt>
      <trkpt lat="45.64962" lon="4.71012">
        <ele>312.0852051</ele>
        <time>2011-09-03T13:21:13Z</time>
      </trkpt>
      <trkpt lat="45.64926" lon="4.7097">
        <ele>313.5272217</ele>
        <time>2011-09-03T13:21:27Z</time>
      </trkpt>
      <trkpt lat="45.64896" lon="4.70934">
        <ele>316.8917236</ele>
        <time>2011-09-03T13:21:40Z</time>
      </trkpt>
      <trkpt lat="45.64867" lon="4.709">
        <ele>319.7756348</ele>
        <time>2011-09-03T13:21:53Z</time>
      </trkpt>
      <trkpt lat="45.64836" lon="4.70868">
        <ele>323.1403809</ele>
        <time>2011-09-03T13:22:05Z</time>
      </trkpt>
      <trkpt lat="45.64809" lon="4.70846">
        <ele>326.0241699</ele>
        <time>2011-09-03T13:22:15Z</time>
      </trkpt>
      <trkpt lat="45.64791" lon="4.70829">
        <ele>328.9083252</ele>
        <time>2011-09-03T13:22:21Z</time>
      </trkpt>
      <trkpt lat="45.64774" lon="4.70815">
        <ele>331.3115234</ele>
        <time>2011-09-03T13:22:26Z</time>
      </trkpt>
      <trkpt lat="45.64759" lon="4.70806">
        <ele>332.2728271</ele>
        <time>2011-09-03T13:22:32Z</time>
      </trkpt>
      <trkpt lat="45.64745" lon="4.70799">
        <ele>333.7147217</ele>
        <time>2011-09-03T13:22:40Z</time>
      </trkpt>
      <trkpt lat="45.6473" lon="4.70782">
        <ele>334.1954346</ele>
        <time>2011-09-03T13:22:48Z</time>
      </trkpt>
      <trkpt lat="45.64708" lon="4.70753">
        <ele>335.1567383</ele>
        <time>2011-09-03T13:22:58Z</time>
      </trkpt>
      <trkpt lat="45.64685" lon="4.70725">
        <ele>335.6373291</ele>
        <time>2011-09-03T13:23:08Z</time>
      </trkpt>
      <trkpt lat="45.64654" lon="4.70685">
        <ele>338.5214844</ele>
        <time>2011-09-03T13:23:21Z</time>
      </trkpt>
      <trkpt lat="45.64648" lon="4.70679">
        <ele>339.0020752</ele>
        <time>2011-09-03T13:23:23Z</time>
      </trkpt>
      <trkpt lat="45.64617" lon="4.70638">
        <ele>341.8859863</ele>
        <time>2011-09-03T13:23:32Z</time>
      </trkpt>
      <trkpt lat="45.64614" lon="4.70633">
        <ele>342.3666992</ele>
        <time>2011-09-03T13:23:33Z</time>
      </trkpt>
      <trkpt lat="45.64602" lon="4.70616">
        <ele>344.7700195</ele>
        <time>2011-09-03T13:23:37Z</time>
      </trkpt>
      <trkpt lat="45.64573" lon="4.70575">
        <ele>348.1346436</ele>
        <time>2011-09-03T13:23:47Z</time>
      </trkpt>
      <trkpt lat="45.6457" lon="4.70572">
        <ele>348.1346436</ele>
        <time>2011-09-03T13:23:48Z</time>
      </trkpt>
      <trkpt lat="45.64543" lon="4.70531">
        <ele>351.0184326</ele>
        <time>2011-09-03T13:23:59Z</time>
      </trkpt>
      <trkpt lat="45.64531" lon="4.70508">
        <ele>352.9411621</ele>
        <time>2011-09-03T13:24:06Z</time>
      </trkpt>
      <trkpt lat="45.6451" lon="4.70473">
        <ele>355.8251953</ele>
        <time>2011-09-03T13:24:17Z</time>
      </trkpt>
      <trkpt lat="45.64491" lon="4.70443">
        <ele>359.1896973</ele>
        <time>2011-09-03T13:24:25Z</time>
      </trkpt>
      <trkpt lat="45.64483" lon="4.70425">
        <ele>360.6317139</ele>
        <time>2011-09-03T13:24:31Z</time>
      </trkpt>
      <trkpt lat="45.64474" lon="4.70407">
        <ele>363.0350342</ele>
        <time>2011-09-03T13:24:38Z</time>
      </trkpt>
      <trkpt lat="45.64472" lon="4.70405">
        <ele>363.0350342</ele>
        <time>2011-09-03T13:24:39Z</time>
      </trkpt>
      <trkpt lat="45.64456" lon="4.70376">
        <ele>365.9189453</ele>
        <time>2011-09-03T13:24:52Z</time>
      </trkpt>
      <trkpt lat="45.64436" lon="4.70352">
        <ele>367.8415527</ele>
        <time>2011-09-03T13:25:04Z</time>
      </trkpt>
      <trkpt lat="45.64422" lon="4.70345">
        <ele>368.8029785</ele>
        <time>2011-09-03T13:25:12Z</time>
      </trkpt>
      <trkpt lat="45.64409" lon="4.70329">
        <ele>369.2836914</ele>
        <time>2011-09-03T13:25:22Z</time>
      </trkpt>
      <trkpt lat="45.64391" lon="4.70309">
        <ele>372.1674805</ele>
        <time>2011-09-03T13:25:35Z</time>
      </trkpt>
      <trkpt lat="45.64377" lon="4.70297">
        <ele>371.6868896</ele>
        <time>2011-09-03T13:25:45Z</time>
      </trkpt>
      <trkpt lat="45.64368" lon="4.70289">
        <ele>371.6868896</ele>
        <time>2011-09-03T13:25:52Z</time>
      </trkpt>
      <trkpt lat="45.64367" lon="4.70286">
        <ele>371.6868896</ele>
        <time>2011-09-03T13:25:53Z</time>
      </trkpt>
      <trkpt lat="45.64369" lon="4.70279">
        <ele>373.1289063</ele>
        <time>2011-09-03T13:25:57Z</time>
      </trkpt>
      <trkpt lat="45.64375" lon="4.70278">
        <ele>373.1289063</ele>
        <time>2011-09-03T13:26:01Z</time>
      </trkpt>
      <trkpt lat="45.64385" lon="4.70269">
        <ele>373.1289063</ele>
        <time>2011-09-03T13:26:08Z</time>
      </trkpt>
      <trkpt lat="45.64388" lon="4.70274">
        <ele>372.6481934</ele>
        <time>2011-09-03T13:26:14Z</time>
      </trkpt>
      <trkpt lat="45.64374" lon="4.70281">
        <ele>372.6481934</ele>
        <time>2011-09-03T13:26:21Z</time>
      </trkpt>
      <trkpt lat="45.64366" lon="4.70274">
        <ele>373.1289063</ele>
        <time>2011-09-03T13:26:24Z</time>
      </trkpt>
      <trkpt lat="45.64341" lon="4.70245">
        <ele>373.1289063</ele>
        <time>2011-09-03T13:26:33Z</time>
      </trkpt>
      <trkpt lat="45.6433" lon="4.70229">
        <ele>374.0900879</ele>
        <time>2011-09-03T13:26:40Z</time>
      </trkpt>
      <trkpt lat="45.64333" lon="4.70222">
        <ele>374.5708008</ele>
        <time>2011-09-03T13:26:44Z</time>
      </trkpt>
      <trkpt lat="45.64343" lon="4.70204">
        <ele>375.5321045</ele>
        <time>2011-09-03T13:26:53Z</time>
      </trkpt>
      <trkpt lat="45.64344" lon="4.70202">
        <ele>375.5321045</ele>
        <time>2011-09-03T13:26:54Z</time>
      </trkpt>
      <trkpt lat="45.64339" lon="4.70202">
        <ele>375.5321045</ele>
        <time>2011-09-03T13:27:00Z</time>
      </trkpt>
      <trkpt lat="45.64339" lon="4.70208">
        <ele>375.5321045</ele>
        <time>2011-09-03T13:27:02Z</time>
      </trkpt>
      <trkpt lat="45.64332" lon="4.70224">
        <ele>375.0515137</ele>
        <time>2011-09-03T13:27:09Z</time>
      </trkpt>
      <trkpt lat="45.64331" lon="4.70228">
        <ele>374.5708008</ele>
        <time>2011-09-03T13:27:17Z</time>
      </trkpt>
      <trkpt lat="45.64331" lon="4.70231">
        <ele>373.6094971</ele>
        <time>2011-09-03T13:29:31Z</time>
      </trkpt>
      <trkpt lat="45.6433" lon="4.70231">
        <ele>373.6094971</ele>
        <time>2011-09-03T13:30:01Z</time>
      </trkpt>
      <trkpt lat="45.6433" lon="4.70231">
        <ele>373.6094971</ele>
        <time>2011-09-03T13:30:03Z</time>
      </trkpt>
      <trkpt lat="45.64331" lon="4.70235">
        <ele>373.1289063</ele>
        <time>2011-09-03T13:30:11Z</time>
      </trkpt>
      <trkpt lat="45.64331" lon="4.70235">
        <ele>373.1289063</ele>
        <time>2011-09-03T13:30:55Z</time>
      </trkpt>
      <trkpt lat="45.6433" lon="4.70236">
        <ele>373.1289063</ele>
        <time>2011-09-03T13:31:15Z</time>
      </trkpt>
      <trkpt lat="45.64322" lon="4.70255">
        <ele>371.6868896</ele>
        <time>2011-09-03T13:31:20Z</time>
      </trkpt>
      <trkpt lat="45.64316" lon="4.70281">
        <ele>368.8029785</ele>
        <time>2011-09-03T13:31:23Z</time>
      </trkpt>
      <trkpt lat="45.64303" lon="4.70334">
        <ele>364.4769287</ele>
        <time>2011-09-03T13:31:28Z</time>
      </trkpt>
      <trkpt lat="45.64298" lon="4.70358">
        <ele>363.0350342</ele>
        <time>2011-09-03T13:31:30Z</time>
      </trkpt>
      <trkpt lat="45.64285" lon="4.70429">
        <ele>359.6704102</ele>
        <time>2011-09-03T13:31:36Z</time>
      </trkpt>
      <trkpt lat="45.64281" lon="4.70463">
        <ele>358.7089844</ele>
        <time>2011-09-03T13:31:39Z</time>
      </trkpt>
      <trkpt lat="45.64261" lon="4.70553">
        <ele>355.8251953</ele>
        <time>2011-09-03T13:31:48Z</time>
      </trkpt>
      <trkpt lat="45.64238" lon="4.70615">
        <ele>353.9025879</ele>
        <time>2011-09-03T13:31:55Z</time>
      </trkpt>
      <trkpt lat="45.64204" lon="4.7068">
        <ele>351.9798584</ele>
        <time>2011-09-03T13:32:03Z</time>
      </trkpt>
      <trkpt lat="45.64163" lon="4.70758">
        <ele>349.5765381</ele>
        <time>2011-09-03T13:32:13Z</time>
      </trkpt>
      <trkpt lat="45.64129" lon="4.70811">
        <ele>349.0958252</ele>
        <time>2011-09-03T13:32:22Z</time>
      </trkpt>
      <trkpt lat="45.64086" lon="4.7087">
        <ele>345.7313232</ele>
        <time>2011-09-03T13:32:32Z</time>
      </trkpt>
      <trkpt lat="45.64069" lon="4.7089">
        <ele>343.8085938</ele>
        <time>2011-09-03T13:32:35Z</time>
      </trkpt>
      <trkpt lat="45.64026" lon="4.70951">
        <ele>340.4440918</ele>
        <time>2011-09-03T13:32:43Z</time>
      </trkpt>
      <trkpt lat="45.64013" lon="4.70969">
        <ele>339.0020752</ele>
        <time>2011-09-03T13:32:45Z</time>
      </trkpt>
      <trkpt lat="45.63991" lon="4.71004">
        <ele>335.6373291</ele>
        <time>2011-09-03T13:32:49Z</time>
      </trkpt>
      <trkpt lat="45.63983" lon="4.71022">
        <ele>336.1181641</ele>
        <time>2011-09-03T13:32:52Z</time>
      </trkpt>
      <trkpt lat="45.63983" lon="4.71025">
        <ele>336.1181641</ele>
        <time>2011-09-03T13:32:53Z</time>
      </trkpt>
      <trkpt lat="45.6397" lon="4.71046">
        <ele>335.6373291</ele>
        <time>2011-09-03T13:32:57Z</time>
      </trkpt>
      <trkpt lat="45.63951" lon="4.71102">
        <ele>335.6373291</ele>
        <time>2011-09-03T13:33:04Z</time>
      </trkpt>
      <trkpt lat="45.63945" lon="4.71143">
        <ele>335.1567383</ele>
        <time>2011-09-03T13:33:10Z</time>
      </trkpt>
      <trkpt lat="45.63941" lon="4.71167">
        <ele>335.1567383</ele>
        <time>2011-09-03T13:33:14Z</time>
      </trkpt>
      <trkpt lat="45.63938" lon="4.71191">
        <ele>335.1567383</ele>
        <time>2011-09-03T13:33:18Z</time>
      </trkpt>
      <trkpt lat="45.63939" lon="4.71253">
        <ele>335.6373291</ele>
        <time>2011-09-03T13:33:28Z</time>
      </trkpt>
      <trkpt lat="45.63927" lon="4.71255">
        <ele>336.1181641</ele>
        <time>2011-09-03T13:33:32Z</time>
      </trkpt>
      <trkpt lat="45.63919" lon="4.71245">
        <ele>336.1181641</ele>
        <time>2011-09-03T13:33:36Z</time>
      </trkpt>
      <trkpt lat="45.63899" lon="4.71221">
        <ele>336.598877</ele>
        <time>2011-09-03T13:33:46Z</time>
      </trkpt>
      <trkpt lat="45.63872" lon="4.71193">
        <ele>337.5600586</ele>
        <time>2011-09-03T13:33:57Z</time>
      </trkpt>
      <trkpt lat="45.63862" lon="4.71182">
        <ele>337.0794678</ele>
        <time>2011-09-03T13:34:03Z</time>
      </trkpt>
      <trkpt lat="45.63851" lon="4.71172">
        <ele>336.598877</ele>
        <time>2011-09-03T13:34:11Z</time>
      </trkpt>
      <trkpt lat="45.63833" lon="4.71154">
        <ele>336.598877</ele>
        <time>2011-09-03T13:34:25Z</time>
      </trkpt>
      <trkpt lat="45.63809" lon="4.71134">
        <ele>337.0794678</ele>
        <time>2011-09-03T13:34:34Z</time>
      </trkpt>
      <trkpt lat="45.6378" lon="4.71119">
        <ele>337.5600586</ele>
        <time>2011-09-03T13:34:43Z</time>
      </trkpt>
      <trkpt lat="45.63736" lon="4.71099">
        <ele>338.5214844</ele>
        <time>2011-09-03T13:34:56Z</time>
      </trkpt>
      <trkpt lat="45.63713" lon="4.71073">
        <ele>339.0020752</ele>
        <time>2011-09-03T13:35:04Z</time>
      </trkpt>
      <trkpt lat="45.63686" lon="4.71033">
        <ele>339.482666</ele>
        <time>2011-09-03T13:35:15Z</time>
      </trkpt>
      <trkpt lat="45.63686" lon="4.71004">
        <ele>339.0020752</ele>
        <time>2011-09-03T13:35:21Z</time>
      </trkpt>
      <trkpt lat="45.63683" lon="4.70948">
        <ele>339.482666</ele>
        <time>2011-09-03T13:35:31Z</time>
      </trkpt>
      <trkpt lat="45.63676" lon="4.70889">
        <ele>339.0020752</ele>
        <time>2011-09-03T13:35:41Z</time>
      </trkpt>
      <trkpt lat="45.6366" lon="4.70803">
        <ele>338.0407715</ele>
        <time>2011-09-03T13:35:55Z</time>
      </trkpt>
      <trkpt lat="45.63638" lon="4.7069">
        <ele>336.598877</ele>
        <time>2011-09-03T13:36:12Z</time>
      </trkpt>
      <trkpt lat="45.63623" lon="4.70634">
        <ele>337.0794678</ele>
        <time>2011-09-03T13:36:21Z</time>
      </trkpt>
      <trkpt lat="45.63602" lon="4.70571">
        <ele>337.0794678</ele>
        <time>2011-09-03T13:36:32Z</time>
      </trkpt>
      <trkpt lat="45.63584" lon="4.70521">
        <ele>337.5600586</ele>
        <time>2011-09-03T13:36:41Z</time>
      </trkpt>
      <trkpt lat="45.63573" lon="4.70484">
        <ele>338.5214844</ele>
        <time>2011-09-03T13:36:48Z</time>
      </trkpt>
      <trkpt lat="45.63564" lon="4.70451">
        <ele>337.5600586</ele>
        <time>2011-09-03T13:36:54Z</time>
      </trkpt>
      <trkpt lat="45.63552" lon="4.70394">
        <ele>338.0407715</ele>
        <time>2011-09-03T13:37:04Z</time>
      </trkpt>
      <trkpt lat="45.63543" lon="4.7033">
        <ele>339.0020752</ele>
        <time>2011-09-03T13:37:15Z</time>
      </trkpt>
      <trkpt lat="45.63537" lon="4.70275">
        <ele>340.4440918</ele>
        <time>2011-09-03T13:37:25Z</time>
      </trkpt>
      <trkpt lat="45.63531" lon="4.7022">
        <ele>341.4052734</ele>
        <time>2011-09-03T13:37:35Z</time>
      </trkpt>
      <trkpt lat="45.63523" lon="4.70156">
        <ele>342.3666992</ele>
        <time>2011-09-03T13:37:46Z</time>
      </trkpt>
      <trkpt lat="45.63515" lon="4.70103">
        <ele>342.84729</ele>
        <time>2011-09-03T13:37:55Z</time>
      </trkpt>
      <trkpt lat="45.63493" lon="4.70032">
        <ele>343.8085938</ele>
        <time>2011-09-03T13:38:08Z</time>
      </trkpt>
      <trkpt lat="45.63475" lon="4.69977">
        <ele>344.7700195</ele>
        <time>2011-09-03T13:38:19Z</time>
      </trkpt>
      <trkpt lat="45.63467" lon="4.69919">
        <ele>345.7313232</ele>
        <time>2011-09-03T13:38:30Z</time>
      </trkpt>
      <trkpt lat="45.63465" lon="4.69886">
        <ele>346.2120361</ele>
        <time>2011-09-03T13:38:36Z</time>
      </trkpt>
      <trkpt lat="45.6346" lon="4.69807">
        <ele>347.1732178</ele>
        <time>2011-09-03T13:38:50Z</time>
      </trkpt>
      <trkpt lat="45.63452" lon="4.69736">
        <ele>348.1346436</ele>
        <time>2011-09-03T13:39:03Z</time>
      </trkpt>
      <trkpt lat="45.63444" lon="4.69673">
        <ele>349.0958252</ele>
        <time>2011-09-03T13:39:15Z</time>
      </trkpt>
      <trkpt lat="45.63432" lon="4.6963">
        <ele>350.5378418</ele>
        <time>2011-09-03T13:39:24Z</time>
      </trkpt>
      <trkpt lat="45.63422" lon="4.69584">
        <ele>350.5378418</ele>
        <time>2011-09-03T13:39:33Z</time>
      </trkpt>
      <trkpt lat="45.63424" lon="4.69528">
        <ele>351.4991455</ele>
        <time>2011-09-03T13:39:44Z</time>
      </trkpt>
      <trkpt lat="45.63424" lon="4.69487">
        <ele>352.9411621</ele>
        <time>2011-09-03T13:39:52Z</time>
      </trkpt>
      <trkpt lat="45.63416" lon="4.69417">
        <ele>352.9411621</ele>
        <time>2011-09-03T13:40:05Z</time>
      </trkpt>
      <trkpt lat="45.63408" lon="4.69341">
        <ele>354.8637695</ele>
        <time>2011-09-03T13:40:19Z</time>
      </trkpt>
      <trkpt lat="45.63402" lon="4.69285">
        <ele>357.7478027</ele>
        <time>2011-09-03T13:40:30Z</time>
      </trkpt>
      <trkpt lat="45.63396" lon="4.69287">
        <ele>357.7478027</ele>
        <time>2011-09-03T13:40:34Z</time>
      </trkpt>
      <trkpt lat="45.6339" lon="4.69293">
        <ele>356.786377</ele>
        <time>2011-09-03T13:40:38Z</time>
      </trkpt>
      <trkpt lat="45.63371" lon="4.69301">
        <ele>356.3057861</ele>
        <time>2011-09-03T13:40:45Z</time>
      </trkpt>
      <trkpt lat="45.63336" lon="4.69316">
        <ele>354.8637695</ele>
        <time>2011-09-03T13:40:54Z</time>
      </trkpt>
      <trkpt lat="45.63293" lon="4.69333">
        <ele>353.421875</ele>
        <time>2011-09-03T13:41:05Z</time>
      </trkpt>
      <trkpt lat="45.6325" lon="4.69351">
        <ele>351.9798584</ele>
        <time>2011-09-03T13:41:15Z</time>
      </trkpt>
      <trkpt lat="45.63205" lon="4.69366">
        <ele>351.4991455</ele>
        <time>2011-09-03T13:41:25Z</time>
      </trkpt>
      <trkpt lat="45.632" lon="4.69366">
        <ele>351.9798584</ele>
        <time>2011-09-03T13:41:27Z</time>
      </trkpt>
      <trkpt lat="45.63195" lon="4.69358">
        <ele>351.4991455</ele>
        <time>2011-09-03T13:41:31Z</time>
      </trkpt>
      <trkpt lat="45.63185" lon="4.69328">
        <ele>351.9798584</ele>
        <time>2011-09-03T13:41:40Z</time>
      </trkpt>
      <trkpt lat="45.63167" lon="4.6928">
        <ele>352.4605713</ele>
        <time>2011-09-03T13:41:51Z</time>
      </trkpt>
      <trkpt lat="45.6315" lon="4.6923">
        <ele>352.4605713</ele>
        <time>2011-09-03T13:42:01Z</time>
      </trkpt>
      <trkpt lat="45.63136" lon="4.69189">
        <ele>352.4605713</ele>
        <time>2011-09-03T13:42:10Z</time>
      </trkpt>
      <trkpt lat="45.6313" lon="4.69179">
        <ele>351.9798584</ele>
        <time>2011-09-03T13:42:13Z</time>
      </trkpt>
      <trkpt lat="45.63116" lon="4.69185">
        <ele>352.4605713</ele>
        <time>2011-09-03T13:42:17Z</time>
      </trkpt>
      <trkpt lat="45.631" lon="4.69202">
        <ele>351.9798584</ele>
        <time>2011-09-03T13:42:25Z</time>
      </trkpt>
      <trkpt lat="45.63075" lon="4.69229">
        <ele>351.4991455</ele>
        <time>2011-09-03T13:42:35Z</time>
      </trkpt>
      <trkpt lat="45.63065" lon="4.69219">
        <ele>351.4991455</ele>
        <time>2011-09-03T13:42:40Z</time>
      </trkpt>
      <trkpt lat="45.63054" lon="4.69181">
        <ele>351.0184326</ele>
        <time>2011-09-03T13:42:50Z</time>
      </trkpt>
      <trkpt lat="45.63038" lon="4.69159">
        <ele>351.0184326</ele>
        <time>2011-09-03T13:42:57Z</time>
      </trkpt>
      <trkpt lat="45.63021" lon="4.69165">
        <ele>351.0184326</ele>
        <time>2011-09-03T13:43:02Z</time>
      </trkpt>
      <trkpt lat="45.62982" lon="4.6918">
        <ele>351.0184326</ele>
        <time>2011-09-03T13:43:12Z</time>
      </trkpt>
      <trkpt lat="45.62926" lon="4.692">
        <ele>350.5378418</ele>
        <time>2011-09-03T13:43:26Z</time>
      </trkpt>
      <trkpt lat="45.62881" lon="4.69225">
        <ele>350.057251</ele>
        <time>2011-09-03T13:43:37Z</time>
      </trkpt>
      <trkpt lat="45.62844" lon="4.6925">
        <ele>350.5378418</ele>
        <time>2011-09-03T13:43:46Z</time>
      </trkpt>
      <trkpt lat="45.62782" lon="4.69291">
        <ele>350.5378418</ele>
        <time>2011-09-03T13:44:01Z</time>
      </trkpt>
      <trkpt lat="45.62744" lon="4.69316">
        <ele>349.5765381</ele>
        <time>2011-09-03T13:44:10Z</time>
      </trkpt>
      <trkpt lat="45.62698" lon="4.69323">
        <ele>348.1346436</ele>
        <time>2011-09-03T13:44:19Z</time>
      </trkpt>
      <trkpt lat="45.62672" lon="4.69326">
        <ele>347.6539307</ele>
        <time>2011-09-03T13:44:24Z</time>
      </trkpt>
      <trkpt lat="45.62632" lon="4.69359">
        <ele>346.2120361</ele>
        <time>2011-09-03T13:44:33Z</time>
      </trkpt>
      <trkpt lat="45.62613" lon="4.69376">
        <ele>345.2506104</ele>
        <time>2011-09-03T13:44:37Z</time>
      </trkpt>
      <trkpt lat="45.62579" lon="4.69388">
        <ele>342.84729</ele>
        <time>2011-09-03T13:44:43Z</time>
      </trkpt>
      <trkpt lat="45.62532" lon="4.69368">
        <ele>341.4052734</ele>
        <time>2011-09-03T13:44:51Z</time>
      </trkpt>
      <trkpt lat="45.62476" lon="4.69339">
        <ele>341.4052734</ele>
        <time>2011-09-03T13:45:02Z</time>
      </trkpt>
      <trkpt lat="45.62421" lon="4.69309">
        <ele>339.0020752</ele>
        <time>2011-09-03T13:45:13Z</time>
      </trkpt>
      <trkpt lat="45.62405" lon="4.69299">
        <ele>337.0794678</ele>
        <time>2011-09-03T13:45:18Z</time>
      </trkpt>
      <trkpt lat="45.62402" lon="4.69297">
        <ele>337.0794678</ele>
        <time>2011-09-03T13:45:20Z</time>
      </trkpt>
      <trkpt lat="45.62396" lon="4.69284">
        <ele>337.0794678</ele>
        <time>2011-09-03T13:45:26Z</time>
      </trkpt>
      <trkpt lat="45.62364" lon="4.69272">
        <ele>333.2341309</ele>
        <time>2011-09-03T13:45:32Z</time>
      </trkpt>
      <trkpt lat="45.62337" lon="4.69259">
        <ele>330.3502197</ele>
        <time>2011-09-03T13:45:36Z</time>
      </trkpt>
      <trkpt lat="45.62301" lon="4.69243">
        <ele>323.1403809</ele>
        <time>2011-09-03T13:45:41Z</time>
      </trkpt>
      <trkpt lat="45.62289" lon="4.69237">
        <ele>322.659668</ele>
        <time>2011-09-03T13:45:43Z</time>
      </trkpt>
      <trkpt lat="45.62285" lon="4.69236">
        <ele>322.1789551</ele>
        <time>2011-09-03T13:45:45Z</time>
      </trkpt>
      <trkpt lat="45.62277" lon="4.69222">
        <ele>320.7370605</ele>
        <time>2011-09-03T13:45:49Z</time>
      </trkpt>
      <trkpt lat="45.62265" lon="4.6918">
        <ele>320.2563477</ele>
        <time>2011-09-03T13:45:56Z</time>
      </trkpt>
      <trkpt lat="45.62234" lon="4.69121">
        <ele>320.7370605</ele>
        <time>2011-09-03T13:46:08Z</time>
      </trkpt>
      <trkpt lat="45.62195" lon="4.69057">
        <ele>323.6209717</ele>
        <time>2011-09-03T13:46:23Z</time>
      </trkpt>
      <trkpt lat="45.62224" lon="4.68991">
        <ele>326.0241699</ele>
        <time>2011-09-03T13:46:35Z</time>
      </trkpt>
      <trkpt lat="45.6223" lon="4.68974">
        <ele>326.5048828</ele>
        <time>2011-09-03T13:46:38Z</time>
      </trkpt>
      <trkpt lat="45.62229" lon="4.68931">
        <ele>327.4661865</ele>
        <time>2011-09-03T13:46:45Z</time>
      </trkpt>
      <trkpt lat="45.62225" lon="4.68907">
        <ele>328.4276123</ele>
        <time>2011-09-03T13:46:49Z</time>
      </trkpt>
      <trkpt lat="45.62209" lon="4.68833">
        <ele>328.9083252</ele>
        <time>2011-09-03T13:47:01Z</time>
      </trkpt>
      <trkpt lat="45.62197" lon="4.68778">
        <ele>329.388916</ele>
        <time>2011-09-03T13:47:10Z</time>
      </trkpt>
      <trkpt lat="45.6219" lon="4.68713">
        <ele>330.3502197</ele>
        <time>2011-09-03T13:47:21Z</time>
      </trkpt>
      <trkpt lat="45.62193" lon="4.68688">
        <ele>330.8309326</ele>
        <time>2011-09-03T13:47:27Z</time>
      </trkpt>
      <trkpt lat="45.62216" lon="4.68634">
        <ele>331.3115234</ele>
        <time>2011-09-03T13:47:40Z</time>
      </trkpt>
      <trkpt lat="45.6222" lon="4.68598">
        <ele>332.2728271</ele>
        <time>2011-09-03T13:47:48Z</time>
      </trkpt>
      <trkpt lat="45.62216" lon="4.68558">
        <ele>333.2341309</ele>
        <time>2011-09-03T13:47:57Z</time>
      </trkpt>
      <trkpt lat="45.62207" lon="4.68497">
        <ele>334.1954346</ele>
        <time>2011-09-03T13:48:10Z</time>
      </trkpt>
      <trkpt lat="45.62204" lon="4.68417">
        <ele>336.1181641</ele>
        <time>2011-09-03T13:48:25Z</time>
      </trkpt>
      <trkpt lat="45.62202" lon="4.68423">
        <ele>336.1181641</ele>
        <time>2011-09-03T13:48:31Z</time>
      </trkpt>
      <trkpt lat="45.62202" lon="4.68422">
        <ele>336.1181641</ele>
        <time>2011-09-03T13:48:32Z</time>
      </trkpt>
      <trkpt lat="45.622" lon="4.68401">
        <ele>337.0794678</ele>
        <time>2011-09-03T13:48:39Z</time>
      </trkpt>
      <trkpt lat="45.62199" lon="4.68336">
        <ele>339.0020752</ele>
        <time>2011-09-03T13:48:54Z</time>
      </trkpt>
      <trkpt lat="45.6219" lon="4.68282">
        <ele>340.9246826</ele>
        <time>2011-09-03T13:49:05Z</time>
      </trkpt>
      <trkpt lat="45.62176" lon="4.68232">
        <ele>343.3278809</ele>
        <time>2011-09-03T13:49:13Z</time>
      </trkpt>
      <trkpt lat="45.62174" lon="4.68226">
        <ele>343.3278809</ele>
        <time>2011-09-03T13:49:14Z</time>
      </trkpt>
      <trkpt lat="45.62172" lon="4.68207">
        <ele>345.2506104</ele>
        <time>2011-09-03T13:49:17Z</time>
      </trkpt>
      <trkpt lat="45.62171" lon="4.6814">
        <ele>347.6539307</ele>
        <time>2011-09-03T13:49:28Z</time>
      </trkpt>
      <trkpt lat="45.62164" lon="4.6811">
        <ele>349.0958252</ele>
        <time>2011-09-03T13:49:34Z</time>
      </trkpt>
      <trkpt lat="45.62137" lon="4.68067">
        <ele>352.4605713</ele>
        <time>2011-09-03T13:49:45Z</time>
      </trkpt>
      <trkpt lat="45.62134" lon="4.68047">
        <ele>353.9025879</ele>
        <time>2011-09-03T13:49:51Z</time>
      </trkpt>
      <trkpt lat="45.62133" lon="4.68028">
        <ele>354.8637695</ele>
        <time>2011-09-03T13:49:59Z</time>
      </trkpt>
      <trkpt lat="45.62133" lon="4.68017">
        <ele>355.3444824</ele>
        <time>2011-09-03T13:50:07Z</time>
      </trkpt>
      <trkpt lat="45.62131" lon="4.68002">
        <ele>356.3057861</ele>
        <time>2011-09-03T13:50:18Z</time>
      </trkpt>
      <trkpt lat="45.62124" lon="4.6798">
        <ele>356.786377</ele>
        <time>2011-09-03T13:50:29Z</time>
      </trkpt>
      <trkpt lat="45.62118" lon="4.67957">
        <ele>357.7478027</ele>
        <time>2011-09-03T13:50:39Z</time>
      </trkpt>
      <trkpt lat="45.62111" lon="4.67936">
        <ele>357.7478027</ele>
        <time>2011-09-03T13:50:46Z</time>
      </trkpt>
      <trkpt lat="45.62099" lon="4.67911">
        <ele>358.7089844</ele>
        <time>2011-09-03T13:50:54Z</time>
      </trkpt>
      <trkpt lat="45.62076" lon="4.67876">
        <ele>359.6704102</ele>
        <time>2011-09-03T13:51:06Z</time>
      </trkpt>
      <trkpt lat="45.62059" lon="4.67841">
        <ele>361.1124268</ele>
        <time>2011-09-03T13:51:17Z</time>
      </trkpt>
      <trkpt lat="45.62041" lon="4.67801">
        <ele>363.0350342</ele>
        <time>2011-09-03T13:51:29Z</time>
      </trkpt>
      <trkpt lat="45.62024" lon="4.67767">
        <ele>364.4769287</ele>
        <time>2011-09-03T13:51:39Z</time>
      </trkpt>
      <trkpt lat="45.62007" lon="4.67737">
        <ele>365.4383545</ele>
        <time>2011-09-03T13:51:48Z</time>
      </trkpt>
      <trkpt lat="45.61998" lon="4.67755">
        <ele>365.9189453</ele>
        <time>2011-09-03T13:51:53Z</time>
      </trkpt>
      <trkpt lat="45.61987" lon="4.67813">
        <ele>363.0350342</ele>
        <time>2011-09-03T13:52:01Z</time>
      </trkpt>
      <trkpt lat="45.61972" lon="4.67823">
        <ele>362.5543213</ele>
        <time>2011-09-03T13:52:05Z</time>
      </trkpt>
      <trkpt lat="45.61967" lon="4.67822">
        <ele>363.0350342</ele>
        <time>2011-09-03T13:52:06Z</time>
      </trkpt>
      <trkpt lat="45.61959" lon="4.67819">
        <ele>363.0350342</ele>
        <time>2011-09-03T13:52:08Z</time>
      </trkpt>
      <trkpt lat="45.61916" lon="4.67808">
        <ele>363.5157471</ele>
        <time>2011-09-03T13:52:18Z</time>
      </trkpt>
      <trkpt lat="45.61875" lon="4.678">
        <ele>364.4769287</ele>
        <time>2011-09-03T13:52:28Z</time>
      </trkpt>
      <trkpt lat="45.61847" lon="4.67808">
        <ele>366.3995361</ele>
        <time>2011-09-03T13:52:36Z</time>
      </trkpt>
      <trkpt lat="45.61831" lon="4.67808">
        <ele>368.3222656</ele>
        <time>2011-09-03T13:52:43Z</time>
      </trkpt>
      <trkpt lat="45.61829" lon="4.67805">
        <ele>367.8415527</ele>
        <time>2011-09-03T13:52:45Z</time>
      </trkpt>
      <trkpt lat="45.61822" lon="4.67791">
        <ele>367.8415527</ele>
        <time>2011-09-03T13:52:52Z</time>
      </trkpt>
      <trkpt lat="45.61823" lon="4.67789">
        <ele>368.3222656</ele>
        <time>2011-09-03T13:52:58Z</time>
      </trkpt>
      <trkpt lat="45.61824" lon="4.6779">
        <ele>367.8415527</ele>
        <time>2011-09-03T13:53:00Z</time>
      </trkpt>
      <trkpt lat="45.61829" lon="4.67802">
        <ele>367.8415527</ele>
        <time>2011-09-03T13:53:08Z</time>
      </trkpt>
      <trkpt lat="45.61834" lon="4.67808">
        <ele>367.3609619</ele>
        <time>2011-09-03T13:53:18Z</time>
      </trkpt>
      <trkpt lat="45.61834" lon="4.6781">
        <ele>367.3609619</ele>
        <time>2011-09-03T13:53:43Z</time>
      </trkpt>
      <trkpt lat="45.61833" lon="4.67815">
        <ele>366.880249</ele>
        <time>2011-09-03T13:53:47Z</time>
      </trkpt>
      <trkpt lat="45.61831" lon="4.67814">
        <ele>367.3609619</ele>
        <time>2011-09-03T13:53:48Z</time>
      </trkpt>
      <trkpt lat="45.61821" lon="4.67792">
        <ele>366.880249</ele>
        <time>2011-09-03T13:53:55Z</time>
      </trkpt>
      <trkpt lat="45.61821" lon="4.67754">
        <ele>366.3995361</ele>
        <time>2011-09-03T13:54:01Z</time>
      </trkpt>
      <trkpt lat="45.61835" lon="4.67686">
        <ele>365.4383545</ele>
        <time>2011-09-03T13:54:10Z</time>
      </trkpt>
      <trkpt lat="45.61844" lon="4.67645">
        <ele>365.4383545</ele>
        <time>2011-09-03T13:54:16Z</time>
      </trkpt>
      <trkpt lat="45.61856" lon="4.67618">
        <ele>365.9189453</ele>
        <time>2011-09-03T13:54:21Z</time>
      </trkpt>
      <trkpt lat="45.61857" lon="4.67598">
        <ele>365.4383545</ele>
        <time>2011-09-03T13:54:24Z</time>
      </trkpt>
      <trkpt lat="45.61839" lon="4.676">
        <ele>364.9576416</ele>
        <time>2011-09-03T13:54:27Z</time>
      </trkpt>
      <trkpt lat="45.61828" lon="4.67606">
        <ele>364.4769287</ele>
        <time>2011-09-03T13:54:29Z</time>
      </trkpt>
      <trkpt lat="45.61788" lon="4.67593">
        <ele>363.9963379</ele>
        <time>2011-09-03T13:54:37Z</time>
      </trkpt>
      <trkpt lat="45.61726" lon="4.67564">
        <ele>363.0350342</ele>
        <time>2011-09-03T13:54:48Z</time>
      </trkpt>
      <trkpt lat="45.61651" lon="4.67527">
        <ele>361.5931396</ele>
        <time>2011-09-03T13:55:01Z</time>
      </trkpt>
      <trkpt lat="45.61622" lon="4.67494">
        <ele>360.151123</ele>
        <time>2011-09-03T13:55:07Z</time>
      </trkpt>
      <trkpt lat="45.61601" lon="4.67468">
        <ele>358.7089844</ele>
        <time>2011-09-03T13:55:13Z</time>
      </trkpt>
      <trkpt lat="45.61572" lon="4.67438">
        <ele>356.3057861</ele>
        <time>2011-09-03T13:55:18Z</time>
      </trkpt>
      <trkpt lat="45.61543" lon="4.67408">
        <ele>353.421875</ele>
        <time>2011-09-03T13:55:22Z</time>
      </trkpt>
      <trkpt lat="45.61527" lon="4.67394">
        <ele>351.4991455</ele>
        <time>2011-09-03T13:55:24Z</time>
      </trkpt>
      <trkpt lat="45.61502" lon="4.67371">
        <ele>348.1346436</ele>
        <time>2011-09-03T13:55:27Z</time>
      </trkpt>
      <trkpt lat="45.61488" lon="4.67321">
        <ele>344.2894287</ele>
        <time>2011-09-03T13:55:31Z</time>
      </trkpt>
      <trkpt lat="45.61491" lon="4.67303">
        <ele>343.8085938</ele>
        <time>2011-09-03T13:55:33Z</time>
      </trkpt>
      <trkpt lat="45.61504" lon="4.67281">
        <ele>342.84729</ele>
        <time>2011-09-03T13:55:37Z</time>
      </trkpt>
      <trkpt lat="45.61518" lon="4.67263">
        <ele>343.3278809</ele>
        <time>2011-09-03T13:55:42Z</time>
      </trkpt>
      <trkpt lat="45.61519" lon="4.67258">
        <ele>342.84729</ele>
        <time>2011-09-03T13:55:43Z</time>
      </trkpt>
      <trkpt lat="45.61527" lon="4.67218">
        <ele>339.0020752</ele>
        <time>2011-09-03T13:55:48Z</time>
      </trkpt>
      <trkpt lat="45.6153" lon="4.67209">
        <ele>339.0020752</ele>
        <time>2011-09-03T13:55:49Z</time>
      </trkpt>
      <trkpt lat="45.61547" lon="4.67168">
        <ele>336.1181641</ele>
        <time>2011-09-03T13:55:53Z</time>
      </trkpt>
      <trkpt lat="45.61581" lon="4.67084">
        <ele>335.1567383</ele>
        <time>2011-09-03T13:56:01Z</time>
      </trkpt>
      <trkpt lat="45.61585" lon="4.67075">
        <ele>335.1567383</ele>
        <time>2011-09-03T13:56:02Z</time>
      </trkpt>
      <trkpt lat="45.61603" lon="4.67054">
        <ele>336.1181641</ele>
        <time>2011-09-03T13:56:06Z</time>
      </trkpt>
      <trkpt lat="45.61601" lon="4.67032">
        <ele>336.598877</ele>
        <time>2011-09-03T13:56:09Z</time>
      </trkpt>
      <trkpt lat="45.61591" lon="4.67025">
        <ele>336.1181641</ele>
        <time>2011-09-03T13:56:11Z</time>
      </trkpt>
      <trkpt lat="45.61562" lon="4.67011">
        <ele>336.598877</ele>
        <time>2011-09-03T13:56:16Z</time>
      </trkpt>
      <trkpt lat="45.61518" lon="4.66929">
        <ele>339.9633789</ele>
        <time>2011-09-03T13:56:30Z</time>
      </trkpt>
      <trkpt lat="45.61515" lon="4.66925">
        <ele>339.9633789</ele>
        <time>2011-09-03T13:56:31Z</time>
      </trkpt>
      <trkpt lat="45.61539" lon="4.66924">
        <ele>344.2894287</ele>
        <time>2011-09-03T13:56:42Z</time>
      </trkpt>
      <trkpt lat="45.6155" lon="4.66927">
        <ele>346.2120361</ele>
        <time>2011-09-03T13:56:47Z</time>
      </trkpt>
      <trkpt lat="45.61561" lon="4.6693">
        <ele>347.1732178</ele>
        <time>2011-09-03T13:56:51Z</time>
      </trkpt>
      <trkpt lat="45.61581" lon="4.66913">
        <ele>349.5765381</ele>
        <time>2011-09-03T13:57:00Z</time>
      </trkpt>
      <trkpt lat="45.61587" lon="4.66893">
        <ele>352.4605713</ele>
        <time>2011-09-03T13:57:06Z</time>
      </trkpt>
      <trkpt lat="45.61593" lon="4.66869">
        <ele>355.8251953</ele>
        <time>2011-09-03T13:57:12Z</time>
      </trkpt>
      <trkpt lat="45.61595" lon="4.66866">
        <ele>355.8251953</ele>
        <time>2011-09-03T13:57:13Z</time>
      </trkpt>
      <trkpt lat="45.61607" lon="4.66851">
        <ele>356.3057861</ele>
        <time>2011-09-03T13:57:21Z</time>
      </trkpt>
      <trkpt lat="45.61627" lon="4.66826">
        <ele>356.786377</ele>
        <time>2011-09-03T13:57:35Z</time>
      </trkpt>
      <trkpt lat="45.61646" lon="4.66807">
        <ele>357.7478027</ele>
        <time>2011-09-03T13:57:48Z</time>
      </trkpt>
      <trkpt lat="45.61651" lon="4.66804">
        <ele>357.7478027</ele>
        <time>2011-09-03T13:57:51Z</time>
      </trkpt>
      <trkpt lat="45.61652" lon="4.66798">
        <ele>358.2283936</ele>
        <time>2011-09-03T13:57:56Z</time>
      </trkpt>
      <trkpt lat="45.61654" lon="4.66794">
        <ele>358.2283936</ele>
        <time>2011-09-03T13:58:00Z</time>
      </trkpt>
      <trkpt lat="45.61655" lon="4.66767">
        <ele>359.6704102</ele>
        <time>2011-09-03T13:58:07Z</time>
      </trkpt>
      <trkpt lat="45.61657" lon="4.66746">
        <ele>360.151123</ele>
        <time>2011-09-03T13:58:13Z</time>
      </trkpt>
      <trkpt lat="45.61668" lon="4.66721">
        <ele>361.5931396</ele>
        <time>2011-09-03T13:58:22Z</time>
      </trkpt>
      <trkpt lat="45.61692" lon="4.66702">
        <ele>362.5543213</ele>
        <time>2011-09-03T13:58:34Z</time>
      </trkpt>
      <trkpt lat="45.61712" lon="4.66689">
        <ele>362.5543213</ele>
        <time>2011-09-03T13:58:43Z</time>
      </trkpt>
      <trkpt lat="45.61736" lon="4.66673">
        <ele>362.5543213</ele>
        <time>2011-09-03T13:58:51Z</time>
      </trkpt>
      <trkpt lat="45.61738" lon="4.66669">
        <ele>362.0737305</ele>
        <time>2011-09-03T13:58:52Z</time>
      </trkpt>
      <trkpt lat="45.61737" lon="4.66643">
        <ele>363.5157471</ele>
        <time>2011-09-03T13:58:57Z</time>
      </trkpt>
      <trkpt lat="45.61716" lon="4.66586">
        <ele>366.3995361</ele>
        <time>2011-09-03T13:59:09Z</time>
      </trkpt>
      <trkpt lat="45.61694" lon="4.66523">
        <ele>371.2062988</ele>
        <time>2011-09-03T13:59:24Z</time>
      </trkpt>
      <trkpt lat="45.61696" lon="4.66512">
        <ele>371.2062988</ele>
        <time>2011-09-03T13:59:33Z</time>
      </trkpt>
      <trkpt lat="45.61701" lon="4.66497">
        <ele>371.6868896</ele>
        <time>2011-09-03T13:59:39Z</time>
      </trkpt>
      <trkpt lat="45.61717" lon="4.66449">
        <ele>372.1674805</ele>
        <time>2011-09-03T13:59:50Z</time>
      </trkpt>
      <trkpt lat="45.61729" lon="4.66403">
        <ele>373.1289063</ele>
        <time>2011-09-03T14:00:01Z</time>
      </trkpt>
      <trkpt lat="45.61739" lon="4.66355">
        <ele>374.0900879</ele>
        <time>2011-09-03T14:00:13Z</time>
      </trkpt>
      <trkpt lat="45.61755" lon="4.66319">
        <ele>375.5321045</ele>
        <time>2011-09-03T14:00:23Z</time>
      </trkpt>
      <trkpt lat="45.6177" lon="4.66281">
        <ele>376.9742432</ele>
        <time>2011-09-03T14:00:33Z</time>
      </trkpt>
      <trkpt lat="45.61786" lon="4.66236">
        <ele>377.9354248</ele>
        <time>2011-09-03T14:00:44Z</time>
      </trkpt>
      <trkpt lat="45.618" lon="4.66194">
        <ele>380.819458</ele>
        <time>2011-09-03T14:00:52Z</time>
      </trkpt>
      <trkpt lat="45.61805" lon="4.6618">
        <ele>381.7806396</ele>
        <time>2011-09-03T14:00:57Z</time>
      </trkpt>
      <trkpt lat="45.61805" lon="4.66155">
        <ele>382.2613525</ele>
        <time>2011-09-03T14:01:05Z</time>
      </trkpt>
      <trkpt lat="45.61808" lon="4.66126">
        <ele>382.7420654</ele>
        <time>2011-09-03T14:01:14Z</time>
      </trkpt>
      <trkpt lat="45.61807" lon="4.66083">
        <ele>384.184082</ele>
        <time>2011-09-03T14:01:26Z</time>
      </trkpt>
      <trkpt lat="45.61803" lon="4.66043">
        <ele>386.1066895</ele>
        <time>2011-09-03T14:01:37Z</time>
      </trkpt>
      <trkpt lat="45.61805" lon="4.66007">
        <ele>387.0679932</ele>
        <time>2011-09-03T14:01:46Z</time>
      </trkpt>
      <trkpt lat="45.61809" lon="4.65963">
        <ele>390.4326172</ele>
        <time>2011-09-03T14:01:57Z</time>
      </trkpt>
      <trkpt lat="45.61808" lon="4.65959">
        <ele>390.913208</ele>
        <time>2011-09-03T14:01:58Z</time>
      </trkpt>
      <trkpt lat="45.618" lon="4.65939">
        <ele>392.8359375</ele>
        <time>2011-09-03T14:02:03Z</time>
      </trkpt>
      <trkpt lat="45.61773" lon="4.65889">
        <ele>394.7585449</ele>
        <time>2011-09-03T14:02:18Z</time>
      </trkpt>
      <trkpt lat="45.61761" lon="4.65858">
        <ele>396.2005615</ele>
        <time>2011-09-03T14:02:27Z</time>
      </trkpt>
      <trkpt lat="45.61769" lon="4.65852">
        <ele>397.1617432</ele>
        <time>2011-09-03T14:02:32Z</time>
      </trkpt>
      <trkpt lat="45.61772" lon="4.65853">
        <ele>397.1617432</ele>
        <time>2011-09-03T14:02:33Z</time>
      </trkpt>
      <trkpt lat="45.61795" lon="4.65856">
        <ele>399.5650635</ele>
        <time>2011-09-03T14:02:42Z</time>
      </trkpt>
      <trkpt lat="45.61824" lon="4.65844">
        <ele>401.487793</ele>
        <time>2011-09-03T14:02:52Z</time>
      </trkpt>
      <trkpt lat="45.61854" lon="4.65828">
        <ele>402.9296875</ele>
        <time>2011-09-03T14:03:02Z</time>
      </trkpt>
      <trkpt lat="45.61874" lon="4.65805">
        <ele>402.9296875</ele>
        <time>2011-09-03T14:03:10Z</time>
      </trkpt>
      <trkpt lat="45.61892" lon="4.65761">
        <ele>403.4104004</ele>
        <time>2011-09-03T14:03:20Z</time>
      </trkpt>
      <trkpt lat="45.61901" lon="4.6572">
        <ele>406.2943115</ele>
        <time>2011-09-03T14:03:28Z</time>
      </trkpt>
      <trkpt lat="45.61907" lon="4.65676">
        <ele>409.6590576</ele>
        <time>2011-09-03T14:03:36Z</time>
      </trkpt>
      <trkpt lat="45.61908" lon="4.6567">
        <ele>409.6590576</ele>
        <time>2011-09-03T14:03:37Z</time>
      </trkpt>
      <trkpt lat="45.61908" lon="4.65664">
        <ele>409.6590576</ele>
        <time>2011-09-03T14:03:38Z</time>
      </trkpt>
      <trkpt lat="45.61917" lon="4.65633">
        <ele>412.0622559</ele>
        <time>2011-09-03T14:03:44Z</time>
      </trkpt>
      <trkpt lat="45.61923" lon="4.65608">
        <ele>414.4654541</ele>
        <time>2011-09-03T14:03:51Z</time>
      </trkpt>
      <trkpt lat="45.61924" lon="4.65595">
        <ele>413.9848633</ele>
        <time>2011-09-03T14:03:54Z</time>
      </trkpt>
      <trkpt lat="45.6192" lon="4.65574">
        <ele>413.9848633</ele>
        <time>2011-09-03T14:04:00Z</time>
      </trkpt>
      <trkpt lat="45.61919" lon="4.65571">
        <ele>413.5042725</ele>
        <time>2011-09-03T14:04:01Z</time>
      </trkpt>
      <trkpt lat="45.61924" lon="4.65553">
        <ele>413.5042725</ele>
        <time>2011-09-03T14:04:07Z</time>
      </trkpt>
      <trkpt lat="45.61931" lon="4.65538">
        <ele>413.9848633</ele>
        <time>2011-09-03T14:04:18Z</time>
      </trkpt>
      <trkpt lat="45.61939" lon="4.65517">
        <ele>412.0622559</ele>
        <time>2011-09-03T14:04:25Z</time>
      </trkpt>
      <trkpt lat="45.61956" lon="4.65471">
        <ele>409.1783447</ele>
        <time>2011-09-03T14:04:32Z</time>
      </trkpt>
      <trkpt lat="45.61972" lon="4.65427">
        <ele>406.7749023</ele>
        <time>2011-09-03T14:04:37Z</time>
      </trkpt>
      <trkpt lat="45.61993" lon="4.65366">
        <ele>405.3330078</ele>
        <time>2011-09-03T14:04:44Z</time>
      </trkpt>
      <trkpt lat="45.62009" lon="4.65311">
        <ele>405.3330078</ele>
        <time>2011-09-03T14:04:52Z</time>
      </trkpt>
      <trkpt lat="45.62023" lon="4.65257">
        <ele>405.8137207</ele>
        <time>2011-09-03T14:05:02Z</time>
      </trkpt>
      <trkpt lat="45.62029" lon="4.65226">
        <ele>406.2943115</ele>
        <time>2011-09-03T14:05:09Z</time>
      </trkpt>
      <trkpt lat="45.62036" lon="4.65214">
        <ele>406.7749023</ele>
        <time>2011-09-03T14:05:16Z</time>
      </trkpt>
      <trkpt lat="45.62038" lon="4.65212">
        <ele>406.7749023</ele>
        <time>2011-09-03T14:05:18Z</time>
      </trkpt>
      <trkpt lat="45.62042" lon="4.65211">
        <ele>407.2556152</ele>
        <time>2011-09-03T14:05:21Z</time>
      </trkpt>
      <trkpt lat="45.62039" lon="4.65222">
        <ele>406.7749023</ele>
        <time>2011-09-03T14:05:28Z</time>
      </trkpt>
      <trkpt lat="45.62037" lon="4.65219">
        <ele>407.2556152</ele>
        <time>2011-09-03T14:05:34Z</time>
      </trkpt>
      <trkpt lat="45.62036" lon="4.65208">
        <ele>406.7749023</ele>
        <time>2011-09-03T14:05:40Z</time>
      </trkpt>
      <trkpt lat="45.62031" lon="4.65196">
        <ele>407.7363281</ele>
        <time>2011-09-03T14:05:48Z</time>
      </trkpt>
      <trkpt lat="45.62029" lon="4.652">
        <ele>407.7363281</ele>
        <time>2011-09-03T14:05:53Z</time>
      </trkpt>
      <trkpt lat="45.6203" lon="4.65201">
        <ele>407.2556152</ele>
        <time>2011-09-03T14:05:54Z</time>
      </trkpt>
      <trkpt lat="45.62037" lon="4.65211">
        <ele>406.7749023</ele>
        <time>2011-09-03T14:06:03Z</time>
      </trkpt>
      <trkpt lat="45.6204" lon="4.65224">
        <ele>407.2556152</ele>
        <time>2011-09-03T14:06:11Z</time>
      </trkpt>
      <trkpt lat="45.62037" lon="4.65226">
        <ele>407.7363281</ele>
        <time>2011-09-03T14:06:15Z</time>
      </trkpt>
      <trkpt lat="45.62035" lon="4.65211">
        <ele>407.2556152</ele>
        <time>2011-09-03T14:06:24Z</time>
      </trkpt>
      <trkpt lat="45.62033" lon="4.65204">
        <ele>407.2556152</ele>
        <time>2011-09-03T14:06:32Z</time>
      </trkpt>
      <trkpt lat="45.62034" lon="4.65202">
        <ele>407.2556152</ele>
        <time>2011-09-03T14:06:37Z</time>
      </trkpt>
      <trkpt lat="45.62034" lon="4.65188">
        <ele>407.7363281</ele>
        <time>2011-09-03T14:06:42Z</time>
      </trkpt>
      <trkpt lat="45.6203" lon="4.65152">
        <ele>408.6976318</ele>
        <time>2011-09-03T14:06:51Z</time>
      </trkpt>
      <trkpt lat="45.62027" lon="4.6511">
        <ele>410.1396484</ele>
        <time>2011-09-03T14:07:02Z</time>
      </trkpt>
      <trkpt lat="45.62022" lon="4.65077">
        <ele>411.1009521</ele>
        <time>2011-09-03T14:07:10Z</time>
      </trkpt>
      <trkpt lat="45.62015" lon="4.65033">
        <ele>411.581665</ele>
        <time>2011-09-03T14:07:20Z</time>
      </trkpt>
      <trkpt lat="45.62002" lon="4.64984">
        <ele>412.5428467</ele>
        <time>2011-09-03T14:07:31Z</time>
      </trkpt>
      <trkpt lat="45.61986" lon="4.6494">
        <ele>413.9848633</ele>
        <time>2011-09-03T14:07:42Z</time>
      </trkpt>
      <trkpt lat="45.61977" lon="4.64912">
        <ele>415.4268799</ele>
        <time>2011-09-03T14:07:48Z</time>
      </trkpt>
      <trkpt lat="45.61958" lon="4.64836">
        <ele>418.310791</ele>
        <time>2011-09-03T14:08:07Z</time>
      </trkpt>
      <trkpt lat="45.61954" lon="4.64804">
        <ele>418.310791</ele>
        <time>2011-09-03T14:08:14Z</time>
      </trkpt>
      <trkpt lat="45.61949" lon="4.64753">
        <ele>419.2722168</ele>
        <time>2011-09-03T14:08:25Z</time>
      </trkpt>
      <trkpt lat="45.61944" lon="4.64706">
        <ele>419.2722168</ele>
        <time>2011-09-03T14:08:35Z</time>
      </trkpt>
      <trkpt lat="45.61936" lon="4.64665">
        <ele>420.7141113</ele>
        <time>2011-09-03T14:08:44Z</time>
      </trkpt>
      <trkpt lat="45.61925" lon="4.64618">
        <ele>423.5980225</ele>
        <time>2011-09-03T14:08:53Z</time>
      </trkpt>
      <trkpt lat="45.61923" lon="4.64611">
        <ele>423.5980225</ele>
        <time>2011-09-03T14:08:54Z</time>
      </trkpt>
      <trkpt lat="45.61913" lon="4.64579">
        <ele>424.5594482</ele>
        <time>2011-09-03T14:09:01Z</time>
      </trkpt>
      <trkpt lat="45.61904" lon="4.64562">
        <ele>425.520752</ele>
        <time>2011-09-03T14:09:08Z</time>
      </trkpt>
      <trkpt lat="45.61886" lon="4.64535">
        <ele>426.4820557</ele>
        <time>2011-09-03T14:09:20Z</time>
      </trkpt>
      <trkpt lat="45.61817" lon="4.6449">
        <ele>430.8079834</ele>
        <time>2011-09-03T14:09:47Z</time>
      </trkpt>
      <trkpt lat="45.61811" lon="4.64469">
        <ele>432.7307129</ele>
        <time>2011-09-03T14:09:55Z</time>
      </trkpt>
      <trkpt lat="45.61808" lon="4.6445">
        <ele>433.2113037</ele>
        <time>2011-09-03T14:10:04Z</time>
      </trkpt>
      <trkpt lat="45.61807" lon="4.64447">
        <ele>433.6918945</ele>
        <time>2011-09-03T14:10:10Z</time>
      </trkpt>
      <trkpt lat="45.61805" lon="4.64437">
        <ele>434.6533203</ele>
        <time>2011-09-03T14:10:19Z</time>
      </trkpt>
      <trkpt lat="45.61802" lon="4.64434">
        <ele>435.614502</ele>
        <time>2011-09-03T14:10:27Z</time>
      </trkpt>
      <trkpt lat="45.61797" lon="4.64428">
        <ele>436.0952148</ele>
        <time>2011-09-03T14:10:32Z</time>
      </trkpt>
      <trkpt lat="45.61797" lon="4.64418">
        <ele>436.5759277</ele>
        <time>2011-09-03T14:10:37Z</time>
      </trkpt>
      <trkpt lat="45.61797" lon="4.6441">
        <ele>437.0565186</ele>
        <time>2011-09-03T14:10:41Z</time>
      </trkpt>
      <trkpt lat="45.61792" lon="4.64405">
        <ele>437.5371094</ele>
        <time>2011-09-03T14:10:48Z</time>
      </trkpt>
      <trkpt lat="45.61793" lon="4.64405">
        <ele>437.5371094</ele>
        <time>2011-09-03T14:10:55Z</time>
      </trkpt>
      <trkpt lat="45.61796" lon="4.64403">
        <ele>437.5371094</ele>
        <time>2011-09-03T14:11:02Z</time>
      </trkpt>
      <trkpt lat="45.61799" lon="4.64402">
        <ele>438.0178223</ele>
        <time>2011-09-03T14:11:07Z</time>
      </trkpt>
      <trkpt lat="45.61795" lon="4.64378">
        <ele>439.4597168</ele>
        <time>2011-09-03T14:11:16Z</time>
      </trkpt>
      <trkpt lat="45.61792" lon="4.64345">
        <ele>441.3824463</ele>
        <time>2011-09-03T14:11:25Z</time>
      </trkpt>
      <trkpt lat="45.61789" lon="4.64306">
        <ele>444.2664795</ele>
        <time>2011-09-03T14:11:38Z</time>
      </trkpt>
      <trkpt lat="45.61792" lon="4.64267">
        <ele>446.1890869</ele>
        <time>2011-09-03T14:11:53Z</time>
      </trkpt>
      <trkpt lat="45.61792" lon="4.64249">
        <ele>447.6309814</ele>
        <time>2011-09-03T14:11:59Z</time>
      </trkpt>
      <trkpt lat="45.6179" lon="4.6422">
        <ele>450.0344238</ele>
        <time>2011-09-03T14:12:10Z</time>
      </trkpt>
      <trkpt lat="45.61784" lon="4.64193">
        <ele>450.9956055</ele>
        <time>2011-09-03T14:12:19Z</time>
      </trkpt>
      <trkpt lat="45.61777" lon="4.64164">
        <ele>453.8796387</ele>
        <time>2011-09-03T14:12:26Z</time>
      </trkpt>
      <trkpt lat="45.61775" lon="4.64141">
        <ele>454.8408203</ele>
        <time>2011-09-03T14:12:33Z</time>
      </trkpt>
      <trkpt lat="45.61771" lon="4.64119">
        <ele>455.3215332</ele>
        <time>2011-09-03T14:12:43Z</time>
      </trkpt>
      <trkpt lat="45.61766" lon="4.64093">
        <ele>458.2055664</ele>
        <time>2011-09-03T14:12:52Z</time>
      </trkpt>
      <trkpt lat="45.61762" lon="4.64062">
        <ele>459.1668701</ele>
        <time>2011-09-03T14:13:02Z</time>
      </trkpt>
      <trkpt lat="45.61761" lon="4.64038">
        <ele>460.1281738</ele>
        <time>2011-09-03T14:13:11Z</time>
      </trkpt>
      <trkpt lat="45.61774" lon="4.64023">
        <ele>461.0894775</ele>
        <time>2011-09-03T14:13:17Z</time>
      </trkpt>
      <trkpt lat="45.61794" lon="4.64002">
        <ele>463.012085</ele>
        <time>2011-09-03T14:13:28Z</time>
      </trkpt>
      <trkpt lat="45.61818" lon="4.63975">
        <ele>465.4155273</ele>
        <time>2011-09-03T14:13:42Z</time>
      </trkpt>
      <trkpt lat="45.61834" lon="4.63952">
        <ele>468.2993164</ele>
        <time>2011-09-03T14:13:53Z</time>
      </trkpt>
      <trkpt lat="45.6185" lon="4.63934">
        <ele>470.7026367</ele>
        <time>2011-09-03T14:14:04Z</time>
      </trkpt>
      <trkpt lat="45.61869" lon="4.6392">
        <ele>473.5866699</ele>
        <time>2011-09-03T14:14:15Z</time>
      </trkpt>
      <trkpt lat="45.61892" lon="4.63909">
        <ele>476.4705811</ele>
        <time>2011-09-03T14:14:28Z</time>
      </trkpt>
      <trkpt lat="45.61912" lon="4.639">
        <ele>478.3931885</ele>
        <time>2011-09-03T14:14:37Z</time>
      </trkpt>
      <trkpt lat="45.61918" lon="4.63898">
        <ele>479.3544922</ele>
        <time>2011-09-03T14:14:39Z</time>
      </trkpt>
      <trkpt lat="45.6193" lon="4.63889">
        <ele>481.2772217</ele>
        <time>2011-09-03T14:14:47Z</time>
      </trkpt>
      <trkpt lat="45.61935" lon="4.63887">
        <ele>482.2385254</ele>
        <time>2011-09-03T14:14:50Z</time>
      </trkpt>
      <trkpt lat="45.6194" lon="4.63878">
        <ele>483.1998291</ele>
        <time>2011-09-03T14:14:59Z</time>
      </trkpt>
      <trkpt lat="45.61941" lon="4.63881">
        <ele>483.1998291</ele>
        <time>2011-09-03T14:15:29Z</time>
      </trkpt>
      <trkpt lat="45.6195" lon="4.63886">
        <ele>484.1611328</ele>
        <time>2011-09-03T14:15:37Z</time>
      </trkpt>
      <trkpt lat="45.61953" lon="4.63887">
        <ele>484.1611328</ele>
        <time>2011-09-03T14:15:40Z</time>
      </trkpt>
      <trkpt lat="45.61969" lon="4.63897">
        <ele>485.1224365</ele>
        <time>2011-09-03T14:15:50Z</time>
      </trkpt>
      <trkpt lat="45.61992" lon="4.63911">
        <ele>487.5256348</ele>
        <time>2011-09-03T14:16:02Z</time>
      </trkpt>
      <trkpt lat="45.62014" lon="4.63932">
        <ele>489.4483643</ele>
        <time>2011-09-03T14:16:11Z</time>
      </trkpt>
      <trkpt lat="45.62028" lon="4.63956">
        <ele>490.40979</ele>
        <time>2011-09-03T14:16:20Z</time>
      </trkpt>
      <trkpt lat="45.62034" lon="4.63963">
        <ele>490.8903809</ele>
        <time>2011-09-03T14:16:24Z</time>
      </trkpt>
      <trkpt lat="45.62057" lon="4.63971">
        <ele>491.8516846</ele>
        <time>2011-09-03T14:16:37Z</time>
      </trkpt>
      <trkpt lat="45.62087" lon="4.63979">
        <ele>496.1777344</ele>
        <time>2011-09-03T14:16:55Z</time>
      </trkpt>
      <trkpt lat="45.62085" lon="4.63975">
        <ele>495.6968994</ele>
        <time>2011-09-03T14:17:25Z</time>
      </trkpt>
      <trkpt lat="45.6208" lon="4.63977">
        <ele>495.2161865</ele>
        <time>2011-09-03T14:17:32Z</time>
      </trkpt>
      <trkpt lat="45.62083" lon="4.63975">
        <ele>495.6968994</ele>
        <time>2011-09-03T14:18:21Z</time>
      </trkpt>
      <trkpt lat="45.62089" lon="4.63964">
        <ele>496.6583252</ele>
        <time>2011-09-03T14:18:27Z</time>
      </trkpt>
      <trkpt lat="45.62093" lon="4.63923">
        <ele>499.0615234</ele>
        <time>2011-09-03T14:18:43Z</time>
      </trkpt>
      <trkpt lat="45.62129" lon="4.63905">
        <ele>500.50354</ele>
        <time>2011-09-03T14:19:03Z</time>
      </trkpt>
      <trkpt lat="45.62178" lon="4.63904">
        <ele>500.9841309</ele>
        <time>2011-09-03T14:19:14Z</time>
      </trkpt>
      <trkpt lat="45.62216" lon="4.63906">
        <ele>500.9841309</ele>
        <time>2011-09-03T14:19:24Z</time>
      </trkpt>
      <trkpt lat="45.62248" lon="4.63916">
        <ele>501.9455566</ele>
        <time>2011-09-03T14:19:33Z</time>
      </trkpt>
      <trkpt lat="45.62292" lon="4.63928">
        <ele>502.9067383</ele>
        <time>2011-09-03T14:19:46Z</time>
      </trkpt>
      <trkpt lat="45.62314" lon="4.63917">
        <ele>503.8681641</ele>
        <time>2011-09-03T14:19:54Z</time>
      </trkpt>
      <trkpt lat="45.62315" lon="4.63891">
        <ele>504.348877</ele>
        <time>2011-09-03T14:19:59Z</time>
      </trkpt>
      <trkpt lat="45.62325" lon="4.63871">
        <ele>504.8294678</ele>
        <time>2011-09-03T14:20:04Z</time>
      </trkpt>
      <trkpt lat="45.6234" lon="4.63834">
        <ele>504.8294678</ele>
        <time>2011-09-03T14:20:12Z</time>
      </trkpt>
      <trkpt lat="45.62352" lon="4.63795">
        <ele>504.8294678</ele>
        <time>2011-09-03T14:20:21Z</time>
      </trkpt>
      <trkpt lat="45.62382" lon="4.63688">
        <ele>507.2327881</ele>
        <time>2011-09-03T14:20:41Z</time>
      </trkpt>
      <trkpt lat="45.62394" lon="4.63673">
        <ele>510.1166992</ele>
        <time>2011-09-03T14:20:45Z</time>
      </trkpt>
      <trkpt lat="45.62427" lon="4.63623">
        <ele>513.0007324</ele>
        <time>2011-09-03T14:20:59Z</time>
      </trkpt>
      <trkpt lat="45.62441" lon="4.63569">
        <ele>514.442627</ele>
        <time>2011-09-03T14:21:12Z</time>
      </trkpt>
      <trkpt lat="45.62454" lon="4.63508">
        <ele>515.4040527</ele>
        <time>2011-09-03T14:21:25Z</time>
      </trkpt>
      <trkpt lat="45.62472" lon="4.63469">
        <ele>516.3652344</ele>
        <time>2011-09-03T14:21:34Z</time>
      </trkpt>
      <trkpt lat="45.62475" lon="4.63465">
        <ele>516.8459473</ele>
        <time>2011-09-03T14:21:35Z</time>
      </trkpt>
      <trkpt lat="45.62497" lon="4.63449">
        <ele>517.3266602</ele>
        <time>2011-09-03T14:21:43Z</time>
      </trkpt>
      <trkpt lat="45.62507" lon="4.63449">
        <ele>517.807251</ele>
        <time>2011-09-03T14:21:51Z</time>
      </trkpt>
      <trkpt lat="45.62555" lon="4.63471">
        <ele>502.9067383</ele>
        <time>2011-09-03T14:22:15Z</time>
      </trkpt>
      <trkpt lat="45.62637" lon="4.63637">
        <ele>478.3931885</ele>
        <time>2011-09-03T14:22:36Z</time>
      </trkpt>
      <trkpt lat="45.62641" lon="4.63662">
        <ele>476.9512939</ele>
        <time>2011-09-03T14:22:38Z</time>
      </trkpt>
      <trkpt lat="45.62674" lon="4.63784">
        <ele>475.9898682</ele>
        <time>2011-09-03T14:22:40Z</time>
      </trkpt>
      <trkpt lat="45.62704" lon="4.63837">
        <ele>470.2219238</ele>
        <time>2011-09-03T14:22:45Z</time>
      </trkpt>
      <trkpt lat="45.6271" lon="4.63831">
        <ele>466.376709</ele>
        <time>2011-09-03T14:22:47Z</time>
      </trkpt>
      <trkpt lat="45.6274" lon="4.63827">
        <ele>464.4541016</ele>
        <time>2011-09-03T14:22:50Z</time>
      </trkpt>
      <trkpt lat="45.62738" lon="4.63825">
        <ele>460.1281738</ele>
        <time>2011-09-03T14:22:55Z</time>
      </trkpt>
      <trkpt lat="45.62822" lon="4.63861">
        <ele>450.5150146</ele>
        <time>2011-09-03T14:23:06Z</time>
      </trkpt>
      <trkpt lat="45.62908" lon="4.63965">
        <ele>435.614502</ele>
        <time>2011-09-03T14:23:26Z</time>
      </trkpt>
      <trkpt lat="45.62921" lon="4.63966">
        <ele>432.25</ele>
        <time>2011-09-03T14:23:29Z</time>
      </trkpt>
      <trkpt lat="45.62976" lon="4.64055">
        <ele>419.2722168</ele>
        <time>2011-09-03T14:23:49Z</time>
      </trkpt>
      <trkpt lat="45.62966" lon="4.64041">
        <ele>422.6367188</ele>
        <time>2011-09-03T14:23:57Z</time>
      </trkpt>
      <trkpt lat="45.62967" lon="4.64046">
        <ele>422.6367188</ele>
        <time>2011-09-03T14:24:04Z</time>
      </trkpt>
      <trkpt lat="45.62972" lon="4.64046">
        <ele>422.6367188</ele>
        <time>2011-09-03T14:24:07Z</time>
      </trkpt>
      <trkpt lat="45.62962" lon="4.64042">
        <ele>423.5980225</ele>
        <time>2011-09-03T14:24:15Z</time>
      </trkpt>
      <trkpt lat="45.62958" lon="4.64042">
        <ele>423.5980225</ele>
        <time>2011-09-03T14:24:18Z</time>
      </trkpt>
      <trkpt lat="45.62963" lon="4.64043">
        <ele>423.1174316</ele>
        <time>2011-09-03T14:24:24Z</time>
      </trkpt>
      <trkpt lat="45.62957" lon="4.64034">
        <ele>423.5980225</ele>
        <time>2011-09-03T14:24:30Z</time>
      </trkpt>
      <trkpt lat="45.62952" lon="4.64034">
        <ele>423.5980225</ele>
        <time>2011-09-03T14:24:40Z</time>
      </trkpt>
      <trkpt lat="45.62946" lon="4.64035">
        <ele>423.5980225</ele>
        <time>2011-09-03T14:25:20Z</time>
      </trkpt>
      <trkpt lat="45.62939" lon="4.64032">
        <ele>423.5980225</ele>
        <time>2011-09-03T14:25:27Z</time>
      </trkpt>
      <trkpt lat="45.62931" lon="4.64029">
        <ele>424.0787354</ele>
        <time>2011-09-03T14:25:56Z</time>
      </trkpt>
      <trkpt lat="45.62878" lon="4.63971">
        <ele>429.3659668</ele>
        <time>2011-09-03T14:26:38Z</time>
      </trkpt>
      <trkpt lat="45.62871" lon="4.63949">
        <ele>421.675415</ele>
        <time>2011-09-03T14:27:17Z</time>
      </trkpt>
      <trkpt lat="45.62932" lon="4.64027">
        <ele>424.5594482</ele>
        <time>2011-09-03T14:27:23Z</time>
      </trkpt>
      <trkpt lat="45.6294" lon="4.64035">
        <ele>424.5594482</ele>
        <time>2011-09-03T14:27:32Z</time>
      </trkpt>
      <trkpt lat="45.62945" lon="4.64031">
        <ele>424.5594482</ele>
        <time>2011-09-03T14:27:39Z</time>
      </trkpt>
      <trkpt lat="45.62942" lon="4.64026">
        <ele>425.0401611</ele>
        <time>2011-09-03T14:27:50Z</time>
      </trkpt>
      <trkpt lat="45.62941" lon="4.64029">
        <ele>424.5594482</ele>
        <time>2011-09-03T14:28:25Z</time>
      </trkpt>
      <trkpt lat="45.62945" lon="4.64023">
        <ele>424.5594482</ele>
        <time>2011-09-03T14:28:29Z</time>
      </trkpt>
      <trkpt lat="45.62974" lon="4.63999">
        <ele>427.4433594</ele>
        <time>2011-09-03T14:28:44Z</time>
      </trkpt>
      <trkpt lat="45.62996" lon="4.6399">
        <ele>430.3272705</ele>
        <time>2011-09-03T14:28:54Z</time>
      </trkpt>
      <trkpt lat="45.63039" lon="4.63993">
        <ele>435.614502</ele>
        <time>2011-09-03T14:29:14Z</time>
      </trkpt>
      <trkpt lat="45.63076" lon="4.64012">
        <ele>441.3824463</ele>
        <time>2011-09-03T14:29:36Z</time>
      </trkpt>
      <trkpt lat="45.63094" lon="4.64012">
        <ele>442.8244629</ele>
        <time>2011-09-03T14:29:45Z</time>
      </trkpt>
      <trkpt lat="45.63102" lon="4.64012">
        <ele>443.7857666</ele>
        <time>2011-09-03T14:29:48Z</time>
      </trkpt>
      <trkpt lat="45.63124" lon="4.64011">
        <ele>447.1502686</ele>
        <time>2011-09-03T14:29:58Z</time>
      </trkpt>
      <trkpt lat="45.63146" lon="4.64008">
        <ele>449.5537109</ele>
        <time>2011-09-03T14:30:09Z</time>
      </trkpt>
      <trkpt lat="45.63161" lon="4.64007">
        <ele>452.4376221</ele>
        <time>2011-09-03T14:30:17Z</time>
      </trkpt>
      <trkpt lat="45.63177" lon="4.64014">
        <ele>454.8408203</ele>
        <time>2011-09-03T14:30:26Z</time>
      </trkpt>
      <trkpt lat="45.63191" lon="4.64013">
        <ele>456.7635498</ele>
        <time>2011-09-03T14:30:35Z</time>
      </trkpt>
      <trkpt lat="45.63208" lon="4.64003">
        <ele>459.647583</ele>
        <time>2011-09-03T14:30:45Z</time>
      </trkpt>
      <trkpt lat="45.63223" lon="4.63996">
        <ele>462.5313721</ele>
        <time>2011-09-03T14:30:54Z</time>
      </trkpt>
      <trkpt lat="45.63231" lon="4.63992">
        <ele>464.9348145</ele>
        <time>2011-09-03T14:30:59Z</time>
      </trkpt>
      <trkpt lat="45.63246" lon="4.63985">
        <ele>468.2993164</ele>
        <time>2011-09-03T14:31:09Z</time>
      </trkpt>
      <trkpt lat="45.63272" lon="4.63974">
        <ele>470.2219238</ele>
        <time>2011-09-03T14:31:26Z</time>
      </trkpt>
      <trkpt lat="45.63277" lon="4.63975">
        <ele>471.6639404</ele>
        <time>2011-09-03T14:31:30Z</time>
      </trkpt>
      <trkpt lat="45.63281" lon="4.63961">
        <ele>472.1446533</ele>
        <time>2011-09-03T14:31:39Z</time>
      </trkpt>
      <trkpt lat="45.63279" lon="4.63964">
        <ele>472.1446533</ele>
        <time>2011-09-03T14:31:47Z</time>
      </trkpt>
      <trkpt lat="45.63279" lon="4.63968">
        <ele>472.1446533</ele>
        <time>2011-09-03T14:32:04Z</time>
      </trkpt>
      <trkpt lat="45.63276" lon="4.63976">
        <ele>472.6253662</ele>
        <time>2011-09-03T14:32:43Z</time>
      </trkpt>
      <trkpt lat="45.63278" lon="4.63981">
        <ele>471.6639404</ele>
        <time>2011-09-03T14:32:47Z</time>
      </trkpt>
      <trkpt lat="45.63281" lon="4.63981">
        <ele>472.1446533</ele>
        <time>2011-09-03T14:32:49Z</time>
      </trkpt>
      <trkpt lat="45.63284" lon="4.63972">
        <ele>472.6253662</ele>
        <time>2011-09-03T14:32:57Z</time>
      </trkpt>
      <trkpt lat="45.63289" lon="4.63967">
        <ele>473.5866699</ele>
        <time>2011-09-03T14:33:05Z</time>
      </trkpt>
      <trkpt lat="45.63301" lon="4.6397">
        <ele>475.0286865</ele>
        <time>2011-09-03T14:33:11Z</time>
      </trkpt>
      <trkpt lat="45.63308" lon="4.63971">
        <ele>475.0286865</ele>
        <time>2011-09-03T14:33:19Z</time>
      </trkpt>
      <trkpt lat="45.63306" lon="4.63967">
        <ele>475.0286865</ele>
        <time>2011-09-03T14:33:35Z</time>
      </trkpt>
      <trkpt lat="45.63306" lon="4.63962">
        <ele>475.5092773</ele>
        <time>2011-09-03T14:34:32Z</time>
      </trkpt>
      <trkpt lat="45.63306" lon="4.63962">
        <ele>475.9898682</ele>
        <time>2011-09-03T14:34:58Z</time>
      </trkpt>
      <trkpt lat="45.63305" lon="4.63963">
        <ele>475.0286865</ele>
        <time>2011-09-03T14:36:44Z</time>
      </trkpt>
      <trkpt lat="45.63303" lon="4.63964">
        <ele>475.5092773</ele>
        <time>2011-09-03T14:37:25Z</time>
      </trkpt>
      <trkpt lat="45.63307" lon="4.63962">
        <ele>475.5092773</ele>
        <time>2011-09-03T14:38:09Z</time>
      </trkpt>
      <trkpt lat="45.6331" lon="4.63962">
        <ele>475.9898682</ele>
        <time>2011-09-03T14:38:20Z</time>
      </trkpt>
      <trkpt lat="45.6331" lon="4.63968">
        <ele>475.9898682</ele>
        <time>2011-09-03T14:39:55Z</time>
      </trkpt>
      <trkpt lat="45.63357" lon="4.63971">
        <ele>476.9512939</ele>
        <time>2011-09-03T14:40:36Z</time>
      </trkpt>
      <trkpt lat="45.6338" lon="4.63975">
        <ele>477.9124756</ele>
        <time>2011-09-03T14:40:46Z</time>
      </trkpt>
      <trkpt lat="45.63399" lon="4.6396">
        <ele>479.3544922</ele>
        <time>2011-09-03T14:40:58Z</time>
      </trkpt>
      <trkpt lat="45.634" lon="4.63959">
        <ele>479.3544922</ele>
        <time>2011-09-03T14:40:59Z</time>
      </trkpt>
      <trkpt lat="45.63406" lon="4.63952">
        <ele>479.3544922</ele>
        <time>2011-09-03T14:41:05Z</time>
      </trkpt>
      <trkpt lat="45.63413" lon="4.63948">
        <ele>479.835083</ele>
        <time>2011-09-03T14:41:11Z</time>
      </trkpt>
      <trkpt lat="45.63456" lon="4.6395">
        <ele>482.7192383</ele>
        <time>2011-09-03T14:41:34Z</time>
      </trkpt>
      <trkpt lat="45.63504" lon="4.63982">
        <ele>483.1998291</ele>
        <time>2011-09-03T14:41:55Z</time>
      </trkpt>
      <trkpt lat="45.63525" lon="4.63998">
        <ele>482.2385254</ele>
        <time>2011-09-03T14:42:03Z</time>
      </trkpt>
      <trkpt lat="45.63565" lon="4.64039">
        <ele>480.315918</ele>
        <time>2011-09-03T14:42:12Z</time>
      </trkpt>
      <trkpt lat="45.6357" lon="4.64044">
        <ele>479.3544922</ele>
        <time>2011-09-03T14:42:13Z</time>
      </trkpt>
      <trkpt lat="45.63588" lon="4.64055">
        <ele>478.8739014</ele>
        <time>2011-09-03T14:42:16Z</time>
      </trkpt>
      <trkpt lat="45.63601" lon="4.64058">
        <ele>477.9124756</ele>
        <time>2011-09-03T14:42:18Z</time>
      </trkpt>
      <trkpt lat="45.63663" lon="4.64082">
        <ele>475.0286865</ele>
        <time>2011-09-03T14:42:27Z</time>
      </trkpt>
      <trkpt lat="45.63715" lon="4.64104">
        <ele>473.5866699</ele>
        <time>2011-09-03T14:42:34Z</time>
      </trkpt>
      <trkpt lat="45.63739" lon="4.64123">
        <ele>474.5479736</ele>
        <time>2011-09-03T14:42:38Z</time>
      </trkpt>
      <trkpt lat="45.63746" lon="4.64136">
        <ele>475.9898682</ele>
        <time>2011-09-03T14:42:41Z</time>
      </trkpt>
      <trkpt lat="45.63749" lon="4.64159">
        <ele>476.9512939</ele>
        <time>2011-09-03T14:42:47Z</time>
      </trkpt>
      <trkpt lat="45.63755" lon="4.64184">
        <ele>478.3931885</ele>
        <time>2011-09-03T14:42:52Z</time>
      </trkpt>
      <trkpt lat="45.63764" lon="4.64209">
        <ele>479.3544922</ele>
        <time>2011-09-03T14:42:58Z</time>
      </trkpt>
      <trkpt lat="45.63777" lon="4.64198">
        <ele>480.7966309</ele>
        <time>2011-09-03T14:43:03Z</time>
      </trkpt>
      <trkpt lat="45.63789" lon="4.64181">
        <ele>483.1998291</ele>
        <time>2011-09-03T14:43:10Z</time>
      </trkpt>
      <trkpt lat="45.63791" lon="4.64178">
        <ele>483.6804199</ele>
        <time>2011-09-03T14:43:11Z</time>
      </trkpt>
      <trkpt lat="45.63802" lon="4.64163">
        <ele>486.0837402</ele>
        <time>2011-09-03T14:43:20Z</time>
      </trkpt>
      <trkpt lat="45.63812" lon="4.64146">
        <ele>488.0064697</ele>
        <time>2011-09-03T14:43:26Z</time>
      </trkpt>
      <trkpt lat="45.63821" lon="4.64126">
        <ele>489.4483643</ele>
        <time>2011-09-03T14:43:32Z</time>
      </trkpt>
      <trkpt lat="45.63832" lon="4.64101">
        <ele>491.8516846</ele>
        <time>2011-09-03T14:43:41Z</time>
      </trkpt>
      <trkpt lat="45.63839" lon="4.64066">
        <ele>493.774292</ele>
        <time>2011-09-03T14:43:53Z</time>
      </trkpt>
      <trkpt lat="45.63845" lon="4.64032">
        <ele>494.2550049</ele>
        <time>2011-09-03T14:44:04Z</time>
      </trkpt>
      <trkpt lat="45.63858" lon="4.63991">
        <ele>496.1777344</ele>
        <time>2011-09-03T14:44:17Z</time>
      </trkpt>
      <trkpt lat="45.6387" lon="4.63949">
        <ele>498.5809326</ele>
        <time>2011-09-03T14:44:30Z</time>
      </trkpt>
      <trkpt lat="45.6388" lon="4.63909">
        <ele>500.9841309</ele>
        <time>2011-09-03T14:44:43Z</time>
      </trkpt>
      <trkpt lat="45.63891" lon="4.63859">
        <ele>501.9455566</ele>
        <time>2011-09-03T14:44:56Z</time>
      </trkpt>
      <trkpt lat="45.639" lon="4.63803">
        <ele>502.9067383</ele>
        <time>2011-09-03T14:45:09Z</time>
      </trkpt>
      <trkpt lat="45.63912" lon="4.63783">
        <ele>503.8681641</ele>
        <time>2011-09-03T14:45:17Z</time>
      </trkpt>
      <trkpt lat="45.63935" lon="4.63769">
        <ele>504.8294678</ele>
        <time>2011-09-03T14:45:29Z</time>
      </trkpt>
      <trkpt lat="45.63998" lon="4.63736">
        <ele>509.6361084</ele>
        <time>2011-09-03T14:45:51Z</time>
      </trkpt>
      <trkpt lat="45.64032" lon="4.63697">
        <ele>510.59729</ele>
        <time>2011-09-03T14:46:04Z</time>
      </trkpt>
      <trkpt lat="45.64086" lon="4.63614">
        <ele>507.713501</ele>
        <time>2011-09-03T14:46:24Z</time>
      </trkpt>
      <trkpt lat="45.64102" lon="4.63661">
        <ele>512.0394287</ele>
        <time>2011-09-03T14:46:49Z</time>
      </trkpt>
      <trkpt lat="45.64117" lon="4.63712">
        <ele>509.1553955</ele>
        <time>2011-09-03T14:47:05Z</time>
      </trkpt>
      <trkpt lat="45.64103" lon="4.6373">
        <ele>508.6746826</ele>
        <time>2011-09-03T14:47:10Z</time>
      </trkpt>
      <trkpt lat="45.64098" lon="4.63739">
        <ele>507.713501</ele>
        <time>2011-09-03T14:47:16Z</time>
      </trkpt>
      <trkpt lat="45.64109" lon="4.63745">
        <ele>512.0394287</ele>
        <time>2011-09-03T14:47:45Z</time>
      </trkpt>
      <trkpt lat="45.64108" lon="4.63771">
        <ele>515.4040527</ele>
        <time>2011-09-03T14:47:55Z</time>
      </trkpt>
      <trkpt lat="45.64108" lon="4.63797">
        <ele>518.7685547</ele>
        <time>2011-09-03T14:48:02Z</time>
      </trkpt>
      <trkpt lat="45.64121" lon="4.63867">
        <ele>521.6525879</ele>
        <time>2011-09-03T14:48:08Z</time>
      </trkpt>
      <trkpt lat="45.64128" lon="4.63909">
        <ele>525.0172119</ele>
        <time>2011-09-03T14:48:19Z</time>
      </trkpt>
      <trkpt lat="45.64128" lon="4.63926">
        <ele>526.4591064</ele>
        <time>2011-09-03T14:48:31Z</time>
      </trkpt>
      <trkpt lat="45.64133" lon="4.63926">
        <ele>526.9398193</ele>
        <time>2011-09-03T14:48:37Z</time>
      </trkpt>
      <trkpt lat="45.64138" lon="4.63901">
        <ele>529.3431396</ele>
        <time>2011-09-03T14:48:47Z</time>
      </trkpt>
      <trkpt lat="45.64148" lon="4.63868">
        <ele>530.7851563</ele>
        <time>2011-09-03T14:48:57Z</time>
      </trkpt>
      <trkpt lat="45.6416" lon="4.63847">
        <ele>532.2270508</ele>
        <time>2011-09-03T14:49:08Z</time>
      </trkpt>
      <trkpt lat="45.64177" lon="4.63825">
        <ele>535.1109619</ele>
        <time>2011-09-03T14:49:22Z</time>
      </trkpt>
      <trkpt lat="45.64178" lon="4.63842">
        <ele>537.5142822</ele>
        <time>2011-09-03T14:49:29Z</time>
      </trkpt>
      <trkpt lat="45.64178" lon="4.63866">
        <ele>539.4368896</ele>
        <time>2011-09-03T14:49:38Z</time>
      </trkpt>
      <trkpt lat="45.64187" lon="4.63929">
        <ele>543.2821045</ele>
        <time>2011-09-03T14:49:54Z</time>
      </trkpt>
      <trkpt lat="45.64193" lon="4.63942">
        <ele>544.2436523</ele>
        <time>2011-09-03T14:49:58Z</time>
      </trkpt>
      <trkpt lat="45.64197" lon="4.63944">
        <ele>544.7242432</ele>
        <time>2011-09-03T14:50:00Z</time>
      </trkpt>
      <trkpt lat="45.64216" lon="4.63958">
        <ele>547.6081543</ele>
        <time>2011-09-03T14:50:09Z</time>
      </trkpt>
      <trkpt lat="45.64235" lon="4.63965">
        <ele>549.0500488</ele>
        <time>2011-09-03T14:50:18Z</time>
      </trkpt>
      <trkpt lat="45.64259" lon="4.63973">
        <ele>550.0114746</ele>
        <time>2011-09-03T14:50:30Z</time>
      </trkpt>
      <trkpt lat="45.64277" lon="4.63978">
        <ele>550.9726563</ele>
        <time>2011-09-03T14:50:42Z</time>
      </trkpt>
      <trkpt lat="45.64301" lon="4.63984">
        <ele>551.4533691</ele>
        <time>2011-09-03T14:50:53Z</time>
      </trkpt>
      <trkpt lat="45.64329" lon="4.63986">
        <ele>552.4145508</ele>
        <time>2011-09-03T14:51:05Z</time>
      </trkpt>
      <trkpt lat="45.64346" lon="4.63988">
        <ele>553.3759766</ele>
        <time>2011-09-03T14:51:14Z</time>
      </trkpt>
      <trkpt lat="45.64348" lon="4.63987">
        <ele>552.8952637</ele>
        <time>2011-09-03T14:51:42Z</time>
      </trkpt>
      <trkpt lat="45.64355" lon="4.63988">
        <ele>552.8952637</ele>
        <time>2011-09-03T14:51:51Z</time>
      </trkpt>
      <trkpt lat="45.64371" lon="4.6399">
        <ele>551.934082</ele>
        <time>2011-09-03T14:52:03Z</time>
      </trkpt>
      <trkpt lat="45.64391" lon="4.63991">
        <ele>551.4533691</ele>
        <time>2011-09-03T14:52:15Z</time>
      </trkpt>
      <trkpt lat="45.64418" lon="4.63994">
        <ele>550.9726563</ele>
        <time>2011-09-03T14:52:24Z</time>
      </trkpt>
      <trkpt lat="45.6445" lon="4.64002">
        <ele>550.0114746</ele>
        <time>2011-09-03T14:52:34Z</time>
      </trkpt>
      <trkpt lat="45.64462" lon="4.64007">
        <ele>550.4921875</ele>
        <time>2011-09-03T14:52:41Z</time>
      </trkpt>
      <trkpt lat="45.64478" lon="4.64015">
        <ele>550.0114746</ele>
        <time>2011-09-03T14:52:51Z</time>
      </trkpt>
      <trkpt lat="45.64487" lon="4.64025">
        <ele>550.4921875</ele>
        <time>2011-09-03T14:52:58Z</time>
      </trkpt>
      <trkpt lat="45.64494" lon="4.64053">
        <ele>549.0500488</ele>
        <time>2011-09-03T14:53:04Z</time>
      </trkpt>
      <trkpt lat="45.64497" lon="4.64067">
        <ele>548.5693359</ele>
        <time>2011-09-03T14:53:06Z</time>
      </trkpt>
      <trkpt lat="45.64495" lon="4.64134">
        <ele>547.6081543</ele>
        <time>2011-09-03T14:53:16Z</time>
      </trkpt>
      <trkpt lat="45.64488" lon="4.64207">
        <ele>546.6468506</ele>
        <time>2011-09-03T14:53:28Z</time>
      </trkpt>
      <trkpt lat="45.64489" lon="4.64248">
        <ele>545.204834</ele>
        <time>2011-09-03T14:53:35Z</time>
      </trkpt>
      <trkpt lat="45.64491" lon="4.64252">
        <ele>545.204834</ele>
        <time>2011-09-03T14:53:37Z</time>
      </trkpt>
      <trkpt lat="45.64492" lon="4.64251">
        <ele>545.6855469</ele>
        <time>2011-09-03T14:53:40Z</time>
      </trkpt>
      <trkpt lat="45.6449" lon="4.64249">
        <ele>544.2436523</ele>
        <time>2011-09-03T14:53:47Z</time>
      </trkpt>
      <trkpt lat="45.6449" lon="4.64249">
        <ele>544.2436523</ele>
        <time>2011-09-03T14:54:02Z</time>
      </trkpt>
      <trkpt lat="45.64483" lon="4.64251">
        <ele>544.2436523</ele>
        <time>2011-09-03T14:54:06Z</time>
      </trkpt>
      <trkpt lat="45.64487" lon="4.64254">
        <ele>544.2436523</ele>
        <time>2011-09-03T14:54:11Z</time>
      </trkpt>
      <trkpt lat="45.6449" lon="4.64252">
        <ele>544.2436523</ele>
        <time>2011-09-03T14:54:13Z</time>
      </trkpt>
      <trkpt lat="45.64508" lon="4.64246">
        <ele>545.6855469</ele>
        <time>2011-09-03T14:54:20Z</time>
      </trkpt>
      <trkpt lat="45.64538" lon="4.64238">
        <ele>547.6081543</ele>
        <time>2011-09-03T14:54:31Z</time>
      </trkpt>
      <trkpt lat="45.64553" lon="4.64229">
        <ele>547.1274414</ele>
        <time>2011-09-03T14:54:35Z</time>
      </trkpt>
      <trkpt lat="45.64566" lon="4.64215">
        <ele>545.6855469</ele>
        <time>2011-09-03T14:54:38Z</time>
      </trkpt>
      <trkpt lat="45.6458" lon="4.64195">
        <ele>544.2436523</ele>
        <time>2011-09-03T14:54:41Z</time>
      </trkpt>
      <trkpt lat="45.64598" lon="4.64156">
        <ele>539.4368896</ele>
        <time>2011-09-03T14:54:45Z</time>
      </trkpt>
      <trkpt lat="45.64608" lon="4.64125">
        <ele>537.9949951</ele>
        <time>2011-09-03T14:54:48Z</time>
      </trkpt>
      <trkpt lat="45.64623" lon="4.64103">
        <ele>537.9949951</ele>
        <time>2011-09-03T14:54:52Z</time>
      </trkpt>
      <trkpt lat="45.64626" lon="4.64105">
        <ele>537.9949951</ele>
        <time>2011-09-03T14:54:53Z</time>
      </trkpt>
      <trkpt lat="45.6465" lon="4.64123">
        <ele>538.9562988</ele>
        <time>2011-09-03T14:55:01Z</time>
      </trkpt>
      <trkpt lat="45.64671" lon="4.6414">
        <ele>540.8789063</ele>
        <time>2011-09-03T14:55:10Z</time>
      </trkpt>
      <trkpt lat="45.64694" lon="4.64146">
        <ele>541.3594971</ele>
        <time>2011-09-03T14:55:19Z</time>
      </trkpt>
      <trkpt lat="45.64727" lon="4.64135">
        <ele>543.2821045</ele>
        <time>2011-09-03T14:55:28Z</time>
      </trkpt>
      <trkpt lat="45.64764" lon="4.64122">
        <ele>545.204834</ele>
        <time>2011-09-03T14:55:38Z</time>
      </trkpt>
      <trkpt lat="45.6479" lon="4.64123">
        <ele>545.6855469</ele>
        <time>2011-09-03T14:55:46Z</time>
      </trkpt>
      <trkpt lat="45.64819" lon="4.64137">
        <ele>547.1274414</ele>
        <time>2011-09-03T14:55:55Z</time>
      </trkpt>
      <trkpt lat="45.64847" lon="4.64151">
        <ele>547.6081543</ele>
        <time>2011-09-03T14:56:04Z</time>
      </trkpt>
      <trkpt lat="45.64865" lon="4.64177">
        <ele>549.0500488</ele>
        <time>2011-09-03T14:56:13Z</time>
      </trkpt>
      <trkpt lat="45.6487" lon="4.64191">
        <ele>550.9726563</ele>
        <time>2011-09-03T14:56:17Z</time>
      </trkpt>
      <trkpt lat="45.64877" lon="4.64205">
        <ele>551.4533691</ele>
        <time>2011-09-03T14:56:23Z</time>
      </trkpt>
      <trkpt lat="45.6489" lon="4.64243">
        <ele>552.4145508</ele>
        <time>2011-09-03T14:56:41Z</time>
      </trkpt>
      <trkpt lat="45.64905" lon="4.64257">
        <ele>554.3374023</ele>
        <time>2011-09-03T14:56:52Z</time>
      </trkpt>
      <trkpt lat="45.64924" lon="4.64251">
        <ele>555.7792969</ele>
        <time>2011-09-03T14:56:58Z</time>
      </trkpt>
      <trkpt lat="45.64936" lon="4.64246">
        <ele>556.7407227</ele>
        <time>2011-09-03T14:57:05Z</time>
      </trkpt>
      <trkpt lat="45.6494" lon="4.64252">
        <ele>556.2600098</ele>
        <time>2011-09-03T14:57:11Z</time>
      </trkpt>
      <trkpt lat="45.64942" lon="4.64257">
        <ele>556.2600098</ele>
        <time>2011-09-03T14:57:18Z</time>
      </trkpt>
      <trkpt lat="45.64945" lon="4.64255">
        <ele>555.7792969</ele>
        <time>2011-09-03T14:58:20Z</time>
      </trkpt>
      <trkpt lat="45.64951" lon="4.64257">
        <ele>555.7792969</ele>
        <time>2011-09-03T14:58:22Z</time>
      </trkpt>
      <trkpt lat="45.64966" lon="4.64288">
        <ele>554.3374023</ele>
        <time>2011-09-03T14:58:28Z</time>
      </trkpt>
      <trkpt lat="45.64978" lon="4.64312">
        <ele>552.4145508</ele>
        <time>2011-09-03T14:58:31Z</time>
      </trkpt>
      <trkpt lat="45.6499" lon="4.64341">
        <ele>549.5307617</ele>
        <time>2011-09-03T14:58:34Z</time>
      </trkpt>
      <trkpt lat="45.65014" lon="4.64383">
        <ele>547.1274414</ele>
        <time>2011-09-03T14:58:38Z</time>
      </trkpt>
      <trkpt lat="45.65046" lon="4.64435">
        <ele>545.204834</ele>
        <time>2011-09-03T14:58:44Z</time>
      </trkpt>
      <trkpt lat="45.6505" lon="4.64444">
        <ele>543.7628174</ele>
        <time>2011-09-03T14:58:47Z</time>
      </trkpt>
      <trkpt lat="45.65064" lon="4.64472">
        <ele>544.2436523</ele>
        <time>2011-09-03T14:58:55Z</time>
      </trkpt>
      <trkpt lat="45.65086" lon="4.6452">
        <ele>545.204834</ele>
        <time>2011-09-03T14:59:05Z</time>
      </trkpt>
      <trkpt lat="45.65111" lon="4.64567">
        <ele>544.7242432</ele>
        <time>2011-09-03T14:59:14Z</time>
      </trkpt>
      <trkpt lat="45.65135" lon="4.64621">
        <ele>545.6855469</ele>
        <time>2011-09-03T14:59:24Z</time>
      </trkpt>
      <trkpt lat="45.65162" lon="4.64682">
        <ele>546.1662598</ele>
        <time>2011-09-03T14:59:35Z</time>
      </trkpt>
      <trkpt lat="45.65172" lon="4.64709">
        <ele>546.6468506</ele>
        <time>2011-09-03T14:59:40Z</time>
      </trkpt>
      <trkpt lat="45.65179" lon="4.64752">
        <ele>547.6081543</ele>
        <time>2011-09-03T14:59:47Z</time>
      </trkpt>
      <trkpt lat="45.65187" lon="4.64774">
        <ele>548.0888672</ele>
        <time>2011-09-03T14:59:51Z</time>
      </trkpt>
      <trkpt lat="45.65223" lon="4.64817">
        <ele>548.0888672</ele>
        <time>2011-09-03T15:00:01Z</time>
      </trkpt>
      <trkpt lat="45.65254" lon="4.64852">
        <ele>548.5693359</ele>
        <time>2011-09-03T15:00:11Z</time>
      </trkpt>
      <trkpt lat="45.65294" lon="4.64898">
        <ele>549.5307617</ele>
        <time>2011-09-03T15:00:23Z</time>
      </trkpt>
      <trkpt lat="45.6534" lon="4.64951">
        <ele>551.934082</ele>
        <time>2011-09-03T15:00:37Z</time>
      </trkpt>
      <trkpt lat="45.65384" lon="4.64998">
        <ele>551.934082</ele>
        <time>2011-09-03T15:00:49Z</time>
      </trkpt>
      <trkpt lat="45.65416" lon="4.65043">
        <ele>550.0114746</ele>
        <time>2011-09-03T15:00:56Z</time>
      </trkpt>
      <trkpt lat="45.65444" lon="4.65084">
        <ele>546.1662598</ele>
        <time>2011-09-03T15:01:01Z</time>
      </trkpt>
      <trkpt lat="45.65477" lon="4.65129">
        <ele>543.2821045</ele>
        <time>2011-09-03T15:01:06Z</time>
      </trkpt>
      <trkpt lat="45.65516" lon="4.65174">
        <ele>539.9176025</ele>
        <time>2011-09-03T15:01:11Z</time>
      </trkpt>
      <trkpt lat="45.6555" lon="4.65213">
        <ele>536.0723877</ele>
        <time>2011-09-03T15:01:16Z</time>
      </trkpt>
      <trkpt lat="45.65557" lon="4.65222">
        <ele>535.5915527</ele>
        <time>2011-09-03T15:01:18Z</time>
      </trkpt>
      <trkpt lat="45.65554" lon="4.65236">
        <ele>535.5915527</ele>
        <time>2011-09-03T15:01:24Z</time>
      </trkpt>
      <trkpt lat="45.65553" lon="4.65238">
        <ele>535.5915527</ele>
        <time>2011-09-03T15:01:25Z</time>
      </trkpt>
      <trkpt lat="45.65525" lon="4.65279">
        <ele>537.9949951</ele>
        <time>2011-09-03T15:01:38Z</time>
      </trkpt>
      <trkpt lat="45.65465" lon="4.6536">
        <ele>539.4368896</ele>
        <time>2011-09-03T15:02:01Z</time>
      </trkpt>
      <trkpt lat="45.65445" lon="4.65371">
        <ele>537.0336914</ele>
        <time>2011-09-03T15:02:05Z</time>
      </trkpt>
      <trkpt lat="45.65436" lon="4.65368">
        <ele>536.0723877</ele>
        <time>2011-09-03T15:02:07Z</time>
      </trkpt>
      <trkpt lat="45.65362" lon="4.65321">
        <ele>531.2657471</ele>
        <time>2011-09-03T15:02:21Z</time>
      </trkpt>
      <trkpt lat="45.65346" lon="4.65356">
        <ele>528.8625488</ele>
        <time>2011-09-03T15:02:28Z</time>
      </trkpt>
      <trkpt lat="45.6535" lon="4.65371">
        <ele>528.3818359</ele>
        <time>2011-09-03T15:02:30Z</time>
      </trkpt>
      <trkpt lat="45.65353" lon="4.65396">
        <ele>527.4204102</ele>
        <time>2011-09-03T15:02:33Z</time>
      </trkpt>
      <trkpt lat="45.65348" lon="4.65425">
        <ele>526.9398193</ele>
        <time>2011-09-03T15:02:36Z</time>
      </trkpt>
      <trkpt lat="45.65307" lon="4.65513">
        <ele>523.5751953</ele>
        <time>2011-09-03T15:02:49Z</time>
      </trkpt>
      <trkpt lat="45.65289" lon="4.65536">
        <ele>523.0946045</ele>
        <time>2011-09-03T15:02:56Z</time>
      </trkpt>
      <trkpt lat="45.65282" lon="4.65542">
        <ele>521.6525879</ele>
        <time>2011-09-03T15:03:01Z</time>
      </trkpt>
      <trkpt lat="45.65271" lon="4.65536">
        <ele>519.2492676</ele>
        <time>2011-09-03T15:03:05Z</time>
      </trkpt>
      <trkpt lat="45.65155" lon="4.65772">
        <ele>528.8625488</ele>
        <time>2011-09-03T15:03:54Z</time>
      </trkpt>
      <trkpt lat="45.6516" lon="4.65797">
        <ele>530.7851563</ele>
        <time>2011-09-03T15:04:01Z</time>
      </trkpt>
      <trkpt lat="45.65152" lon="4.6582">
        <ele>533.1883545</ele>
        <time>2011-09-03T15:04:08Z</time>
      </trkpt>
      <trkpt lat="45.65132" lon="4.65844">
        <ele>534.6303711</ele>
        <time>2011-09-03T15:04:17Z</time>
      </trkpt>
      <trkpt lat="45.65108" lon="4.65875">
        <ele>534.6303711</ele>
        <time>2011-09-03T15:04:26Z</time>
      </trkpt>
      <trkpt lat="45.6508" lon="4.65911">
        <ele>535.1109619</ele>
        <time>2011-09-03T15:04:33Z</time>
      </trkpt>
      <trkpt lat="45.65068" lon="4.65933">
        <ele>535.1109619</ele>
        <time>2011-09-03T15:04:37Z</time>
      </trkpt>
      <trkpt lat="45.65028" lon="4.65988">
        <ele>536.5531006</ele>
        <time>2011-09-03T15:04:49Z</time>
      </trkpt>
      <trkpt lat="45.65015" lon="4.66">
        <ele>537.5142822</ele>
        <time>2011-09-03T15:04:54Z</time>
      </trkpt>
      <trkpt lat="45.6501" lon="4.66008">
        <ele>537.5142822</ele>
        <time>2011-09-03T15:04:59Z</time>
      </trkpt>
      <trkpt lat="45.65016" lon="4.66011">
        <ele>537.9949951</ele>
        <time>2011-09-03T15:05:05Z</time>
      </trkpt>
      <trkpt lat="45.65017" lon="4.66006">
        <ele>537.0336914</ele>
        <time>2011-09-03T15:05:08Z</time>
      </trkpt>
      <trkpt lat="45.65012" lon="4.66005">
        <ele>537.0336914</ele>
        <time>2011-09-03T15:05:15Z</time>
      </trkpt>
      <trkpt lat="45.6501" lon="4.66013">
        <ele>536.5531006</ele>
        <time>2011-09-03T15:05:19Z</time>
      </trkpt>
      <trkpt lat="45.65008" lon="4.66008">
        <ele>537.0336914</ele>
        <time>2011-09-03T15:05:25Z</time>
      </trkpt>
      <trkpt lat="45.65015" lon="4.66006">
        <ele>536.5531006</ele>
        <time>2011-09-03T15:05:31Z</time>
      </trkpt>
      <trkpt lat="45.65013" lon="4.6601">
        <ele>537.0336914</ele>
        <time>2011-09-03T15:05:36Z</time>
      </trkpt>
      <trkpt lat="45.65006" lon="4.66015">
        <ele>537.0336914</ele>
        <time>2011-09-03T15:05:43Z</time>
      </trkpt>
      <trkpt lat="45.65008" lon="4.66021">
        <ele>537.5142822</ele>
        <time>2011-09-03T15:05:49Z</time>
      </trkpt>
      <trkpt lat="45.65009" lon="4.6601">
        <ele>537.0336914</ele>
        <time>2011-09-03T15:05:56Z</time>
      </trkpt>
      <trkpt lat="45.65016" lon="4.6601">
        <ele>537.0336914</ele>
        <time>2011-09-03T15:06:02Z</time>
      </trkpt>
      <trkpt lat="45.65019" lon="4.66007">
        <ele>536.5531006</ele>
        <time>2011-09-03T15:06:10Z</time>
      </trkpt>
      <trkpt lat="45.65012" lon="4.6601">
        <ele>536.5531006</ele>
        <time>2011-09-03T15:06:17Z</time>
      </trkpt>
      <trkpt lat="45.65011" lon="4.66011">
        <ele>536.5531006</ele>
        <time>2011-09-03T15:06:19Z</time>
      </trkpt>
      <trkpt lat="45.65002" lon="4.66033">
        <ele>537.9949951</ele>
        <time>2011-09-03T15:06:28Z</time>
      </trkpt>
      <trkpt lat="45.64985" lon="4.66061">
        <ele>538.475708</ele>
        <time>2011-09-03T15:06:35Z</time>
      </trkpt>
      <trkpt lat="45.64946" lon="4.66115">
        <ele>538.475708</ele>
        <time>2011-09-03T15:06:49Z</time>
      </trkpt>
      <trkpt lat="45.64916" lon="4.66155">
        <ele>538.9562988</ele>
        <time>2011-09-03T15:06:59Z</time>
      </trkpt>
      <trkpt lat="45.64903" lon="4.66184">
        <ele>537.9949951</ele>
        <time>2011-09-03T15:07:06Z</time>
      </trkpt>
      <trkpt lat="45.64902" lon="4.66195">
        <ele>537.0336914</ele>
        <time>2011-09-03T15:07:11Z</time>
      </trkpt>
      <trkpt lat="45.6489" lon="4.66215">
        <ele>533.1883545</ele>
        <time>2011-09-03T15:07:18Z</time>
      </trkpt>
      <trkpt lat="45.64876" lon="4.66257">
        <ele>529.3431396</ele>
        <time>2011-09-03T15:07:22Z</time>
      </trkpt>
      <trkpt lat="45.6486" lon="4.66306">
        <ele>525.9783936</ele>
        <time>2011-09-03T15:07:26Z</time>
      </trkpt>
      <trkpt lat="45.64852" lon="4.6633">
        <ele>524.536499</ele>
        <time>2011-09-03T15:07:28Z</time>
      </trkpt>
      <trkpt lat="45.64829" lon="4.66395">
        <ele>520.6912842</ele>
        <time>2011-09-03T15:07:33Z</time>
      </trkpt>
      <trkpt lat="45.64818" lon="4.66423">
        <ele>517.3266602</ele>
        <time>2011-09-03T15:07:35Z</time>
      </trkpt>
      <trkpt lat="45.64809" lon="4.66454">
        <ele>516.3652344</ele>
        <time>2011-09-03T15:07:37Z</time>
      </trkpt>
      <trkpt lat="45.64786" lon="4.66538">
        <ele>514.442627</ele>
        <time>2011-09-03T15:07:43Z</time>
      </trkpt>
      <trkpt lat="45.64777" lon="4.66598">
        <ele>513.9620361</ele>
        <time>2011-09-03T15:07:48Z</time>
      </trkpt>
      <trkpt lat="45.64761" lon="4.66656">
        <ele>513.9620361</ele>
        <time>2011-09-03T15:07:54Z</time>
      </trkpt>
      <trkpt lat="45.64748" lon="4.66711">
        <ele>511.5587158</ele>
        <time>2011-09-03T15:07:59Z</time>
      </trkpt>
      <trkpt lat="45.64746" lon="4.66722">
        <ele>511.5587158</ele>
        <time>2011-09-03T15:08:00Z</time>
      </trkpt>
      <trkpt lat="45.64745" lon="4.66755">
        <ele>510.59729</ele>
        <time>2011-09-03T15:08:03Z</time>
      </trkpt>
      <trkpt lat="45.6474" lon="4.66788">
        <ele>509.6361084</ele>
        <time>2011-09-03T15:08:06Z</time>
      </trkpt>
      <trkpt lat="45.64737" lon="4.668">
        <ele>509.1553955</ele>
        <time>2011-09-03T15:08:07Z</time>
      </trkpt>
      <trkpt lat="45.64731" lon="4.66865">
        <ele>505.3101807</ele>
        <time>2011-09-03T15:08:13Z</time>
      </trkpt>
      <trkpt lat="45.64729" lon="4.66889">
        <ele>501.9455566</ele>
        <time>2011-09-03T15:08:15Z</time>
      </trkpt>
      <trkpt lat="45.64726" lon="4.66939">
        <ele>498.1003418</ele>
        <time>2011-09-03T15:08:18Z</time>
      </trkpt>
      <trkpt lat="45.64724" lon="4.66957">
        <ele>495.6968994</ele>
        <time>2011-09-03T15:08:19Z</time>
      </trkpt>
      <trkpt lat="45.64705" lon="4.67029">
        <ele>493.774292</ele>
        <time>2011-09-03T15:08:24Z</time>
      </trkpt>
      <trkpt lat="45.64695" lon="4.67058">
        <ele>493.774292</ele>
        <time>2011-09-03T15:08:28Z</time>
      </trkpt>
      <trkpt lat="45.64681" lon="4.67121">
        <ele>494.2550049</ele>
        <time>2011-09-03T15:08:38Z</time>
      </trkpt>
      <trkpt lat="45.64666" lon="4.67163">
        <ele>494.7355957</ele>
        <time>2011-09-03T15:08:46Z</time>
      </trkpt>
      <trkpt lat="45.64649" lon="4.67209">
        <ele>495.2161865</ele>
        <time>2011-09-03T15:08:55Z</time>
      </trkpt>
      <trkpt lat="45.6465" lon="4.67232">
        <ele>495.6968994</ele>
        <time>2011-09-03T15:09:01Z</time>
      </trkpt>
      <trkpt lat="45.64649" lon="4.67249">
        <ele>496.1777344</ele>
        <time>2011-09-03T15:09:08Z</time>
      </trkpt>
      <trkpt lat="45.64651" lon="4.67268">
        <ele>495.6968994</ele>
        <time>2011-09-03T15:09:15Z</time>
      </trkpt>
      <trkpt lat="45.64652" lon="4.67302">
        <ele>495.6968994</ele>
        <time>2011-09-03T15:09:24Z</time>
      </trkpt>
      <trkpt lat="45.64658" lon="4.67343">
        <ele>494.7355957</ele>
        <time>2011-09-03T15:09:31Z</time>
      </trkpt>
      <trkpt lat="45.64668" lon="4.67367">
        <ele>493.774292</ele>
        <time>2011-09-03T15:09:35Z</time>
      </trkpt>
      <trkpt lat="45.64688" lon="4.67397">
        <ele>491.8516846</ele>
        <time>2011-09-03T15:09:40Z</time>
      </trkpt>
      <trkpt lat="45.64705" lon="4.67418">
        <ele>490.40979</ele>
        <time>2011-09-03T15:09:43Z</time>
      </trkpt>
      <trkpt lat="45.64726" lon="4.67447">
        <ele>487.5256348</ele>
        <time>2011-09-03T15:09:47Z</time>
      </trkpt>
      <trkpt lat="45.64733" lon="4.67468">
        <ele>486.5644531</ele>
        <time>2011-09-03T15:09:49Z</time>
      </trkpt>
      <trkpt lat="45.64726" lon="4.67518">
        <ele>481.7578125</ele>
        <time>2011-09-03T15:09:53Z</time>
      </trkpt>
      <trkpt lat="45.6472" lon="4.67523">
        <ele>481.7578125</ele>
        <time>2011-09-03T15:09:54Z</time>
      </trkpt>
      <trkpt lat="45.64698" lon="4.67524">
        <ele>480.315918</ele>
        <time>2011-09-03T15:09:57Z</time>
      </trkpt>
      <trkpt lat="45.64683" lon="4.67519">
        <ele>478.3931885</ele>
        <time>2011-09-03T15:09:59Z</time>
      </trkpt>
      <trkpt lat="45.64653" lon="4.67498">
        <ele>475.5092773</ele>
        <time>2011-09-03T15:10:03Z</time>
      </trkpt>
      <trkpt lat="45.64638" lon="4.67491">
        <ele>474.0672607</ele>
        <time>2011-09-03T15:10:05Z</time>
      </trkpt>
      <trkpt lat="45.64616" lon="4.67491">
        <ele>471.6639404</ele>
        <time>2011-09-03T15:10:09Z</time>
      </trkpt>
      <trkpt lat="45.64613" lon="4.67492">
        <ele>471.6639404</ele>
        <time>2011-09-03T15:10:10Z</time>
      </trkpt>
      <trkpt lat="45.64597" lon="4.67493">
        <ele>469.741333</ele>
        <time>2011-09-03T15:10:18Z</time>
      </trkpt>
      <trkpt lat="45.64581" lon="4.6749">
        <ele>468.2993164</ele>
        <time>2011-09-03T15:10:26Z</time>
      </trkpt>
      <trkpt lat="45.6455" lon="4.67481">
        <ele>466.8574219</ele>
        <time>2011-09-03T15:10:35Z</time>
      </trkpt>
      <trkpt lat="45.6451" lon="4.67518">
        <ele>463.012085</ele>
        <time>2011-09-03T15:11:05Z</time>
      </trkpt>
      <trkpt lat="45.64513" lon="4.67537">
        <ele>461.5701904</ele>
        <time>2011-09-03T15:11:08Z</time>
      </trkpt>
      <trkpt lat="45.6453" lon="4.67559">
        <ele>459.1668701</ele>
        <time>2011-09-03T15:11:11Z</time>
      </trkpt>
      <trkpt lat="45.64537" lon="4.67564">
        <ele>458.6861572</ele>
        <time>2011-09-03T15:11:12Z</time>
      </trkpt>
      <trkpt lat="45.64559" lon="4.67572">
        <ele>456.282959</ele>
        <time>2011-09-03T15:11:16Z</time>
      </trkpt>
      <trkpt lat="45.64558" lon="4.67587">
        <ele>455.8022461</ele>
        <time>2011-09-03T15:11:18Z</time>
      </trkpt>
      <trkpt lat="45.6454" lon="4.67596">
        <ele>455.3215332</ele>
        <time>2011-09-03T15:11:21Z</time>
      </trkpt>
      <trkpt lat="45.64509" lon="4.6759">
        <ele>452.9182129</ele>
        <time>2011-09-03T15:11:25Z</time>
      </trkpt>
      <trkpt lat="45.64469" lon="4.67591">
        <ele>450.5150146</ele>
        <time>2011-09-03T15:11:30Z</time>
      </trkpt>
      <trkpt lat="45.64453" lon="4.67594">
        <ele>449.072998</ele>
        <time>2011-09-03T15:11:32Z</time>
      </trkpt>
      <trkpt lat="45.64415" lon="4.67629">
        <ele>447.1502686</ele>
        <time>2011-09-03T15:11:37Z</time>
      </trkpt>
      <trkpt lat="45.64408" lon="4.67637">
        <ele>446.1890869</ele>
        <time>2011-09-03T15:11:38Z</time>
      </trkpt>
      <trkpt lat="45.64379" lon="4.67643">
        <ele>443.3050537</ele>
        <time>2011-09-03T15:11:42Z</time>
      </trkpt>
      <trkpt lat="45.64354" lon="4.67652">
        <ele>440.4212646</ele>
        <time>2011-09-03T15:11:46Z</time>
      </trkpt>
      <trkpt lat="45.64348" lon="4.67657">
        <ele>440.4212646</ele>
        <time>2011-09-03T15:11:47Z</time>
      </trkpt>
      <trkpt lat="45.64342" lon="4.67663">
        <ele>440.4212646</ele>
        <time>2011-09-03T15:11:48Z</time>
      </trkpt>
      <trkpt lat="45.64311" lon="4.677">
        <ele>434.6533203</ele>
        <time>2011-09-03T15:11:53Z</time>
      </trkpt>
      <trkpt lat="45.64285" lon="4.67746">
        <ele>431.2885742</ele>
        <time>2011-09-03T15:11:58Z</time>
      </trkpt>
      <trkpt lat="45.64281" lon="4.67756">
        <ele>431.2885742</ele>
        <time>2011-09-03T15:11:59Z</time>
      </trkpt>
      <trkpt lat="45.64295" lon="4.67812">
        <ele>431.2885742</ele>
        <time>2011-09-03T15:12:01Z</time>
      </trkpt>
      <trkpt lat="45.64278" lon="4.67859">
        <ele>425.520752</ele>
        <time>2011-09-03T15:12:04Z</time>
      </trkpt>
      <trkpt lat="45.64274" lon="4.67848">
        <ele>425.520752</ele>
        <time>2011-09-03T15:12:05Z</time>
      </trkpt>
      <trkpt lat="45.64244" lon="4.67888">
        <ele>422.1560059</ele>
        <time>2011-09-03T15:12:10Z</time>
      </trkpt>
      <trkpt lat="45.64232" lon="4.67954">
        <ele>417.3496094</ele>
        <time>2011-09-03T15:12:15Z</time>
      </trkpt>
      <trkpt lat="45.64221" lon="4.68026">
        <ele>414.946167</ele>
        <time>2011-09-03T15:12:20Z</time>
      </trkpt>
      <trkpt lat="45.64195" lon="4.68112">
        <ele>411.581665</ele>
        <time>2011-09-03T15:12:28Z</time>
      </trkpt>
      <trkpt lat="45.64202" lon="4.68084">
        <ele>411.1009521</ele>
        <time>2011-09-03T15:12:29Z</time>
      </trkpt>
      <trkpt lat="45.642" lon="4.68095">
        <ele>410.6202393</ele>
        <time>2011-09-03T15:12:30Z</time>
      </trkpt>
      <trkpt lat="45.64189" lon="4.68162">
        <ele>407.2556152</ele>
        <time>2011-09-03T15:12:35Z</time>
      </trkpt>
      <trkpt lat="45.64186" lon="4.68175">
        <ele>407.2556152</ele>
        <time>2011-09-03T15:12:36Z</time>
      </trkpt>
      <trkpt lat="45.64174" lon="4.68242">
        <ele>404.8522949</ele>
        <time>2011-09-03T15:12:42Z</time>
      </trkpt>
      <trkpt lat="45.64168" lon="4.68283">
        <ele>402.4490967</ele>
        <time>2011-09-03T15:12:45Z</time>
      </trkpt>
      <trkpt lat="45.64158" lon="4.68402">
        <ele>397.6424561</ele>
        <time>2011-09-03T15:12:53Z</time>
      </trkpt>
      <trkpt lat="45.64138" lon="4.68619">
        <ele>393.7972412</ele>
        <time>2011-09-03T15:13:13Z</time>
      </trkpt>
      <trkpt lat="45.64137" lon="4.68623">
        <ele>393.3165283</ele>
        <time>2011-09-03T15:13:15Z</time>
      </trkpt>
      <trkpt lat="45.64138" lon="4.68607">
        <ele>393.3165283</ele>
        <time>2011-09-03T15:13:21Z</time>
      </trkpt>
      <trkpt lat="45.64071" lon="4.68588">
        <ele>391.3937988</ele>
        <time>2011-09-03T15:13:41Z</time>
      </trkpt>
      <trkpt lat="45.64019" lon="4.68533">
        <ele>391.8745117</ele>
        <time>2011-09-03T15:13:51Z</time>
      </trkpt>
      <trkpt lat="45.64" lon="4.68525">
        <ele>391.3937988</ele>
        <time>2011-09-03T15:13:55Z</time>
      </trkpt>
      <trkpt lat="45.63921" lon="4.68527">
        <ele>390.913208</ele>
        <time>2011-09-03T15:14:08Z</time>
      </trkpt>
      <trkpt lat="45.63849" lon="4.68526">
        <ele>390.913208</ele>
        <time>2011-09-03T15:14:20Z</time>
      </trkpt>
      <trkpt lat="45.63832" lon="4.68524">
        <ele>390.4326172</ele>
        <time>2011-09-03T15:14:23Z</time>
      </trkpt>
      <trkpt lat="45.6381" lon="4.68524">
        <ele>390.913208</ele>
        <time>2011-09-03T15:14:28Z</time>
      </trkpt>
      <trkpt lat="45.63809" lon="4.68546">
        <ele>390.913208</ele>
        <time>2011-09-03T15:14:31Z</time>
      </trkpt>
      <trkpt lat="45.63817" lon="4.68578">
        <ele>389.9519043</ele>
        <time>2011-09-03T15:14:35Z</time>
      </trkpt>
      <trkpt lat="45.63825" lon="4.68675">
        <ele>386.5874023</ele>
        <time>2011-09-03T15:14:44Z</time>
      </trkpt>
      <trkpt lat="45.63829" lon="4.68729">
        <ele>386.1066895</ele>
        <time>2011-09-03T15:14:49Z</time>
      </trkpt>
      <trkpt lat="45.63816" lon="4.68778">
        <ele>384.184082</ele>
        <time>2011-09-03T15:14:54Z</time>
      </trkpt>
      <trkpt lat="45.63804" lon="4.6879">
        <ele>383.2226563</ele>
        <time>2011-09-03T15:14:56Z</time>
      </trkpt>
      <trkpt lat="45.6373" lon="4.68846">
        <ele>382.2613525</ele>
        <time>2011-09-03T15:15:07Z</time>
      </trkpt>
      <trkpt lat="45.63679" lon="4.6888">
        <ele>378.4161377</ele>
        <time>2011-09-03T15:15:14Z</time>
      </trkpt>
      <trkpt lat="45.63672" lon="4.68886">
        <ele>378.4161377</ele>
        <time>2011-09-03T15:15:15Z</time>
      </trkpt>
      <trkpt lat="45.63649" lon="4.68902">
        <ele>376.9742432</ele>
        <time>2011-09-03T15:15:18Z</time>
      </trkpt>
      <trkpt lat="45.63636" lon="4.68916">
        <ele>376.4935303</ele>
        <time>2011-09-03T15:15:20Z</time>
      </trkpt>
      <trkpt lat="45.636" lon="4.68966">
        <ele>374.0900879</ele>
        <time>2011-09-03T15:15:26Z</time>
      </trkpt>
      <trkpt lat="45.63573" lon="4.69007">
        <ele>373.6094971</ele>
        <time>2011-09-03T15:15:31Z</time>
      </trkpt>
      <trkpt lat="45.6351" lon="4.69062">
        <ele>371.6868896</ele>
        <time>2011-09-03T15:15:40Z</time>
      </trkpt>
      <trkpt lat="45.63495" lon="4.69072">
        <ele>371.2062988</ele>
        <time>2011-09-03T15:15:42Z</time>
      </trkpt>
      <trkpt lat="45.63456" lon="4.69083">
        <ele>369.2836914</ele>
        <time>2011-09-03T15:15:47Z</time>
      </trkpt>
      <trkpt lat="45.63387" lon="4.69087">
        <ele>367.8415527</ele>
        <time>2011-09-03T15:15:56Z</time>
      </trkpt>
      <trkpt lat="45.63336" lon="4.69113">
        <ele>365.4383545</ele>
        <time>2011-09-03T15:16:03Z</time>
      </trkpt>
      <trkpt lat="45.6332" lon="4.69121">
        <ele>365.4383545</ele>
        <time>2011-09-03T15:16:05Z</time>
      </trkpt>
      <trkpt lat="45.63275" lon="4.69128">
        <ele>363.0350342</ele>
        <time>2011-09-03T15:16:10Z</time>
      </trkpt>
      <trkpt lat="45.632" lon="4.6914">
        <ele>361.5931396</ele>
        <time>2011-09-03T15:16:19Z</time>
      </trkpt>
      <trkpt lat="45.63149" lon="4.69158">
        <ele>360.6317139</ele>
        <time>2011-09-03T15:16:26Z</time>
      </trkpt>
      <trkpt lat="45.63107" lon="4.69192">
        <ele>359.1896973</ele>
        <time>2011-09-03T15:16:33Z</time>
      </trkpt>
      <trkpt lat="45.63037" lon="4.69272">
        <ele>358.2283936</ele>
        <time>2011-09-03T15:16:46Z</time>
      </trkpt>
      <trkpt lat="45.62992" lon="4.6935">
        <ele>357.7478027</ele>
        <time>2011-09-03T15:16:57Z</time>
      </trkpt>
      <trkpt lat="45.62931" lon="4.69455">
        <ele>356.3057861</ele>
        <time>2011-09-03T15:17:12Z</time>
      </trkpt>
      <trkpt lat="45.62887" lon="4.69516">
        <ele>356.3057861</ele>
        <time>2011-09-03T15:17:22Z</time>
      </trkpt>
      <trkpt lat="45.62838" lon="4.69594">
        <ele>354.3831787</ele>
        <time>2011-09-03T15:17:33Z</time>
      </trkpt>
      <trkpt lat="45.62799" lon="4.69697">
        <ele>351.9798584</ele>
        <time>2011-09-03T15:17:44Z</time>
      </trkpt>
      <trkpt lat="45.62759" lon="4.6981">
        <ele>349.5765381</ele>
        <time>2011-09-03T15:17:56Z</time>
      </trkpt>
      <trkpt lat="45.62726" lon="4.6987">
        <ele>347.1732178</ele>
        <time>2011-09-03T15:18:03Z</time>
      </trkpt>
      <trkpt lat="45.6266" lon="4.69986">
        <ele>344.7700195</ele>
        <time>2011-09-03T15:18:17Z</time>
      </trkpt>
      <trkpt lat="45.62604" lon="4.70083">
        <ele>344.2894287</ele>
        <time>2011-09-03T15:18:29Z</time>
      </trkpt>
      <trkpt lat="45.62571" lon="4.70152">
        <ele>342.3666992</ele>
        <time>2011-09-03T15:18:37Z</time>
      </trkpt>
      <trkpt lat="45.6255" lon="4.7021">
        <ele>341.4052734</ele>
        <time>2011-09-03T15:18:44Z</time>
      </trkpt>
      <trkpt lat="45.62513" lon="4.70275">
        <ele>340.9246826</ele>
        <time>2011-09-03T15:18:53Z</time>
      </trkpt>
      <trkpt lat="45.62476" lon="4.70302">
        <ele>340.9246826</ele>
        <time>2011-09-03T15:18:59Z</time>
      </trkpt>
      <trkpt lat="45.62424" lon="4.70329">
        <ele>340.4440918</ele>
        <time>2011-09-03T15:19:08Z</time>
      </trkpt>
      <trkpt lat="45.62367" lon="4.70361">
        <ele>339.482666</ele>
        <time>2011-09-03T15:19:19Z</time>
      </trkpt>
      <trkpt lat="45.62331" lon="4.70395">
        <ele>339.9633789</ele>
        <time>2011-09-03T15:19:26Z</time>
      </trkpt>
      <trkpt lat="45.62296" lon="4.7044">
        <ele>339.0020752</ele>
        <time>2011-09-03T15:19:34Z</time>
      </trkpt>
      <trkpt lat="45.62254" lon="4.70496">
        <ele>338.0407715</ele>
        <time>2011-09-03T15:19:43Z</time>
      </trkpt>
      <trkpt lat="45.62208" lon="4.70539">
        <ele>337.5600586</ele>
        <time>2011-09-03T15:19:51Z</time>
      </trkpt>
      <trkpt lat="45.62152" lon="4.70573">
        <ele>336.598877</ele>
        <time>2011-09-03T15:20:00Z</time>
      </trkpt>
      <trkpt lat="45.62127" lon="4.70589">
        <ele>336.1181641</ele>
        <time>2011-09-03T15:20:04Z</time>
      </trkpt>
      <trkpt lat="45.62087" lon="4.70641">
        <ele>335.6373291</ele>
        <time>2011-09-03T15:20:12Z</time>
      </trkpt>
      <trkpt lat="45.62046" lon="4.70689">
        <ele>334.6761475</ele>
        <time>2011-09-03T15:20:20Z</time>
      </trkpt>
      <trkpt lat="45.62016" lon="4.70719">
        <ele>332.75354</ele>
        <time>2011-09-03T15:20:25Z</time>
      </trkpt>
      <trkpt lat="45.61997" lon="4.70738">
        <ele>331.3115234</ele>
        <time>2011-09-03T15:20:28Z</time>
      </trkpt>
      <trkpt lat="45.61934" lon="4.70836">
        <ele>330.3502197</ele>
        <time>2011-09-03T15:20:40Z</time>
      </trkpt>
      <trkpt lat="45.61925" lon="4.70852">
        <ele>330.8309326</ele>
        <time>2011-09-03T15:20:42Z</time>
      </trkpt>
      <trkpt lat="45.6189" lon="4.70941">
        <ele>328.9083252</ele>
        <time>2011-09-03T15:20:52Z</time>
      </trkpt>
      <trkpt lat="45.6188" lon="4.70969">
        <ele>327.9467773</ele>
        <time>2011-09-03T15:20:55Z</time>
      </trkpt>
      <trkpt lat="45.61858" lon="4.70984">
        <ele>328.4276123</ele>
        <time>2011-09-03T15:20:59Z</time>
      </trkpt>
      <trkpt lat="45.61839" lon="4.71002">
        <ele>328.4276123</ele>
        <time>2011-09-03T15:21:03Z</time>
      </trkpt>
      <trkpt lat="45.61836" lon="4.7101">
        <ele>327.4661865</ele>
        <time>2011-09-03T15:21:04Z</time>
      </trkpt>
      <trkpt lat="45.61812" lon="4.71031">
        <ele>326.9855957</ele>
        <time>2011-09-03T15:21:09Z</time>
      </trkpt>
      <trkpt lat="45.61787" lon="4.71042">
        <ele>328.4276123</ele>
        <time>2011-09-03T15:21:14Z</time>
      </trkpt>
      <trkpt lat="45.61751" lon="4.71093">
        <ele>327.4661865</ele>
        <time>2011-09-03T15:21:25Z</time>
      </trkpt>
      <trkpt lat="45.61712" lon="4.71156">
        <ele>327.9467773</ele>
        <time>2011-09-03T15:21:37Z</time>
      </trkpt>
      <trkpt lat="45.61663" lon="4.71231">
        <ele>326.5048828</ele>
        <time>2011-09-03T15:21:50Z</time>
      </trkpt>
      <trkpt lat="45.61625" lon="4.71304">
        <ele>326.0241699</ele>
        <time>2011-09-03T15:22:00Z</time>
      </trkpt>
      <trkpt lat="45.61575" lon="4.71392">
        <ele>325.0629883</ele>
        <time>2011-09-03T15:22:12Z</time>
      </trkpt>
      <trkpt lat="45.61533" lon="4.71451">
        <ele>324.1015625</ele>
        <time>2011-09-03T15:22:21Z</time>
      </trkpt>
      <trkpt lat="45.61478" lon="4.71536">
        <ele>324.5822754</ele>
        <time>2011-09-03T15:22:34Z</time>
      </trkpt>
      <trkpt lat="45.6144" lon="4.71602">
        <ele>325.0629883</ele>
        <time>2011-09-03T15:22:44Z</time>
      </trkpt>
      <trkpt lat="45.61398" lon="4.71656">
        <ele>326.0241699</ele>
        <time>2011-09-03T15:22:54Z</time>
      </trkpt>
      <trkpt lat="45.61353" lon="4.71713">
        <ele>328.9083252</ele>
        <time>2011-09-03T15:23:05Z</time>
      </trkpt>
      <trkpt lat="45.61349" lon="4.71718">
        <ele>328.9083252</ele>
        <time>2011-09-03T15:23:06Z</time>
      </trkpt>
      <trkpt lat="45.61314" lon="4.71763">
        <ele>330.3502197</ele>
        <time>2011-09-03T15:23:13Z</time>
      </trkpt>
      <trkpt lat="45.6126" lon="4.71831">
        <ele>331.3115234</ele>
        <time>2011-09-03T15:23:22Z</time>
      </trkpt>
      <trkpt lat="45.61199" lon="4.71915">
        <ele>331.3115234</ele>
        <time>2011-09-03T15:23:33Z</time>
      </trkpt>
      <trkpt lat="45.61151" lon="4.71986">
        <ele>333.2341309</ele>
        <time>2011-09-03T15:23:43Z</time>
      </trkpt>
      <trkpt lat="45.61117" lon="4.7205">
        <ele>334.1954346</ele>
        <time>2011-09-03T15:23:52Z</time>
      </trkpt>
      <trkpt lat="45.61102" lon="4.72105">
        <ele>335.1567383</ele>
        <time>2011-09-03T15:23:58Z</time>
      </trkpt>
      <trkpt lat="45.61076" lon="4.72224">
        <ele>337.0794678</ele>
        <time>2011-09-03T15:24:10Z</time>
      </trkpt>
      <trkpt lat="45.61055" lon="4.72311">
        <ele>339.9633789</ele>
        <time>2011-09-03T15:24:20Z</time>
      </trkpt>
      <trkpt lat="45.61024" lon="4.72412">
        <ele>341.8859863</ele>
        <time>2011-09-03T15:24:32Z</time>
      </trkpt>
      <trkpt lat="45.60987" lon="4.72509">
        <ele>342.84729</ele>
        <time>2011-09-03T15:24:44Z</time>
      </trkpt>
      <trkpt lat="45.60962" lon="4.72588">
        <ele>342.3666992</ele>
        <time>2011-09-03T15:24:54Z</time>
      </trkpt>
      <trkpt lat="45.6093" lon="4.72705">
        <ele>341.8859863</ele>
        <time>2011-09-03T15:25:07Z</time>
      </trkpt>
      <trkpt lat="45.60903" lon="4.72763">
        <ele>341.4052734</ele>
        <time>2011-09-03T15:25:14Z</time>
      </trkpt>
      <trkpt lat="45.60877" lon="4.72797">
        <ele>341.4052734</ele>
        <time>2011-09-03T15:25:19Z</time>
      </trkpt>
      <trkpt lat="45.60827" lon="4.72867">
        <ele>341.4052734</ele>
        <time>2011-09-03T15:25:29Z</time>
      </trkpt>
      <trkpt lat="45.60787" lon="4.72927">
        <ele>340.4440918</ele>
        <time>2011-09-03T15:25:37Z</time>
      </trkpt>
      <trkpt lat="45.60757" lon="4.72947">
        <ele>338.5214844</ele>
        <time>2011-09-03T15:25:41Z</time>
      </trkpt>
      <trkpt lat="45.60724" lon="4.72957">
        <ele>336.598877</ele>
        <time>2011-09-03T15:25:45Z</time>
      </trkpt>
      <trkpt lat="45.60692" lon="4.7297">
        <ele>335.6373291</ele>
        <time>2011-09-03T15:25:50Z</time>
      </trkpt>
      <trkpt lat="45.60616" lon="4.7307">
        <ele>332.2728271</ele>
        <time>2011-09-03T15:26:02Z</time>
      </trkpt>
      <trkpt lat="45.60605" lon="4.7309">
        <ele>330.8309326</ele>
        <time>2011-09-03T15:26:04Z</time>
      </trkpt>
      <trkpt lat="45.60598" lon="4.73125">
        <ele>328.9083252</ele>
        <time>2011-09-03T15:26:07Z</time>
      </trkpt>
      <trkpt lat="45.60608" lon="4.7318">
        <ele>325.5435791</ele>
        <time>2011-09-03T15:26:12Z</time>
      </trkpt>
      <trkpt lat="45.60601" lon="4.73224">
        <ele>323.1403809</ele>
        <time>2011-09-03T15:26:16Z</time>
      </trkpt>
      <trkpt lat="45.60597" lon="4.73233">
        <ele>322.1789551</ele>
        <time>2011-09-03T15:26:17Z</time>
      </trkpt>
      <trkpt lat="45.60584" lon="4.73268">
        <ele>319.2950439</ele>
        <time>2011-09-03T15:26:21Z</time>
      </trkpt>
      <trkpt lat="45.60603" lon="4.73353">
        <ele>315.4498291</ele>
        <time>2011-09-03T15:26:26Z</time>
      </trkpt>
      <trkpt lat="45.60592" lon="4.73399">
        <ele>312.5657959</ele>
        <time>2011-09-03T15:26:30Z</time>
      </trkpt>
      <trkpt lat="45.60578" lon="4.7346">
        <ele>308.720459</ele>
        <time>2011-09-03T15:26:36Z</time>
      </trkpt>
      <trkpt lat="45.60574" lon="4.73484">
        <ele>307.7592773</ele>
        <time>2011-09-03T15:26:38Z</time>
      </trkpt>
      <trkpt lat="45.60562" lon="4.73532">
        <ele>303.9139404</ele>
        <time>2011-09-03T15:26:42Z</time>
      </trkpt>
      <trkpt lat="45.60554" lon="4.73571">
        <ele>302.9525146</ele>
        <time>2011-09-03T15:26:45Z</time>
      </trkpt>
      <trkpt lat="45.60549" lon="4.73598">
        <ele>302.4719238</ele>
        <time>2011-09-03T15:26:47Z</time>
      </trkpt>
      <trkpt lat="45.60519" lon="4.73691">
        <ele>299.5880127</ele>
        <time>2011-09-03T15:26:54Z</time>
      </trkpt>
      <trkpt lat="45.60514" lon="4.73731">
        <ele>299.1072998</ele>
        <time>2011-09-03T15:26:57Z</time>
      </trkpt>
      <trkpt lat="45.60522" lon="4.7385">
        <ele>302.4719238</ele>
        <time>2011-09-03T15:27:07Z</time>
      </trkpt>
      <trkpt lat="45.6053" lon="4.73941">
        <ele>305.355957</ele>
        <time>2011-09-03T15:27:17Z</time>
      </trkpt>
      <trkpt lat="45.6053" lon="4.74006">
        <ele>308.720459</ele>
        <time>2011-09-03T15:27:26Z</time>
      </trkpt>
      <trkpt lat="45.6053" lon="4.74052">
        <ele>311.1237793</ele>
        <time>2011-09-03T15:27:33Z</time>
      </trkpt>
      <trkpt lat="45.60529" lon="4.74135">
        <ele>312.0852051</ele>
        <time>2011-09-03T15:27:45Z</time>
      </trkpt>
      <trkpt lat="45.60527" lon="4.74214">
        <ele>310.6430664</ele>
        <time>2011-09-03T15:27:54Z</time>
      </trkpt>
      <trkpt lat="45.60521" lon="4.74307">
        <ele>305.8366699</ele>
        <time>2011-09-03T15:28:02Z</time>
      </trkpt>
      <trkpt lat="45.60517" lon="4.74344">
        <ele>303.4332275</ele>
        <time>2011-09-03T15:28:05Z</time>
      </trkpt>
      <trkpt lat="45.60492" lon="4.74397">
        <ele>301.0299072</ele>
        <time>2011-09-03T15:28:10Z</time>
      </trkpt>
      <trkpt lat="45.60484" lon="4.74404">
        <ele>301.0299072</ele>
        <time>2011-09-03T15:28:11Z</time>
      </trkpt>
      <trkpt lat="45.60457" lon="4.74432">
        <ele>300.0687256</ele>
        <time>2011-09-03T15:28:15Z</time>
      </trkpt>
      <trkpt lat="45.60436" lon="4.74487">
        <ele>297.6654053</ele>
        <time>2011-09-03T15:28:20Z</time>
      </trkpt>
      <trkpt lat="45.60434" lon="4.74515">
        <ele>296.7041016</ele>
        <time>2011-09-03T15:28:22Z</time>
      </trkpt>
      <trkpt lat="45.60432" lon="4.74573">
        <ele>291.8974609</ele>
        <time>2011-09-03T15:28:26Z</time>
      </trkpt>
      <trkpt lat="45.60442" lon="4.74646">
        <ele>289.9748535</ele>
        <time>2011-09-03T15:28:31Z</time>
      </trkpt>
      <trkpt lat="45.60449" lon="4.74675">
        <ele>287.0908203</ele>
        <time>2011-09-03T15:28:33Z</time>
      </trkpt>
      <trkpt lat="45.60476" lon="4.74723">
        <ele>283.2456055</ele>
        <time>2011-09-03T15:28:37Z</time>
      </trkpt>
      <trkpt lat="45.60494" lon="4.74746">
        <ele>280.8424072</ele>
        <time>2011-09-03T15:28:39Z</time>
      </trkpt>
      <trkpt lat="45.60509" lon="4.74786">
        <ele>277.958252</ele>
        <time>2011-09-03T15:28:42Z</time>
      </trkpt>
      <trkpt lat="45.60509" lon="4.74816">
        <ele>276.5163574</ele>
        <time>2011-09-03T15:28:44Z</time>
      </trkpt>
      <trkpt lat="45.60503" lon="4.74867">
        <ele>272.6711426</ele>
        <time>2011-09-03T15:28:48Z</time>
      </trkpt>
      <trkpt lat="45.6058" lon="4.74955">
        <ele>261.1352539</ele>
        <time>2011-09-03T15:29:00Z</time>
      </trkpt>
      <trkpt lat="45.60589" lon="4.74965">
        <ele>259.6933594</ele>
        <time>2011-09-03T15:29:01Z</time>
      </trkpt>
      <trkpt lat="45.60615" lon="4.74999">
        <ele>258.2513428</ele>
        <time>2011-09-03T15:29:04Z</time>
      </trkpt>
      <trkpt lat="45.60619" lon="4.75051">
        <ele>254.8865967</ele>
        <time>2011-09-03T15:29:07Z</time>
      </trkpt>
      <trkpt lat="45.60619" lon="4.75135">
        <ele>249.5994873</ele>
        <time>2011-09-03T15:29:12Z</time>
      </trkpt>
      <trkpt lat="45.6062" lon="4.75188">
        <ele>246.2348633</ele>
        <time>2011-09-03T15:29:15Z</time>
      </trkpt>
      <trkpt lat="45.60621" lon="4.75241">
        <ele>242.8702393</ele>
        <time>2011-09-03T15:29:18Z</time>
      </trkpt>
      <trkpt lat="45.60619" lon="4.75294">
        <ele>238.0635986</ele>
        <time>2011-09-03T15:29:21Z</time>
      </trkpt>
      <trkpt lat="45.60614" lon="4.75347">
        <ele>236.6217041</ele>
        <time>2011-09-03T15:29:24Z</time>
      </trkpt>
      <trkpt lat="45.60603" lon="4.75378">
        <ele>232.7764893</ele>
        <time>2011-09-03T15:29:26Z</time>
      </trkpt>
      <trkpt lat="45.60575" lon="4.75409">
        <ele>228.9311523</ele>
        <time>2011-09-03T15:29:29Z</time>
      </trkpt>
      <trkpt lat="45.60556" lon="4.75446">
        <ele>226.527832</ele>
        <time>2011-09-03T15:29:33Z</time>
      </trkpt>
      <trkpt lat="45.60572" lon="4.75502">
        <ele>223.163208</ele>
        <time>2011-09-03T15:29:39Z</time>
      </trkpt>
      <trkpt lat="45.60596" lon="4.75514">
        <ele>220.2791748</ele>
        <time>2011-09-03T15:29:42Z</time>
      </trkpt>
      <trkpt lat="45.60669" lon="4.75489">
        <ele>216.9146729</ele>
        <time>2011-09-03T15:29:45Z</time>
      </trkpt>
      <trkpt lat="45.60687" lon="4.7551">
        <ele>214.0306396</ele>
        <time>2011-09-03T15:29:48Z</time>
      </trkpt>
      <trkpt lat="45.60816" lon="4.75599">
        <ele>198.6495361</ele>
        <time>2011-09-03T15:30:01Z</time>
      </trkpt>
      <trkpt lat="45.60856" lon="4.75674">
        <ele>192.8817139</ele>
        <time>2011-09-03T15:30:04Z</time>
      </trkpt>
      <trkpt lat="45.60871" lon="4.7575">
        <ele>190.9589844</ele>
        <time>2011-09-03T15:30:07Z</time>
      </trkpt>
      <trkpt lat="45.60862" lon="4.75786">
        <ele>189.5169678</ele>
        <time>2011-09-03T15:30:10Z</time>
      </trkpt>
      <trkpt lat="45.60841" lon="4.75808">
        <ele>188.5557861</ele>
        <time>2011-09-03T15:30:13Z</time>
      </trkpt>
      <trkpt lat="45.60817" lon="4.75816">
        <ele>189.036377</ele>
        <time>2011-09-03T15:30:16Z</time>
      </trkpt>
      <trkpt lat="45.60791" lon="4.75818">
        <ele>190.9589844</ele>
        <time>2011-09-03T15:30:20Z</time>
      </trkpt>
      <trkpt lat="45.60764" lon="4.7582">
        <ele>192.8817139</ele>
        <time>2011-09-03T15:30:26Z</time>
      </trkpt>
      <trkpt lat="45.60742" lon="4.75819">
        <ele>195.765625</ele>
        <time>2011-09-03T15:30:31Z</time>
      </trkpt>
      <trkpt lat="45.60712" lon="4.75822">
        <ele>198.1689453</ele>
        <time>2011-09-03T15:30:41Z</time>
      </trkpt>
      <trkpt lat="45.60707" lon="4.75822">
        <ele>199.130127</ele>
        <time>2011-09-03T15:30:43Z</time>
      </trkpt>
      <trkpt lat="45.60698" lon="4.75823">
        <ele>200.0916748</ele>
        <time>2011-09-03T15:30:46Z</time>
      </trkpt>
      <trkpt lat="45.60653" lon="4.75824">
        <ele>203.4561768</ele>
        <time>2011-09-03T15:31:00Z</time>
      </trkpt>
      <trkpt lat="45.60624" lon="4.75826">
        <ele>206.3400879</ele>
        <time>2011-09-03T15:31:10Z</time>
      </trkpt>
      <trkpt lat="45.60599" lon="4.7583">
        <ele>207.7821045</ele>
        <time>2011-09-03T15:31:19Z</time>
      </trkpt>
      <trkpt lat="45.60571" lon="4.7584">
        <ele>211.1467285</ele>
        <time>2011-09-03T15:31:29Z</time>
      </trkpt>
      <trkpt lat="45.6054" lon="4.75853">
        <ele>213.5500488</ele>
        <time>2011-09-03T15:31:40Z</time>
      </trkpt>
      <trkpt lat="45.60507" lon="4.75872">
        <ele>216.9146729</ele>
        <time>2011-09-03T15:31:52Z</time>
      </trkpt>
      <trkpt lat="45.60475" lon="4.75893">
        <ele>217.3953857</ele>
        <time>2011-09-03T15:32:02Z</time>
      </trkpt>
      <trkpt lat="45.60453" lon="4.75911">
        <ele>216.9146729</ele>
        <time>2011-09-03T15:32:09Z</time>
      </trkpt>
      <trkpt lat="45.60443" lon="4.7592">
        <ele>217.8759766</ele>
        <time>2011-09-03T15:32:12Z</time>
      </trkpt>
      <trkpt lat="45.60407" lon="4.75958">
        <ele>216.9146729</ele>
        <time>2011-09-03T15:32:21Z</time>
      </trkpt>
      <trkpt lat="45.60375" lon="4.76">
        <ele>215.9532471</ele>
        <time>2011-09-03T15:32:29Z</time>
      </trkpt>
      <trkpt lat="45.60344" lon="4.76019">
        <ele>215.9532471</ele>
        <time>2011-09-03T15:32:35Z</time>
      </trkpt>
      <trkpt lat="45.60339" lon="4.76025">
        <ele>215.4726563</ele>
        <time>2011-09-03T15:32:36Z</time>
      </trkpt>
      <trkpt lat="45.60325" lon="4.76045">
        <ele>214.9919434</ele>
        <time>2011-09-03T15:32:39Z</time>
      </trkpt>
      <trkpt lat="45.60297" lon="4.7611">
        <ele>210.1854248</ele>
        <time>2011-09-03T15:32:45Z</time>
      </trkpt>
      <trkpt lat="45.60274" lon="4.76159">
        <ele>206.8206787</ele>
        <time>2011-09-03T15:32:49Z</time>
      </trkpt>
      <trkpt lat="45.60254" lon="4.76194">
        <ele>203.4561768</ele>
        <time>2011-09-03T15:32:52Z</time>
      </trkpt>
      <trkpt lat="45.60213" lon="4.76251">
        <ele>201.0528564</ele>
        <time>2011-09-03T15:32:58Z</time>
      </trkpt>
      <trkpt lat="45.60172" lon="4.76297">
        <ele>201.5335693</ele>
        <time>2011-09-03T15:33:05Z</time>
      </trkpt>
      <trkpt lat="45.60127" lon="4.76332">
        <ele>201.0528564</ele>
        <time>2011-09-03T15:33:12Z</time>
      </trkpt>
      <trkpt lat="45.60065" lon="4.7636">
        <ele>199.6108398</ele>
        <time>2011-09-03T15:33:20Z</time>
      </trkpt>
      <trkpt lat="45.60057" lon="4.76364">
        <ele>199.130127</ele>
        <time>2011-09-03T15:33:21Z</time>
      </trkpt>
      <trkpt lat="45.59986" lon="4.76416">
        <ele>196.2463379</ele>
        <time>2011-09-03T15:33:30Z</time>
      </trkpt>
      <trkpt lat="45.59952" lon="4.76444">
        <ele>192.401123</ele>
        <time>2011-09-03T15:33:34Z</time>
      </trkpt>
      <trkpt lat="45.59927" lon="4.76467">
        <ele>191.4395752</ele>
        <time>2011-09-03T15:33:37Z</time>
      </trkpt>
      <trkpt lat="45.59901" lon="4.7649">
        <ele>189.5169678</ele>
        <time>2011-09-03T15:33:40Z</time>
      </trkpt>
      <trkpt lat="45.59863" lon="4.76505">
        <ele>187.1137695</ele>
        <time>2011-09-03T15:33:44Z</time>
      </trkpt>
      <trkpt lat="45.59854" lon="4.76509">
        <ele>186.1524658</ele>
        <time>2011-09-03T15:33:45Z</time>
      </trkpt>
      <trkpt lat="45.59835" lon="4.7652">
        <ele>185.1911621</ele>
        <time>2011-09-03T15:33:47Z</time>
      </trkpt>
      <trkpt lat="45.59811" lon="4.76543">
        <ele>183.7490234</ele>
        <time>2011-09-03T15:33:50Z</time>
      </trkpt>
      <trkpt lat="45.59788" lon="4.76571">
        <ele>182.3071289</ele>
        <time>2011-09-03T15:33:53Z</time>
      </trkpt>
      <trkpt lat="45.59745" lon="4.76633">
        <ele>178.942627</ele>
        <time>2011-09-03T15:33:59Z</time>
      </trkpt>
      <trkpt lat="45.59721" lon="4.76676">
        <ele>176.5393066</ele>
        <time>2011-09-03T15:34:04Z</time>
      </trkpt>
      <trkpt lat="45.59718" lon="4.76682">
        <ele>176.0585938</ele>
        <time>2011-09-03T15:34:07Z</time>
      </trkpt>
      <trkpt lat="45.59717" lon="4.76682">
        <ele>176.0585938</ele>
        <time>2011-09-03T15:34:08Z</time>
      </trkpt>
      <trkpt lat="45.59721" lon="4.767">
        <ele>176.0585938</ele>
        <time>2011-09-03T15:34:14Z</time>
      </trkpt>
      <trkpt lat="45.59757" lon="4.76745">
        <ele>175.5778809</ele>
        <time>2011-09-03T15:34:25Z</time>
      </trkpt>
      <trkpt lat="45.59804" lon="4.76797">
        <ele>176.0585938</ele>
        <time>2011-09-03T15:34:32Z</time>
      </trkpt>
      <trkpt lat="45.59867" lon="4.76866">
        <ele>175.09729</ele>
        <time>2011-09-03T15:34:41Z</time>
      </trkpt>
      <trkpt lat="45.59869" lon="4.76872">
        <ele>175.09729</ele>
        <time>2011-09-03T15:34:42Z</time>
      </trkpt>
      <trkpt lat="45.599" lon="4.76892">
        <ele>175.09729</ele>
        <time>2011-09-03T15:34:46Z</time>
      </trkpt>
      <trkpt lat="45.59915" lon="4.76885">
        <ele>175.5778809</ele>
        <time>2011-09-03T15:34:51Z</time>
      </trkpt>
      <trkpt lat="45.59929" lon="4.76888">
        <ele>175.5778809</ele>
        <time>2011-09-03T15:34:56Z</time>
      </trkpt>
    </trkseg>
  </trk>
</gpx>